<?xml version="1.0" encoding="UTF-8" standalone="no" ?>
<gpx xmlns="http://www.topografix.com/GPX/1/1" xmlns:xsi="http://www.w3.org/2001/XMLSchema-instance" xsi:schemaLocation="http://www.topografix.com/GPX/1/1 http://www.topografix.com/GPX/1/1/gpx.xsd" version="1.1" creator="VisuGPX - https://www.visugpx.com">
  <metadata>
    <name>Rando Vtt St Pierre-Smarves non terminée lourde chute... </name>
  </metadata>
  <trk>
    <name><![CDATA[Rando Vtt St Pierre-Smarves non terminée lourde chute... _1]]></name>
    <trkseg>
      <trkpt lat="46.50625" lon="0.36867">
        <ele>136.4</ele>
        <time>2021-05-13T14:14:00Z</time>
      </trkpt>
      <trkpt lat="46.50617" lon="0.3687">
        <ele>136.4</ele>
        <time>2021-05-13T14:14:07Z</time>
      </trkpt>
      <trkpt lat="46.50615" lon="0.36871">
        <ele>136.4</ele>
        <time>2021-05-13T14:14:08Z</time>
      </trkpt>
      <trkpt lat="46.50608" lon="0.36869">
        <ele>136.4</ele>
        <time>2021-05-13T14:14:11Z</time>
      </trkpt>
      <trkpt lat="46.50607" lon="0.36867">
        <ele>136.4</ele>
        <time>2021-05-13T14:14:12Z</time>
      </trkpt>
      <trkpt lat="46.50602" lon="0.36862">
        <ele>136.2</ele>
        <time>2021-05-13T14:14:15Z</time>
      </trkpt>
      <trkpt lat="46.50592" lon="0.36853">
        <ele>136.2</ele>
        <time>2021-05-13T14:14:20Z</time>
      </trkpt>
      <trkpt lat="46.50587" lon="0.36844">
        <ele>135.8</ele>
        <time>2021-05-13T14:14:25Z</time>
      </trkpt>
      <trkpt lat="46.50585" lon="0.36841">
        <ele>135.8</ele>
        <time>2021-05-13T14:14:26Z</time>
      </trkpt>
      <trkpt lat="46.50582" lon="0.36834">
        <ele>135.8</ele>
        <time>2021-05-13T14:14:29Z</time>
      </trkpt>
      <trkpt lat="46.50583" lon="0.36824">
        <ele>135.8</ele>
        <time>2021-05-13T14:14:32Z</time>
      </trkpt>
      <trkpt lat="46.50584" lon="0.3682">
        <ele>135.8</ele>
        <time>2021-05-13T14:14:33Z</time>
      </trkpt>
      <trkpt lat="46.50584" lon="0.36812">
        <ele>135.8</ele>
        <time>2021-05-13T14:14:35Z</time>
      </trkpt>
      <trkpt lat="46.50582" lon="0.36808">
        <ele>135.8</ele>
        <time>2021-05-13T14:14:36Z</time>
      </trkpt>
      <trkpt lat="46.50577" lon="0.36802">
        <ele>135.8</ele>
        <time>2021-05-13T14:14:38Z</time>
      </trkpt>
      <trkpt lat="46.50571" lon="0.36794">
        <ele>135.6</ele>
        <time>2021-05-13T14:14:40Z</time>
      </trkpt>
      <trkpt lat="46.50568" lon="0.36791">
        <ele>135.6</ele>
        <time>2021-05-13T14:14:41Z</time>
      </trkpt>
      <trkpt lat="46.50565" lon="0.36789">
        <ele>135.4</ele>
        <time>2021-05-13T14:14:42Z</time>
      </trkpt>
      <trkpt lat="46.50562" lon="0.36787">
        <ele>135.4</ele>
        <time>2021-05-13T14:14:43Z</time>
      </trkpt>
      <trkpt lat="46.50553" lon="0.36778">
        <ele>135</ele>
        <time>2021-05-13T14:14:46Z</time>
      </trkpt>
      <trkpt lat="46.5055" lon="0.36776">
        <ele>134.6</ele>
        <time>2021-05-13T14:14:47Z</time>
      </trkpt>
      <trkpt lat="46.50542" lon="0.36774">
        <ele>134.2</ele>
        <time>2021-05-13T14:14:49Z</time>
      </trkpt>
      <trkpt lat="46.50539" lon="0.36774">
        <ele>134.2</ele>
        <time>2021-05-13T14:14:50Z</time>
      </trkpt>
      <trkpt lat="46.50536" lon="0.36773">
        <ele>134.2</ele>
        <time>2021-05-13T14:14:51Z</time>
      </trkpt>
      <trkpt lat="46.50526" lon="0.36767">
        <ele>134.2</ele>
        <time>2021-05-13T14:14:54Z</time>
      </trkpt>
      <trkpt lat="46.50518" lon="0.36765">
        <ele>134</ele>
        <time>2021-05-13T14:14:56Z</time>
      </trkpt>
      <trkpt lat="46.50514" lon="0.36762">
        <ele>133.8</ele>
        <time>2021-05-13T14:14:58Z</time>
      </trkpt>
      <trkpt lat="46.50511" lon="0.3676">
        <ele>133.4</ele>
        <time>2021-05-13T14:15:00Z</time>
      </trkpt>
      <trkpt lat="46.50511" lon="0.36759">
        <ele>133.2</ele>
        <time>2021-05-13T14:15:01Z</time>
      </trkpt>
      <trkpt lat="46.5051" lon="0.36758">
        <ele>133.2</ele>
        <time>2021-05-13T14:15:02Z</time>
      </trkpt>
      <trkpt lat="46.50508" lon="0.36755">
        <ele>133.2</ele>
        <time>2021-05-13T14:15:03Z</time>
      </trkpt>
      <trkpt lat="46.50501" lon="0.36749">
        <ele>133.2</ele>
        <time>2021-05-13T14:15:06Z</time>
      </trkpt>
      <trkpt lat="46.50497" lon="0.36747">
        <ele>133.2</ele>
        <time>2021-05-13T14:15:07Z</time>
      </trkpt>
      <trkpt lat="46.50494" lon="0.36746">
        <ele>133.2</ele>
        <time>2021-05-13T14:15:08Z</time>
      </trkpt>
      <trkpt lat="46.5048" lon="0.36738">
        <ele>132.4</ele>
        <time>2021-05-13T14:15:12Z</time>
      </trkpt>
      <trkpt lat="46.50461" lon="0.3673">
        <ele>132.4</ele>
        <time>2021-05-13T14:15:17Z</time>
      </trkpt>
      <trkpt lat="46.50453" lon="0.36727">
        <ele>132.4</ele>
        <time>2021-05-13T14:15:19Z</time>
      </trkpt>
      <trkpt lat="46.50443" lon="0.36728">
        <ele>132.4</ele>
        <time>2021-05-13T14:15:22Z</time>
      </trkpt>
      <trkpt lat="46.50422" lon="0.36725">
        <ele>133.2</ele>
        <time>2021-05-13T14:15:28Z</time>
      </trkpt>
      <trkpt lat="46.50418" lon="0.36723">
        <ele>133.4</ele>
        <time>2021-05-13T14:15:29Z</time>
      </trkpt>
      <trkpt lat="46.50399" lon="0.36715">
        <ele>133.4</ele>
        <time>2021-05-13T14:15:33Z</time>
      </trkpt>
      <trkpt lat="46.50395" lon="0.36712">
        <ele>133.4</ele>
        <time>2021-05-13T14:15:34Z</time>
      </trkpt>
      <trkpt lat="46.50387" lon="0.36707">
        <ele>133.6</ele>
        <time>2021-05-13T14:15:36Z</time>
      </trkpt>
      <trkpt lat="46.5038" lon="0.36703">
        <ele>133.6</ele>
        <time>2021-05-13T14:15:38Z</time>
      </trkpt>
      <trkpt lat="46.50371" lon="0.367">
        <ele>133.6</ele>
        <time>2021-05-13T14:15:40Z</time>
      </trkpt>
      <trkpt lat="46.50363" lon="0.36698">
        <ele>133.6</ele>
        <time>2021-05-13T14:15:42Z</time>
      </trkpt>
      <trkpt lat="46.50359" lon="0.36694">
        <ele>133.6</ele>
        <time>2021-05-13T14:15:44Z</time>
      </trkpt>
      <trkpt lat="46.50357" lon="0.36691">
        <ele>133.6</ele>
        <time>2021-05-13T14:15:45Z</time>
      </trkpt>
      <trkpt lat="46.50357" lon="0.36688">
        <ele>133.6</ele>
        <time>2021-05-13T14:15:46Z</time>
      </trkpt>
      <trkpt lat="46.50358" lon="0.36676">
        <ele>133.4</ele>
        <time>2021-05-13T14:15:49Z</time>
      </trkpt>
      <trkpt lat="46.50356" lon="0.36673">
        <ele>133.4</ele>
        <time>2021-05-13T14:15:50Z</time>
      </trkpt>
      <trkpt lat="46.50353" lon="0.36665">
        <ele>132.6</ele>
        <time>2021-05-13T14:15:53Z</time>
      </trkpt>
      <trkpt lat="46.50347" lon="0.36662">
        <ele>132.4</ele>
        <time>2021-05-13T14:15:55Z</time>
      </trkpt>
      <trkpt lat="46.50344" lon="0.36663">
        <ele>132.4</ele>
        <time>2021-05-13T14:15:57Z</time>
      </trkpt>
      <trkpt lat="46.50342" lon="0.36663">
        <ele>132.4</ele>
        <time>2021-05-13T14:15:58Z</time>
      </trkpt>
      <trkpt lat="46.50339" lon="0.36662">
        <ele>132.4</ele>
        <time>2021-05-13T14:16:00Z</time>
      </trkpt>
      <trkpt lat="46.50337" lon="0.36664">
        <ele>132.4</ele>
        <time>2021-05-13T14:16:02Z</time>
      </trkpt>
      <trkpt lat="46.50336" lon="0.36664">
        <ele>132.4</ele>
        <time>2021-05-13T14:16:03Z</time>
      </trkpt>
      <trkpt lat="46.50334" lon="0.36666">
        <ele>132.6</ele>
        <time>2021-05-13T14:16:05Z</time>
      </trkpt>
      <trkpt lat="46.50331" lon="0.36668">
        <ele>132.8</ele>
        <time>2021-05-13T14:16:07Z</time>
      </trkpt>
      <trkpt lat="46.50322" lon="0.36672">
        <ele>133</ele>
        <time>2021-05-13T14:16:11Z</time>
      </trkpt>
      <trkpt lat="46.5032" lon="0.36671">
        <ele>133.2</ele>
        <time>2021-05-13T14:16:12Z</time>
      </trkpt>
      <trkpt lat="46.50318" lon="0.36671">
        <ele>133.2</ele>
        <time>2021-05-13T14:16:13Z</time>
      </trkpt>
      <trkpt lat="46.50315" lon="0.36669">
        <ele>133.8</ele>
        <time>2021-05-13T14:16:15Z</time>
      </trkpt>
      <trkpt lat="46.50311" lon="0.36664">
        <ele>134</ele>
        <time>2021-05-13T14:16:17Z</time>
      </trkpt>
      <trkpt lat="46.50301" lon="0.36654">
        <ele>134</ele>
        <time>2021-05-13T14:16:20Z</time>
      </trkpt>
      <trkpt lat="46.50295" lon="0.36651">
        <ele>133.8</ele>
        <time>2021-05-13T14:16:22Z</time>
      </trkpt>
      <trkpt lat="46.50284" lon="0.36656">
        <ele>133.6</ele>
        <time>2021-05-13T14:16:26Z</time>
      </trkpt>
      <trkpt lat="46.50269" lon="0.36668">
        <ele>134.2</ele>
        <time>2021-05-13T14:16:32Z</time>
      </trkpt>
      <trkpt lat="46.50267" lon="0.36671">
        <ele>134.2</ele>
        <time>2021-05-13T14:16:33Z</time>
      </trkpt>
      <trkpt lat="46.50255" lon="0.36681">
        <ele>134.8</ele>
        <time>2021-05-13T14:16:38Z</time>
      </trkpt>
      <trkpt lat="46.5025" lon="0.36684">
        <ele>135.2</ele>
        <time>2021-05-13T14:16:40Z</time>
      </trkpt>
      <trkpt lat="46.50245" lon="0.36693">
        <ele>135.2</ele>
        <time>2021-05-13T14:16:43Z</time>
      </trkpt>
      <trkpt lat="46.50243" lon="0.36711">
        <ele>135.2</ele>
        <time>2021-05-13T14:16:48Z</time>
      </trkpt>
      <trkpt lat="46.50248" lon="0.36722">
        <ele>135.2</ele>
        <time>2021-05-13T14:16:52Z</time>
      </trkpt>
      <trkpt lat="46.50255" lon="0.36742">
        <ele>135.4</ele>
        <time>2021-05-13T14:16:57Z</time>
      </trkpt>
      <trkpt lat="46.50261" lon="0.36751">
        <ele>135.8</ele>
        <time>2021-05-13T14:17:02Z</time>
      </trkpt>
      <trkpt lat="46.50268" lon="0.36763">
        <ele>136</ele>
        <time>2021-05-13T14:17:06Z</time>
      </trkpt>
      <trkpt lat="46.5027" lon="0.36769">
        <ele>136</ele>
        <time>2021-05-13T14:17:09Z</time>
      </trkpt>
      <trkpt lat="46.5027" lon="0.36772">
        <ele>136</ele>
        <time>2021-05-13T14:17:10Z</time>
      </trkpt>
      <trkpt lat="46.50271" lon="0.36774">
        <ele>135.8</ele>
        <time>2021-05-13T14:17:11Z</time>
      </trkpt>
      <trkpt lat="46.50274" lon="0.36775">
        <ele>136</ele>
        <time>2021-05-13T14:17:14Z</time>
      </trkpt>
      <trkpt lat="46.50276" lon="0.36777">
        <ele>136</ele>
        <time>2021-05-13T14:17:15Z</time>
      </trkpt>
      <trkpt lat="46.50287" lon="0.36779">
        <ele>136</ele>
        <time>2021-05-13T14:17:19Z</time>
      </trkpt>
      <trkpt lat="46.5029" lon="0.36777">
        <ele>136</ele>
        <time>2021-05-13T14:17:20Z</time>
      </trkpt>
      <trkpt lat="46.50297" lon="0.36778">
        <ele>136.2</ele>
        <time>2021-05-13T14:17:22Z</time>
      </trkpt>
      <trkpt lat="46.50305" lon="0.36779">
        <ele>136.4</ele>
        <time>2021-05-13T14:17:24Z</time>
      </trkpt>
      <trkpt lat="46.50313" lon="0.36782">
        <ele>136.6</ele>
        <time>2021-05-13T14:17:26Z</time>
      </trkpt>
      <trkpt lat="46.50322" lon="0.36785">
        <ele>136.6</ele>
        <time>2021-05-13T14:17:28Z</time>
      </trkpt>
      <trkpt lat="46.50327" lon="0.36787">
        <ele>136.4</ele>
        <time>2021-05-13T14:17:29Z</time>
      </trkpt>
      <trkpt lat="46.50341" lon="0.3679">
        <ele>136.4</ele>
        <time>2021-05-13T14:17:32Z</time>
      </trkpt>
      <trkpt lat="46.50346" lon="0.36793">
        <ele>136.2</ele>
        <time>2021-05-13T14:17:33Z</time>
      </trkpt>
      <trkpt lat="46.50374" lon="0.36812">
        <ele>136.2</ele>
        <time>2021-05-13T14:17:39Z</time>
      </trkpt>
      <trkpt lat="46.50393" lon="0.36819">
        <ele>136</ele>
        <time>2021-05-13T14:17:43Z</time>
      </trkpt>
      <trkpt lat="46.50397" lon="0.36821">
        <ele>136</ele>
        <time>2021-05-13T14:17:44Z</time>
      </trkpt>
      <trkpt lat="46.50434" lon="0.36832">
        <ele>136</ele>
        <time>2021-05-13T14:17:51Z</time>
      </trkpt>
      <trkpt lat="46.50448" lon="0.36835">
        <ele>136.4</ele>
        <time>2021-05-13T14:17:54Z</time>
      </trkpt>
      <trkpt lat="46.50464" lon="0.36838">
        <ele>136.4</ele>
        <time>2021-05-13T14:17:57Z</time>
      </trkpt>
      <trkpt lat="46.50469" lon="0.36838">
        <ele>136.4</ele>
        <time>2021-05-13T14:17:58Z</time>
      </trkpt>
      <trkpt lat="46.50492" lon="0.36838">
        <ele>136.2</ele>
        <time>2021-05-13T14:18:02Z</time>
      </trkpt>
      <trkpt lat="46.50498" lon="0.36838">
        <ele>136.2</ele>
        <time>2021-05-13T14:18:03Z</time>
      </trkpt>
      <trkpt lat="46.50502" lon="0.36838">
        <ele>136.2</ele>
        <time>2021-05-13T14:18:04Z</time>
      </trkpt>
      <trkpt lat="46.50509" lon="0.36838">
        <ele>136.2</ele>
        <time>2021-05-13T14:18:06Z</time>
      </trkpt>
      <trkpt lat="46.50513" lon="0.36838">
        <ele>136.2</ele>
        <time>2021-05-13T14:18:07Z</time>
      </trkpt>
      <trkpt lat="46.50517" lon="0.36836">
        <ele>136.4</ele>
        <time>2021-05-13T14:18:08Z</time>
      </trkpt>
      <trkpt lat="46.50524" lon="0.36833">
        <ele>136.4</ele>
        <time>2021-05-13T14:18:10Z</time>
      </trkpt>
      <trkpt lat="46.5053" lon="0.36832">
        <ele>136.2</ele>
        <time>2021-05-13T14:18:12Z</time>
      </trkpt>
      <trkpt lat="46.5055" lon="0.36835">
        <ele>136</ele>
        <time>2021-05-13T14:18:17Z</time>
      </trkpt>
      <trkpt lat="46.50553" lon="0.36836">
        <ele>136</ele>
        <time>2021-05-13T14:18:18Z</time>
      </trkpt>
      <trkpt lat="46.50561" lon="0.36841">
        <ele>136.2</ele>
        <time>2021-05-13T14:18:21Z</time>
      </trkpt>
      <trkpt lat="46.50571" lon="0.36854">
        <ele>136.2</ele>
        <time>2021-05-13T14:18:26Z</time>
      </trkpt>
      <trkpt lat="46.50571" lon="0.36867">
        <ele>136</ele>
        <time>2021-05-13T14:18:31Z</time>
      </trkpt>
      <trkpt lat="46.5058" lon="0.36877">
        <ele>136.2</ele>
        <time>2021-05-13T14:18:35Z</time>
      </trkpt>
      <trkpt lat="46.50595" lon="0.36887">
        <ele>136.4</ele>
        <time>2021-05-13T14:18:40Z</time>
      </trkpt>
      <trkpt lat="46.50598" lon="0.36889">
        <ele>136.6</ele>
        <time>2021-05-13T14:18:41Z</time>
      </trkpt>
      <trkpt lat="46.5061" lon="0.36905">
        <ele>136.8</ele>
        <time>2021-05-13T14:18:45Z</time>
      </trkpt>
      <trkpt lat="46.5061" lon="0.36909">
        <ele>136.8</ele>
        <time>2021-05-13T14:18:46Z</time>
      </trkpt>
      <trkpt lat="46.50609" lon="0.36918">
        <ele>136.8</ele>
        <time>2021-05-13T14:18:48Z</time>
      </trkpt>
      <trkpt lat="46.50602" lon="0.36948">
        <ele>136.4</ele>
        <time>2021-05-13T14:18:55Z</time>
      </trkpt>
      <trkpt lat="46.50601" lon="0.36971">
        <ele>135.8</ele>
        <time>2021-05-13T14:19:00Z</time>
      </trkpt>
      <trkpt lat="46.50605" lon="0.36979">
        <ele>136.2</ele>
        <time>2021-05-13T14:19:02Z</time>
      </trkpt>
      <trkpt lat="46.50611" lon="0.36982">
        <ele>136.2</ele>
        <time>2021-05-13T14:19:04Z</time>
      </trkpt>
      <trkpt lat="46.50624" lon="0.36988">
        <ele>136.4</ele>
        <time>2021-05-13T14:19:08Z</time>
      </trkpt>
      <trkpt lat="46.50625" lon="0.37002">
        <ele>136.2</ele>
        <time>2021-05-13T14:19:12Z</time>
      </trkpt>
      <trkpt lat="46.50625" lon="0.37012">
        <ele>135.4</ele>
        <time>2021-05-13T14:19:14Z</time>
      </trkpt>
      <trkpt lat="46.50623" lon="0.37023">
        <ele>135.2</ele>
        <time>2021-05-13T14:19:16Z</time>
      </trkpt>
      <trkpt lat="46.50621" lon="0.37039">
        <ele>135.6</ele>
        <time>2021-05-13T14:19:19Z</time>
      </trkpt>
      <trkpt lat="46.50616" lon="0.37058">
        <ele>135.4</ele>
        <time>2021-05-13T14:19:22Z</time>
      </trkpt>
      <trkpt lat="46.50612" lon="0.37068">
        <ele>134.6</ele>
        <time>2021-05-13T14:19:24Z</time>
      </trkpt>
      <trkpt lat="46.50609" lon="0.37073">
        <ele>134.4</ele>
        <time>2021-05-13T14:19:25Z</time>
      </trkpt>
      <trkpt lat="46.50607" lon="0.37078">
        <ele>134.2</ele>
        <time>2021-05-13T14:19:26Z</time>
      </trkpt>
      <trkpt lat="46.50603" lon="0.37093">
        <ele>133.6</ele>
        <time>2021-05-13T14:19:29Z</time>
      </trkpt>
      <trkpt lat="46.50602" lon="0.37097">
        <ele>133.4</ele>
        <time>2021-05-13T14:19:30Z</time>
      </trkpt>
      <trkpt lat="46.50599" lon="0.37102">
        <ele>132.8</ele>
        <time>2021-05-13T14:19:31Z</time>
      </trkpt>
      <trkpt lat="46.50596" lon="0.37106">
        <ele>132.4</ele>
        <time>2021-05-13T14:19:32Z</time>
      </trkpt>
      <trkpt lat="46.50587" lon="0.37111">
        <ele>132</ele>
        <time>2021-05-13T14:19:34Z</time>
      </trkpt>
      <trkpt lat="46.50587" lon="0.37111">
        <ele>131.4</ele>
        <time>2021-05-13T14:19:35Z</time>
      </trkpt>
      <trkpt lat="46.50581" lon="0.37117">
        <ele>130.4</ele>
        <time>2021-05-13T14:19:36Z</time>
      </trkpt>
      <trkpt lat="46.50577" lon="0.37128">
        <ele>129.4</ele>
        <time>2021-05-13T14:19:38Z</time>
      </trkpt>
      <trkpt lat="46.50576" lon="0.37133">
        <ele>128.6</ele>
        <time>2021-05-13T14:19:39Z</time>
      </trkpt>
      <trkpt lat="46.50573" lon="0.37147">
        <ele>128</ele>
        <time>2021-05-13T14:19:41Z</time>
      </trkpt>
      <trkpt lat="46.50571" lon="0.37153">
        <ele>127.8</ele>
        <time>2021-05-13T14:19:42Z</time>
      </trkpt>
      <trkpt lat="46.50569" lon="0.37158">
        <ele>127.8</ele>
        <time>2021-05-13T14:19:43Z</time>
      </trkpt>
      <trkpt lat="46.50561" lon="0.3718">
        <ele>128.4</ele>
        <time>2021-05-13T14:19:47Z</time>
      </trkpt>
      <trkpt lat="46.50561" lon="0.3719">
        <ele>128.8</ele>
        <time>2021-05-13T14:19:49Z</time>
      </trkpt>
      <trkpt lat="46.50562" lon="0.37201">
        <ele>129.2</ele>
        <time>2021-05-13T14:19:51Z</time>
      </trkpt>
      <trkpt lat="46.50562" lon="0.37207">
        <ele>129.6</ele>
        <time>2021-05-13T14:19:52Z</time>
      </trkpt>
      <trkpt lat="46.50563" lon="0.37221">
        <ele>129.6</ele>
        <time>2021-05-13T14:19:54Z</time>
      </trkpt>
      <trkpt lat="46.50564" lon="0.37235">
        <ele>130.2</ele>
        <time>2021-05-13T14:19:56Z</time>
      </trkpt>
      <trkpt lat="46.50564" lon="0.37244">
        <ele>130.4</ele>
        <time>2021-05-13T14:19:58Z</time>
      </trkpt>
      <trkpt lat="46.50562" lon="0.37254">
        <ele>130.6</ele>
        <time>2021-05-13T14:20:00Z</time>
      </trkpt>
      <trkpt lat="46.50561" lon="0.37266">
        <ele>130.6</ele>
        <time>2021-05-13T14:20:03Z</time>
      </trkpt>
      <trkpt lat="46.50562" lon="0.3727">
        <ele>130.6</ele>
        <time>2021-05-13T14:20:04Z</time>
      </trkpt>
      <trkpt lat="46.50571" lon="0.37282">
        <ele>130.2</ele>
        <time>2021-05-13T14:20:08Z</time>
      </trkpt>
      <trkpt lat="46.50584" lon="0.37285">
        <ele>129.6</ele>
        <time>2021-05-13T14:20:12Z</time>
      </trkpt>
      <trkpt lat="46.50591" lon="0.37288">
        <ele>129.2</ele>
        <time>2021-05-13T14:20:14Z</time>
      </trkpt>
      <trkpt lat="46.50595" lon="0.3729">
        <ele>128.6</ele>
        <time>2021-05-13T14:20:15Z</time>
      </trkpt>
      <trkpt lat="46.506" lon="0.37294">
        <ele>128.2</ele>
        <time>2021-05-13T14:20:16Z</time>
      </trkpt>
      <trkpt lat="46.50605" lon="0.37298">
        <ele>127.6</ele>
        <time>2021-05-13T14:20:17Z</time>
      </trkpt>
      <trkpt lat="46.5061" lon="0.37303">
        <ele>127.4</ele>
        <time>2021-05-13T14:20:18Z</time>
      </trkpt>
      <trkpt lat="46.50628" lon="0.37318">
        <ele>126.8</ele>
        <time>2021-05-13T14:20:21Z</time>
      </trkpt>
      <trkpt lat="46.50635" lon="0.37323">
        <ele>126.2</ele>
        <time>2021-05-13T14:20:22Z</time>
      </trkpt>
      <trkpt lat="46.5065" lon="0.37334">
        <ele>125</ele>
        <time>2021-05-13T14:20:24Z</time>
      </trkpt>
      <trkpt lat="46.50671" lon="0.37351">
        <ele>123.8</ele>
        <time>2021-05-13T14:20:27Z</time>
      </trkpt>
      <trkpt lat="46.50677" lon="0.37356">
        <ele>123.6</ele>
        <time>2021-05-13T14:20:28Z</time>
      </trkpt>
      <trkpt lat="46.50703" lon="0.37376">
        <ele>123</ele>
        <time>2021-05-13T14:20:33Z</time>
      </trkpt>
      <trkpt lat="46.50712" lon="0.37382">
        <ele>122.8</ele>
        <time>2021-05-13T14:20:35Z</time>
      </trkpt>
      <trkpt lat="46.50736" lon="0.37399">
        <ele>123.6</ele>
        <time>2021-05-13T14:20:40Z</time>
      </trkpt>
      <trkpt lat="46.5074" lon="0.37402">
        <ele>124.2</ele>
        <time>2021-05-13T14:20:41Z</time>
      </trkpt>
      <trkpt lat="46.50748" lon="0.37404">
        <ele>124.8</ele>
        <time>2021-05-13T14:20:44Z</time>
      </trkpt>
      <trkpt lat="46.5075" lon="0.37402">
        <ele>125.2</ele>
        <time>2021-05-13T14:20:46Z</time>
      </trkpt>
      <trkpt lat="46.50755" lon="0.37399">
        <ele>126.8</ele>
        <time>2021-05-13T14:20:49Z</time>
      </trkpt>
      <trkpt lat="46.50757" lon="0.37398">
        <ele>127</ele>
        <time>2021-05-13T14:20:50Z</time>
      </trkpt>
      <trkpt lat="46.50764" lon="0.37394">
        <ele>128</ele>
        <time>2021-05-13T14:20:54Z</time>
      </trkpt>
      <trkpt lat="46.50768" lon="0.37393">
        <ele>129</ele>
        <time>2021-05-13T14:20:56Z</time>
      </trkpt>
      <trkpt lat="46.50777" lon="0.37396">
        <ele>130</ele>
        <time>2021-05-13T14:21:00Z</time>
      </trkpt>
      <trkpt lat="46.50782" lon="0.37397">
        <ele>130.4</ele>
        <time>2021-05-13T14:21:02Z</time>
      </trkpt>
      <trkpt lat="46.50791" lon="0.374">
        <ele>131.2</ele>
        <time>2021-05-13T14:21:06Z</time>
      </trkpt>
      <trkpt lat="46.50794" lon="0.374">
        <ele>131.2</ele>
        <time>2021-05-13T14:21:07Z</time>
      </trkpt>
      <trkpt lat="46.50812" lon="0.37403">
        <ele>131.6</ele>
        <time>2021-05-13T14:21:14Z</time>
      </trkpt>
      <trkpt lat="46.50825" lon="0.37413">
        <ele>132</ele>
        <time>2021-05-13T14:21:20Z</time>
      </trkpt>
      <trkpt lat="46.50828" lon="0.37415">
        <ele>132.2</ele>
        <time>2021-05-13T14:21:21Z</time>
      </trkpt>
      <trkpt lat="46.50842" lon="0.3743">
        <ele>132.4</ele>
        <time>2021-05-13T14:21:26Z</time>
      </trkpt>
      <trkpt lat="46.50855" lon="0.37455">
        <ele>132.2</ele>
        <time>2021-05-13T14:21:32Z</time>
      </trkpt>
      <trkpt lat="46.50867" lon="0.37482">
        <ele>131.8</ele>
        <time>2021-05-13T14:21:37Z</time>
      </trkpt>
      <trkpt lat="46.50869" lon="0.37486">
        <ele>131.8</ele>
        <time>2021-05-13T14:21:38Z</time>
      </trkpt>
      <trkpt lat="46.50876" lon="0.37501">
        <ele>131</ele>
        <time>2021-05-13T14:21:41Z</time>
      </trkpt>
      <trkpt lat="46.50879" lon="0.37508">
        <ele>130.6</ele>
        <time>2021-05-13T14:21:42Z</time>
      </trkpt>
      <trkpt lat="46.50887" lon="0.3752">
        <ele>130.2</ele>
        <time>2021-05-13T14:21:44Z</time>
      </trkpt>
      <trkpt lat="46.50891" lon="0.37526">
        <ele>130.2</ele>
        <time>2021-05-13T14:21:45Z</time>
      </trkpt>
      <trkpt lat="46.50899" lon="0.37534">
        <ele>130.2</ele>
        <time>2021-05-13T14:21:47Z</time>
      </trkpt>
      <trkpt lat="46.50903" lon="0.37536">
        <ele>130.4</ele>
        <time>2021-05-13T14:21:48Z</time>
      </trkpt>
      <trkpt lat="46.50906" lon="0.37536">
        <ele>130.6</ele>
        <time>2021-05-13T14:21:49Z</time>
      </trkpt>
      <trkpt lat="46.50912" lon="0.37533">
        <ele>130.8</ele>
        <time>2021-05-13T14:21:51Z</time>
      </trkpt>
      <trkpt lat="46.50915" lon="0.3753">
        <ele>131</ele>
        <time>2021-05-13T14:21:52Z</time>
      </trkpt>
      <trkpt lat="46.50921" lon="0.37528">
        <ele>131.2</ele>
        <time>2021-05-13T14:21:53Z</time>
      </trkpt>
      <trkpt lat="46.50927" lon="0.37533">
        <ele>131.8</ele>
        <time>2021-05-13T14:21:56Z</time>
      </trkpt>
      <trkpt lat="46.5093" lon="0.37535">
        <ele>132</ele>
        <time>2021-05-13T14:21:57Z</time>
      </trkpt>
      <trkpt lat="46.50934" lon="0.37539">
        <ele>132.2</ele>
        <time>2021-05-13T14:21:58Z</time>
      </trkpt>
      <trkpt lat="46.50944" lon="0.3755">
        <ele>132.6</ele>
        <time>2021-05-13T14:22:01Z</time>
      </trkpt>
      <trkpt lat="46.50951" lon="0.37555">
        <ele>132.8</ele>
        <time>2021-05-13T14:22:03Z</time>
      </trkpt>
      <trkpt lat="46.50959" lon="0.37559">
        <ele>132.8</ele>
        <time>2021-05-13T14:22:05Z</time>
      </trkpt>
      <trkpt lat="46.50963" lon="0.37562">
        <ele>132.6</ele>
        <time>2021-05-13T14:22:06Z</time>
      </trkpt>
      <trkpt lat="46.5099" lon="0.37578">
        <ele>132.6</ele>
        <time>2021-05-13T14:22:12Z</time>
      </trkpt>
      <trkpt lat="46.51008" lon="0.37587">
        <ele>132.8</ele>
        <time>2021-05-13T14:22:16Z</time>
      </trkpt>
      <trkpt lat="46.51017" lon="0.3759">
        <ele>132.6</ele>
        <time>2021-05-13T14:22:18Z</time>
      </trkpt>
      <trkpt lat="46.51026" lon="0.37598">
        <ele>132.8</ele>
        <time>2021-05-13T14:22:20Z</time>
      </trkpt>
      <trkpt lat="46.51034" lon="0.37607">
        <ele>132.6</ele>
        <time>2021-05-13T14:22:22Z</time>
      </trkpt>
      <trkpt lat="46.51043" lon="0.37614">
        <ele>132.6</ele>
        <time>2021-05-13T14:22:24Z</time>
      </trkpt>
      <trkpt lat="46.51057" lon="0.37623">
        <ele>132.2</ele>
        <time>2021-05-13T14:22:27Z</time>
      </trkpt>
      <trkpt lat="46.51084" lon="0.37641">
        <ele>132.2</ele>
        <time>2021-05-13T14:22:33Z</time>
      </trkpt>
      <trkpt lat="46.51117" lon="0.37663">
        <ele>132.6</ele>
        <time>2021-05-13T14:22:41Z</time>
      </trkpt>
      <trkpt lat="46.51121" lon="0.37667">
        <ele>132.6</ele>
        <time>2021-05-13T14:22:42Z</time>
      </trkpt>
      <trkpt lat="46.51145" lon="0.37682">
        <ele>132.6</ele>
        <time>2021-05-13T14:22:47Z</time>
      </trkpt>
      <trkpt lat="46.51161" lon="0.37691">
        <ele>132.4</ele>
        <time>2021-05-13T14:22:50Z</time>
      </trkpt>
      <trkpt lat="46.51169" lon="0.37699">
        <ele>132</ele>
        <time>2021-05-13T14:22:52Z</time>
      </trkpt>
      <trkpt lat="46.51177" lon="0.37705">
        <ele>131.8</ele>
        <time>2021-05-13T14:22:54Z</time>
      </trkpt>
      <trkpt lat="46.51182" lon="0.37708">
        <ele>131.6</ele>
        <time>2021-05-13T14:22:55Z</time>
      </trkpt>
      <trkpt lat="46.5119" lon="0.37713">
        <ele>131.6</ele>
        <time>2021-05-13T14:22:57Z</time>
      </trkpt>
      <trkpt lat="46.51206" lon="0.37723">
        <ele>131</ele>
        <time>2021-05-13T14:23:02Z</time>
      </trkpt>
      <trkpt lat="46.5121" lon="0.37725">
        <ele>130.8</ele>
        <time>2021-05-13T14:23:03Z</time>
      </trkpt>
      <trkpt lat="46.51225" lon="0.37733">
        <ele>130.2</ele>
        <time>2021-05-13T14:23:09Z</time>
      </trkpt>
      <trkpt lat="46.5124" lon="0.37742">
        <ele>130</ele>
        <time>2021-05-13T14:23:14Z</time>
      </trkpt>
      <trkpt lat="46.51243" lon="0.37744">
        <ele>129.8</ele>
        <time>2021-05-13T14:23:15Z</time>
      </trkpt>
      <trkpt lat="46.51255" lon="0.37752">
        <ele>129.4</ele>
        <time>2021-05-13T14:23:19Z</time>
      </trkpt>
      <trkpt lat="46.5128" lon="0.3777">
        <ele>129.4</ele>
        <time>2021-05-13T14:23:25Z</time>
      </trkpt>
      <trkpt lat="46.51294" lon="0.37782">
        <ele>128.8</ele>
        <time>2021-05-13T14:23:28Z</time>
      </trkpt>
      <trkpt lat="46.5131" lon="0.37791">
        <ele>128</ele>
        <time>2021-05-13T14:23:31Z</time>
      </trkpt>
      <trkpt lat="46.51315" lon="0.37794">
        <ele>127.4</ele>
        <time>2021-05-13T14:23:32Z</time>
      </trkpt>
      <trkpt lat="46.51335" lon="0.37808">
        <ele>126.4</ele>
        <time>2021-05-13T14:23:36Z</time>
      </trkpt>
      <trkpt lat="46.51346" lon="0.37817">
        <ele>126</ele>
        <time>2021-05-13T14:23:38Z</time>
      </trkpt>
      <trkpt lat="46.51363" lon="0.37829">
        <ele>125.4</ele>
        <time>2021-05-13T14:23:41Z</time>
      </trkpt>
      <trkpt lat="46.51368" lon="0.37832">
        <ele>124.8</ele>
        <time>2021-05-13T14:23:42Z</time>
      </trkpt>
      <trkpt lat="46.51377" lon="0.37837">
        <ele>124.6</ele>
        <time>2021-05-13T14:23:44Z</time>
      </trkpt>
      <trkpt lat="46.51387" lon="0.37843">
        <ele>124.4</ele>
        <time>2021-05-13T14:23:46Z</time>
      </trkpt>
      <trkpt lat="46.51392" lon="0.37847">
        <ele>124.2</ele>
        <time>2021-05-13T14:23:47Z</time>
      </trkpt>
      <trkpt lat="46.514" lon="0.37856">
        <ele>123.8</ele>
        <time>2021-05-13T14:23:49Z</time>
      </trkpt>
      <trkpt lat="46.51405" lon="0.3786">
        <ele>123.4</ele>
        <time>2021-05-13T14:23:50Z</time>
      </trkpt>
      <trkpt lat="46.51418" lon="0.37866">
        <ele>122.6</ele>
        <time>2021-05-13T14:23:53Z</time>
      </trkpt>
      <trkpt lat="46.51424" lon="0.3787">
        <ele>122.6</ele>
        <time>2021-05-13T14:23:54Z</time>
      </trkpt>
      <trkpt lat="46.51429" lon="0.37873">
        <ele>122.4</ele>
        <time>2021-05-13T14:23:55Z</time>
      </trkpt>
      <trkpt lat="46.51444" lon="0.37883">
        <ele>121.6</ele>
        <time>2021-05-13T14:23:58Z</time>
      </trkpt>
      <trkpt lat="46.51449" lon="0.37886">
        <ele>121.2</ele>
        <time>2021-05-13T14:23:59Z</time>
      </trkpt>
      <trkpt lat="46.51459" lon="0.37893">
        <ele>120.6</ele>
        <time>2021-05-13T14:24:01Z</time>
      </trkpt>
      <trkpt lat="46.51465" lon="0.37896">
        <ele>119.8</ele>
        <time>2021-05-13T14:24:02Z</time>
      </trkpt>
      <trkpt lat="46.51471" lon="0.379">
        <ele>119.2</ele>
        <time>2021-05-13T14:24:03Z</time>
      </trkpt>
      <trkpt lat="46.51477" lon="0.37904">
        <ele>118.8</ele>
        <time>2021-05-13T14:24:04Z</time>
      </trkpt>
      <trkpt lat="46.51495" lon="0.37915">
        <ele>117.6</ele>
        <time>2021-05-13T14:24:07Z</time>
      </trkpt>
      <trkpt lat="46.51507" lon="0.37927">
        <ele>116.6</ele>
        <time>2021-05-13T14:24:09Z</time>
      </trkpt>
      <trkpt lat="46.51509" lon="0.37937">
        <ele>116.2</ele>
        <time>2021-05-13T14:24:11Z</time>
      </trkpt>
      <trkpt lat="46.51508" lon="0.3794">
        <ele>116.2</ele>
        <time>2021-05-13T14:24:12Z</time>
      </trkpt>
      <trkpt lat="46.51503" lon="0.37942">
        <ele>116.2</ele>
        <time>2021-05-13T14:24:14Z</time>
      </trkpt>
      <trkpt lat="46.51496" lon="0.37942">
        <ele>116.2</ele>
        <time>2021-05-13T14:24:16Z</time>
      </trkpt>
      <trkpt lat="46.51485" lon="0.37944">
        <ele>116.4</ele>
        <time>2021-05-13T14:24:19Z</time>
      </trkpt>
      <trkpt lat="46.51471" lon="0.37948">
        <ele>116.8</ele>
        <time>2021-05-13T14:24:23Z</time>
      </trkpt>
      <trkpt lat="46.51455" lon="0.37949">
        <ele>117</ele>
        <time>2021-05-13T14:24:27Z</time>
      </trkpt>
      <trkpt lat="46.51451" lon="0.37949">
        <ele>117.2</ele>
        <time>2021-05-13T14:24:28Z</time>
      </trkpt>
      <trkpt lat="46.51442" lon="0.37951">
        <ele>117.6</ele>
        <time>2021-05-13T14:24:34Z</time>
      </trkpt>
      <trkpt lat="46.51439" lon="0.37951">
        <ele>117.8</ele>
        <time>2021-05-13T14:24:35Z</time>
      </trkpt>
      <trkpt lat="46.51422" lon="0.37948">
        <ele>118.4</ele>
        <time>2021-05-13T14:24:40Z</time>
      </trkpt>
      <trkpt lat="46.5141" lon="0.37944">
        <ele>119</ele>
        <time>2021-05-13T14:24:44Z</time>
      </trkpt>
      <trkpt lat="46.51408" lon="0.37943">
        <ele>119.2</ele>
        <time>2021-05-13T14:24:45Z</time>
      </trkpt>
      <trkpt lat="46.51399" lon="0.37937">
        <ele>119.6</ele>
        <time>2021-05-13T14:24:51Z</time>
      </trkpt>
      <trkpt lat="46.51393" lon="0.37934">
        <ele>120</ele>
        <time>2021-05-13T14:24:55Z</time>
      </trkpt>
      <trkpt lat="46.51392" lon="0.37935">
        <ele>120</ele>
        <time>2021-05-13T14:24:56Z</time>
      </trkpt>
      <trkpt lat="46.51393" lon="0.37944">
        <ele>120</ele>
        <time>2021-05-13T14:25:00Z</time>
      </trkpt>
      <trkpt lat="46.51384" lon="0.37954">
        <ele>119.2</ele>
        <time>2021-05-13T14:25:04Z</time>
      </trkpt>
      <trkpt lat="46.51381" lon="0.37956">
        <ele>118.8</ele>
        <time>2021-05-13T14:25:05Z</time>
      </trkpt>
      <trkpt lat="46.51368" lon="0.37969">
        <ele>118</ele>
        <time>2021-05-13T14:25:09Z</time>
      </trkpt>
      <trkpt lat="46.51362" lon="0.37975">
        <ele>117.6</ele>
        <time>2021-05-13T14:25:10Z</time>
      </trkpt>
      <trkpt lat="46.51356" lon="0.3798">
        <ele>117</ele>
        <time>2021-05-13T14:25:11Z</time>
      </trkpt>
      <trkpt lat="46.5135" lon="0.37985">
        <ele>116.4</ele>
        <time>2021-05-13T14:25:12Z</time>
      </trkpt>
      <trkpt lat="46.5134" lon="0.37993">
        <ele>115.4</ele>
        <time>2021-05-13T14:25:14Z</time>
      </trkpt>
      <trkpt lat="46.51335" lon="0.37994">
        <ele>115.2</ele>
        <time>2021-05-13T14:25:15Z</time>
      </trkpt>
      <trkpt lat="46.51331" lon="0.37994">
        <ele>114.8</ele>
        <time>2021-05-13T14:25:16Z</time>
      </trkpt>
      <trkpt lat="46.51327" lon="0.37994">
        <ele>114.2</ele>
        <time>2021-05-13T14:25:17Z</time>
      </trkpt>
      <trkpt lat="46.51319" lon="0.37991">
        <ele>113.2</ele>
        <time>2021-05-13T14:25:19Z</time>
      </trkpt>
      <trkpt lat="46.51316" lon="0.3799">
        <ele>113</ele>
        <time>2021-05-13T14:25:20Z</time>
      </trkpt>
      <trkpt lat="46.51312" lon="0.37992">
        <ele>112.4</ele>
        <time>2021-05-13T14:25:22Z</time>
      </trkpt>
      <trkpt lat="46.51306" lon="0.37996">
        <ele>111.8</ele>
        <time>2021-05-13T14:25:25Z</time>
      </trkpt>
      <trkpt lat="46.51301" lon="0.37996">
        <ele>111.2</ele>
        <time>2021-05-13T14:25:27Z</time>
      </trkpt>
      <trkpt lat="46.51298" lon="0.37995">
        <ele>110.6</ele>
        <time>2021-05-13T14:25:28Z</time>
      </trkpt>
      <trkpt lat="46.51292" lon="0.37998">
        <ele>110</ele>
        <time>2021-05-13T14:25:30Z</time>
      </trkpt>
      <trkpt lat="46.51289" lon="0.38001">
        <ele>109.8</ele>
        <time>2021-05-13T14:25:31Z</time>
      </trkpt>
      <trkpt lat="46.51286" lon="0.38008">
        <ele>109.4</ele>
        <time>2021-05-13T14:25:33Z</time>
      </trkpt>
      <trkpt lat="46.51285" lon="0.38011">
        <ele>108</ele>
        <time>2021-05-13T14:25:34Z</time>
      </trkpt>
      <trkpt lat="46.51282" lon="0.38018">
        <ele>106</ele>
        <time>2021-05-13T14:25:36Z</time>
      </trkpt>
      <trkpt lat="46.51279" lon="0.38025">
        <ele>105</ele>
        <time>2021-05-13T14:25:37Z</time>
      </trkpt>
      <trkpt lat="46.51277" lon="0.38031">
        <ele>103.6</ele>
        <time>2021-05-13T14:25:38Z</time>
      </trkpt>
      <trkpt lat="46.51273" lon="0.38034">
        <ele>101.4</ele>
        <time>2021-05-13T14:25:39Z</time>
      </trkpt>
      <trkpt lat="46.51271" lon="0.38037">
        <ele>99.6</ele>
        <time>2021-05-13T14:25:40Z</time>
      </trkpt>
      <trkpt lat="46.51268" lon="0.38039">
        <ele>98.8</ele>
        <time>2021-05-13T14:25:41Z</time>
      </trkpt>
      <trkpt lat="46.51265" lon="0.38043">
        <ele>98.2</ele>
        <time>2021-05-13T14:25:42Z</time>
      </trkpt>
      <trkpt lat="46.51259" lon="0.38043">
        <ele>97.2</ele>
        <time>2021-05-13T14:25:45Z</time>
      </trkpt>
      <trkpt lat="46.51243" lon="0.38042">
        <ele>98</ele>
        <time>2021-05-13T14:25:51Z</time>
      </trkpt>
      <trkpt lat="46.51227" lon="0.38035">
        <ele>99.2</ele>
        <time>2021-05-13T14:25:57Z</time>
      </trkpt>
      <trkpt lat="46.51224" lon="0.38033">
        <ele>99.2</ele>
        <time>2021-05-13T14:25:58Z</time>
      </trkpt>
      <trkpt lat="46.51211" lon="0.38024">
        <ele>100.2</ele>
        <time>2021-05-13T14:26:04Z</time>
      </trkpt>
      <trkpt lat="46.51203" lon="0.38019">
        <ele>101.2</ele>
        <time>2021-05-13T14:26:08Z</time>
      </trkpt>
      <trkpt lat="46.51194" lon="0.38012">
        <ele>101.8</ele>
        <time>2021-05-13T14:26:12Z</time>
      </trkpt>
      <trkpt lat="46.51188" lon="0.38007">
        <ele>102.2</ele>
        <time>2021-05-13T14:26:15Z</time>
      </trkpt>
      <trkpt lat="46.51182" lon="0.38003">
        <ele>102.6</ele>
        <time>2021-05-13T14:26:18Z</time>
      </trkpt>
      <trkpt lat="46.51173" lon="0.37998">
        <ele>103.4</ele>
        <time>2021-05-13T14:26:22Z</time>
      </trkpt>
      <trkpt lat="46.51165" lon="0.37996">
        <ele>104.2</ele>
        <time>2021-05-13T14:26:26Z</time>
      </trkpt>
      <trkpt lat="46.51163" lon="0.37995">
        <ele>104.4</ele>
        <time>2021-05-13T14:26:27Z</time>
      </trkpt>
      <trkpt lat="46.5115" lon="0.3799">
        <ele>105.4</ele>
        <time>2021-05-13T14:26:33Z</time>
      </trkpt>
      <trkpt lat="46.51133" lon="0.37989">
        <ele>106.8</ele>
        <time>2021-05-13T14:26:40Z</time>
      </trkpt>
      <trkpt lat="46.5113" lon="0.37989">
        <ele>106.8</ele>
        <time>2021-05-13T14:26:41Z</time>
      </trkpt>
      <trkpt lat="46.51108" lon="0.37986">
        <ele>107.4</ele>
        <time>2021-05-13T14:26:48Z</time>
      </trkpt>
      <trkpt lat="46.511" lon="0.37985">
        <ele>107.8</ele>
        <time>2021-05-13T14:26:51Z</time>
      </trkpt>
      <trkpt lat="46.51091" lon="0.37984">
        <ele>107.8</ele>
        <time>2021-05-13T14:26:55Z</time>
      </trkpt>
      <trkpt lat="46.51075" lon="0.37984">
        <ele>107.8</ele>
        <time>2021-05-13T14:27:02Z</time>
      </trkpt>
      <trkpt lat="46.51059" lon="0.37987">
        <ele>108</ele>
        <time>2021-05-13T14:27:09Z</time>
      </trkpt>
      <trkpt lat="46.51044" lon="0.37986">
        <ele>108.6</ele>
        <time>2021-05-13T14:27:15Z</time>
      </trkpt>
      <trkpt lat="46.51041" lon="0.37986">
        <ele>108.8</ele>
        <time>2021-05-13T14:27:16Z</time>
      </trkpt>
      <trkpt lat="46.51029" lon="0.37985">
        <ele>109.6</ele>
        <time>2021-05-13T14:27:21Z</time>
      </trkpt>
      <trkpt lat="46.51017" lon="0.37986">
        <ele>110</ele>
        <time>2021-05-13T14:27:25Z</time>
      </trkpt>
      <trkpt lat="46.51014" lon="0.37987">
        <ele>110.2</ele>
        <time>2021-05-13T14:27:26Z</time>
      </trkpt>
      <trkpt lat="46.51006" lon="0.37985">
        <ele>110</ele>
        <time>2021-05-13T14:27:29Z</time>
      </trkpt>
      <trkpt lat="46.50997" lon="0.37985">
        <ele>110</ele>
        <time>2021-05-13T14:27:32Z</time>
      </trkpt>
      <trkpt lat="46.50975" lon="0.37984">
        <ele>110.6</ele>
        <time>2021-05-13T14:27:39Z</time>
      </trkpt>
      <trkpt lat="46.50958" lon="0.37976">
        <ele>110.8</ele>
        <time>2021-05-13T14:27:45Z</time>
      </trkpt>
      <trkpt lat="46.50945" lon="0.37969">
        <ele>110.6</ele>
        <time>2021-05-13T14:27:51Z</time>
      </trkpt>
      <trkpt lat="46.50933" lon="0.37964">
        <ele>111</ele>
        <time>2021-05-13T14:27:56Z</time>
      </trkpt>
      <trkpt lat="46.5093" lon="0.37963">
        <ele>111</ele>
        <time>2021-05-13T14:27:57Z</time>
      </trkpt>
      <trkpt lat="46.50926" lon="0.37965">
        <ele>111.2</ele>
        <time>2021-05-13T14:27:59Z</time>
      </trkpt>
      <trkpt lat="46.50924" lon="0.37969">
        <ele>112</ele>
        <time>2021-05-13T14:28:01Z</time>
      </trkpt>
      <trkpt lat="46.50925" lon="0.37981">
        <ele>112.8</ele>
        <time>2021-05-13T14:28:06Z</time>
      </trkpt>
      <trkpt lat="46.50926" lon="0.37984">
        <ele>113.6</ele>
        <time>2021-05-13T14:28:07Z</time>
      </trkpt>
      <trkpt lat="46.50929" lon="0.37994">
        <ele>114.6</ele>
        <time>2021-05-13T14:28:10Z</time>
      </trkpt>
      <trkpt lat="46.50931" lon="0.38002">
        <ele>115.4</ele>
        <time>2021-05-13T14:28:13Z</time>
      </trkpt>
      <trkpt lat="46.50932" lon="0.38007">
        <ele>115.6</ele>
        <time>2021-05-13T14:28:15Z</time>
      </trkpt>
      <trkpt lat="46.50934" lon="0.38015">
        <ele>117</ele>
        <time>2021-05-13T14:28:19Z</time>
      </trkpt>
      <trkpt lat="46.50934" lon="0.38016">
        <ele>117.4</ele>
        <time>2021-05-13T14:28:20Z</time>
      </trkpt>
      <trkpt lat="46.50936" lon="0.38023">
        <ele>118.2</ele>
        <time>2021-05-13T14:28:23Z</time>
      </trkpt>
      <trkpt lat="46.50938" lon="0.38026">
        <ele>118.6</ele>
        <time>2021-05-13T14:28:25Z</time>
      </trkpt>
      <trkpt lat="46.50939" lon="0.38032">
        <ele>119</ele>
        <time>2021-05-13T14:28:27Z</time>
      </trkpt>
      <trkpt lat="46.50941" lon="0.38037">
        <ele>119.2</ele>
        <time>2021-05-13T14:28:29Z</time>
      </trkpt>
      <trkpt lat="46.50943" lon="0.38046">
        <ele>120.4</ele>
        <time>2021-05-13T14:28:32Z</time>
      </trkpt>
      <trkpt lat="46.50944" lon="0.38049">
        <ele>120.6</ele>
        <time>2021-05-13T14:28:33Z</time>
      </trkpt>
      <trkpt lat="46.50945" lon="0.38057">
        <ele>121.4</ele>
        <time>2021-05-13T14:28:36Z</time>
      </trkpt>
      <trkpt lat="46.50946" lon="0.38066">
        <ele>122</ele>
        <time>2021-05-13T14:28:39Z</time>
      </trkpt>
      <trkpt lat="46.50948" lon="0.38076">
        <ele>122.8</ele>
        <time>2021-05-13T14:28:42Z</time>
      </trkpt>
      <trkpt lat="46.5095" lon="0.38086">
        <ele>123</ele>
        <time>2021-05-13T14:28:45Z</time>
      </trkpt>
      <trkpt lat="46.50955" lon="0.38109">
        <ele>123.6</ele>
        <time>2021-05-13T14:28:51Z</time>
      </trkpt>
      <trkpt lat="46.50958" lon="0.3812">
        <ele>123.8</ele>
        <time>2021-05-13T14:28:54Z</time>
      </trkpt>
      <trkpt lat="46.50961" lon="0.38131">
        <ele>123.8</ele>
        <time>2021-05-13T14:28:57Z</time>
      </trkpt>
      <trkpt lat="46.50966" lon="0.3815">
        <ele>123.4</ele>
        <time>2021-05-13T14:29:03Z</time>
      </trkpt>
      <trkpt lat="46.50966" lon="0.38158">
        <ele>123.2</ele>
        <time>2021-05-13T14:29:05Z</time>
      </trkpt>
      <trkpt lat="46.50965" lon="0.38179">
        <ele>122.8</ele>
        <time>2021-05-13T14:29:09Z</time>
      </trkpt>
      <trkpt lat="46.50965" lon="0.38184">
        <ele>122.6</ele>
        <time>2021-05-13T14:29:10Z</time>
      </trkpt>
      <trkpt lat="46.50965" lon="0.38189">
        <ele>122.4</ele>
        <time>2021-05-13T14:29:11Z</time>
      </trkpt>
      <trkpt lat="46.50966" lon="0.38205">
        <ele>122</ele>
        <time>2021-05-13T14:29:14Z</time>
      </trkpt>
      <trkpt lat="46.50965" lon="0.38217">
        <ele>121.6</ele>
        <time>2021-05-13T14:29:16Z</time>
      </trkpt>
      <trkpt lat="46.50964" lon="0.38238">
        <ele>120.2</ele>
        <time>2021-05-13T14:29:20Z</time>
      </trkpt>
      <trkpt lat="46.50964" lon="0.38244">
        <ele>120</ele>
        <time>2021-05-13T14:29:21Z</time>
      </trkpt>
      <trkpt lat="46.50962" lon="0.38249">
        <ele>119.8</ele>
        <time>2021-05-13T14:29:22Z</time>
      </trkpt>
      <trkpt lat="46.50959" lon="0.38266">
        <ele>119.2</ele>
        <time>2021-05-13T14:29:25Z</time>
      </trkpt>
      <trkpt lat="46.50958" lon="0.38272">
        <ele>118.8</ele>
        <time>2021-05-13T14:29:26Z</time>
      </trkpt>
      <trkpt lat="46.50958" lon="0.38279">
        <ele>118.2</ele>
        <time>2021-05-13T14:29:28Z</time>
      </trkpt>
      <trkpt lat="46.5096" lon="0.3828">
        <ele>118.2</ele>
        <time>2021-05-13T14:29:29Z</time>
      </trkpt>
      <trkpt lat="46.5096" lon="0.38281">
        <ele>118</ele>
        <time>2021-05-13T14:29:30Z</time>
      </trkpt>
      <trkpt lat="46.50964" lon="0.3828">
        <ele>118.4</ele>
        <time>2021-05-13T14:29:35Z</time>
      </trkpt>
      <trkpt lat="46.50967" lon="0.38276">
        <ele>118.6</ele>
        <time>2021-05-13T14:29:39Z</time>
      </trkpt>
      <trkpt lat="46.50969" lon="0.38274">
        <ele>118.8</ele>
        <time>2021-05-13T14:29:40Z</time>
      </trkpt>
      <trkpt lat="46.50973" lon="0.38265">
        <ele>119.2</ele>
        <time>2021-05-13T14:29:43Z</time>
      </trkpt>
      <trkpt lat="46.50975" lon="0.3826">
        <ele>119.4</ele>
        <time>2021-05-13T14:29:45Z</time>
      </trkpt>
      <trkpt lat="46.50986" lon="0.38244">
        <ele>120</ele>
        <time>2021-05-13T14:29:51Z</time>
      </trkpt>
      <trkpt lat="46.50993" lon="0.38236">
        <ele>120.2</ele>
        <time>2021-05-13T14:29:54Z</time>
      </trkpt>
      <trkpt lat="46.50999" lon="0.38229">
        <ele>119.8</ele>
        <time>2021-05-13T14:29:57Z</time>
      </trkpt>
      <trkpt lat="46.51009" lon="0.38217">
        <ele>119.6</ele>
        <time>2021-05-13T14:30:02Z</time>
      </trkpt>
      <trkpt lat="46.51018" lon="0.38205">
        <ele>120.2</ele>
        <time>2021-05-13T14:30:07Z</time>
      </trkpt>
      <trkpt lat="46.51032" lon="0.38189">
        <ele>120.2</ele>
        <time>2021-05-13T14:30:13Z</time>
      </trkpt>
      <trkpt lat="46.51043" lon="0.38176">
        <ele>120</ele>
        <time>2021-05-13T14:30:18Z</time>
      </trkpt>
      <trkpt lat="46.51049" lon="0.3816">
        <ele>121</ele>
        <time>2021-05-13T14:30:24Z</time>
      </trkpt>
      <trkpt lat="46.51052" lon="0.38154">
        <ele>121.2</ele>
        <time>2021-05-13T14:30:26Z</time>
      </trkpt>
      <trkpt lat="46.51055" lon="0.38142">
        <ele>121.6</ele>
        <time>2021-05-13T14:30:30Z</time>
      </trkpt>
      <trkpt lat="46.51063" lon="0.38125">
        <ele>121.8</ele>
        <time>2021-05-13T14:30:35Z</time>
      </trkpt>
      <trkpt lat="46.51066" lon="0.38122">
        <ele>121.6</ele>
        <time>2021-05-13T14:30:37Z</time>
      </trkpt>
      <trkpt lat="46.5107" lon="0.38124">
        <ele>120.8</ele>
        <time>2021-05-13T14:30:39Z</time>
      </trkpt>
      <trkpt lat="46.51073" lon="0.38132">
        <ele>120.2</ele>
        <time>2021-05-13T14:30:42Z</time>
      </trkpt>
      <trkpt lat="46.51073" lon="0.38135">
        <ele>119.8</ele>
        <time>2021-05-13T14:30:43Z</time>
      </trkpt>
      <trkpt lat="46.51074" lon="0.38139">
        <ele>119</ele>
        <time>2021-05-13T14:30:45Z</time>
      </trkpt>
      <trkpt lat="46.51074" lon="0.38142">
        <ele>118.6</ele>
        <time>2021-05-13T14:30:47Z</time>
      </trkpt>
      <trkpt lat="46.51075" lon="0.38142">
        <ele>118</ele>
        <time>2021-05-13T14:30:48Z</time>
      </trkpt>
      <trkpt lat="46.51077" lon="0.38141">
        <ele>116.8</ele>
        <time>2021-05-13T14:30:50Z</time>
      </trkpt>
      <trkpt lat="46.51079" lon="0.38139">
        <ele>116</ele>
        <time>2021-05-13T14:30:52Z</time>
      </trkpt>
      <trkpt lat="46.5108" lon="0.38139">
        <ele>115.8</ele>
        <time>2021-05-13T14:30:53Z</time>
      </trkpt>
      <trkpt lat="46.51084" lon="0.38139">
        <ele>114.8</ele>
        <time>2021-05-13T14:30:55Z</time>
      </trkpt>
      <trkpt lat="46.51084" lon="0.38138">
        <ele>114.6</ele>
        <time>2021-05-13T14:30:56Z</time>
      </trkpt>
      <trkpt lat="46.51086" lon="0.38138">
        <ele>113.2</ele>
        <time>2021-05-13T14:30:58Z</time>
      </trkpt>
      <trkpt lat="46.51089" lon="0.38138">
        <ele>112.2</ele>
        <time>2021-05-13T14:31:01Z</time>
      </trkpt>
      <trkpt lat="46.51095" lon="0.38138">
        <ele>110.8</ele>
        <time>2021-05-13T14:31:05Z</time>
      </trkpt>
      <trkpt lat="46.51101" lon="0.38137">
        <ele>109.2</ele>
        <time>2021-05-13T14:31:08Z</time>
      </trkpt>
      <trkpt lat="46.51104" lon="0.38134">
        <ele>108.4</ele>
        <time>2021-05-13T14:31:10Z</time>
      </trkpt>
      <trkpt lat="46.5111" lon="0.38131">
        <ele>108</ele>
        <time>2021-05-13T14:31:12Z</time>
      </trkpt>
      <trkpt lat="46.51116" lon="0.38126">
        <ele>108</ele>
        <time>2021-05-13T14:31:16Z</time>
      </trkpt>
      <trkpt lat="46.51118" lon="0.38125">
        <ele>108.2</ele>
        <time>2021-05-13T14:31:17Z</time>
      </trkpt>
      <trkpt lat="46.51121" lon="0.38124">
        <ele>108.6</ele>
        <time>2021-05-13T14:31:20Z</time>
      </trkpt>
      <trkpt lat="46.51126" lon="0.38122">
        <ele>108.8</ele>
        <time>2021-05-13T14:31:23Z</time>
      </trkpt>
      <trkpt lat="46.51136" lon="0.38117">
        <ele>109.2</ele>
        <time>2021-05-13T14:31:32Z</time>
      </trkpt>
      <trkpt lat="46.51137" lon="0.38117">
        <ele>109.2</ele>
        <time>2021-05-13T14:31:33Z</time>
      </trkpt>
      <trkpt lat="46.51141" lon="0.38115">
        <ele>109.6</ele>
        <time>2021-05-13T14:31:36Z</time>
      </trkpt>
      <trkpt lat="46.51144" lon="0.38113">
        <ele>109.6</ele>
        <time>2021-05-13T14:31:39Z</time>
      </trkpt>
      <trkpt lat="46.51145" lon="0.38113">
        <ele>109.6</ele>
        <time>2021-05-13T14:31:41Z</time>
      </trkpt>
      <trkpt lat="46.51148" lon="0.38112">
        <ele>109.4</ele>
        <time>2021-05-13T14:31:44Z</time>
      </trkpt>
      <trkpt lat="46.5115" lon="0.3811">
        <ele>109</ele>
        <time>2021-05-13T14:31:46Z</time>
      </trkpt>
      <trkpt lat="46.51151" lon="0.38108">
        <ele>109</ele>
        <time>2021-05-13T14:31:47Z</time>
      </trkpt>
      <trkpt lat="46.51155" lon="0.38103">
        <ele>109</ele>
        <time>2021-05-13T14:31:50Z</time>
      </trkpt>
      <trkpt lat="46.51161" lon="0.38097">
        <ele>109.8</ele>
        <time>2021-05-13T14:31:55Z</time>
      </trkpt>
      <trkpt lat="46.51162" lon="0.38095">
        <ele>109.8</ele>
        <time>2021-05-13T14:31:57Z</time>
      </trkpt>
      <trkpt lat="46.51168" lon="0.38092">
        <ele>110</ele>
        <time>2021-05-13T14:32:04Z</time>
      </trkpt>
      <trkpt lat="46.5117" lon="0.38091">
        <ele>109.8</ele>
        <time>2021-05-13T14:32:06Z</time>
      </trkpt>
      <trkpt lat="46.5117" lon="0.3809">
        <ele>109.8</ele>
        <time>2021-05-13T14:32:07Z</time>
      </trkpt>
      <trkpt lat="46.51182" lon="0.38081">
        <ele>110.2</ele>
        <time>2021-05-13T14:32:18Z</time>
      </trkpt>
      <trkpt lat="46.51195" lon="0.38069">
        <ele>109.2</ele>
        <time>2021-05-13T14:32:28Z</time>
      </trkpt>
      <trkpt lat="46.512" lon="0.38064">
        <ele>108</ele>
        <time>2021-05-13T14:32:31Z</time>
      </trkpt>
      <trkpt lat="46.51202" lon="0.38062">
        <ele>107</ele>
        <time>2021-05-13T14:32:33Z</time>
      </trkpt>
      <trkpt lat="46.51205" lon="0.38058">
        <ele>105.2</ele>
        <time>2021-05-13T14:32:36Z</time>
      </trkpt>
      <trkpt lat="46.51208" lon="0.38055">
        <ele>103.8</ele>
        <time>2021-05-13T14:32:38Z</time>
      </trkpt>
      <trkpt lat="46.5121" lon="0.38054">
        <ele>103</ele>
        <time>2021-05-13T14:32:39Z</time>
      </trkpt>
      <trkpt lat="46.5121" lon="0.38054">
        <ele>102.4</ele>
        <time>2021-05-13T14:32:40Z</time>
      </trkpt>
      <trkpt lat="46.51213" lon="0.38052">
        <ele>101.8</ele>
        <time>2021-05-13T14:32:43Z</time>
      </trkpt>
      <trkpt lat="46.51214" lon="0.3805">
        <ele>101.2</ele>
        <time>2021-05-13T14:32:45Z</time>
      </trkpt>
      <trkpt lat="46.5122" lon="0.38049">
        <ele>100.2</ele>
        <time>2021-05-13T14:32:48Z</time>
      </trkpt>
      <trkpt lat="46.51222" lon="0.3805">
        <ele>100</ele>
        <time>2021-05-13T14:32:49Z</time>
      </trkpt>
      <trkpt lat="46.51224" lon="0.38051">
        <ele>99.8</ele>
        <time>2021-05-13T14:32:50Z</time>
      </trkpt>
      <trkpt lat="46.51231" lon="0.38054">
        <ele>99.2</ele>
        <time>2021-05-13T14:32:53Z</time>
      </trkpt>
      <trkpt lat="46.51234" lon="0.38055">
        <ele>99</ele>
        <time>2021-05-13T14:32:54Z</time>
      </trkpt>
      <trkpt lat="46.51246" lon="0.3806">
        <ele>98</ele>
        <time>2021-05-13T14:33:00Z</time>
      </trkpt>
      <trkpt lat="46.51257" lon="0.38067">
        <ele>97.6</ele>
        <time>2021-05-13T14:33:08Z</time>
      </trkpt>
      <trkpt lat="46.51272" lon="0.38075">
        <ele>97.4</ele>
        <time>2021-05-13T14:33:19Z</time>
      </trkpt>
      <trkpt lat="46.51279" lon="0.38078">
        <ele>97</ele>
        <time>2021-05-13T14:33:23Z</time>
      </trkpt>
      <trkpt lat="46.5128" lon="0.38078">
        <ele>97</ele>
        <time>2021-05-13T14:33:24Z</time>
      </trkpt>
      <trkpt lat="46.51281" lon="0.38078">
        <ele>97</ele>
        <time>2021-05-13T14:33:25Z</time>
      </trkpt>
      <trkpt lat="46.51285" lon="0.38076">
        <ele>96.8</ele>
        <time>2021-05-13T14:33:39Z</time>
      </trkpt>
      <trkpt lat="46.51284" lon="0.38075">
        <ele>97.2</ele>
        <time>2021-05-13T14:33:56Z</time>
      </trkpt>
      <trkpt lat="46.51279" lon="0.38073">
        <ele>97.2</ele>
        <time>2021-05-13T14:34:03Z</time>
      </trkpt>
      <trkpt lat="46.51276" lon="0.38071">
        <ele>97.2</ele>
        <time>2021-05-13T14:34:05Z</time>
      </trkpt>
      <trkpt lat="46.51275" lon="0.3807">
        <ele>97.2</ele>
        <time>2021-05-13T14:34:06Z</time>
      </trkpt>
      <trkpt lat="46.51266" lon="0.38066">
        <ele>97.4</ele>
        <time>2021-05-13T14:34:14Z</time>
      </trkpt>
      <trkpt lat="46.51266" lon="0.38067">
        <ele>97.4</ele>
        <time>2021-05-13T14:34:16Z</time>
      </trkpt>
      <trkpt lat="46.5127" lon="0.3807">
        <ele>97.4</ele>
        <time>2021-05-13T14:34:21Z</time>
      </trkpt>
      <trkpt lat="46.51279" lon="0.38076">
        <ele>97.2</ele>
        <time>2021-05-13T14:34:27Z</time>
      </trkpt>
      <trkpt lat="46.51296" lon="0.38086">
        <ele>97.4</ele>
        <time>2021-05-13T14:34:33Z</time>
      </trkpt>
      <trkpt lat="46.51316" lon="0.38092">
        <ele>97.4</ele>
        <time>2021-05-13T14:34:39Z</time>
      </trkpt>
      <trkpt lat="46.51343" lon="0.38098">
        <ele>97.6</ele>
        <time>2021-05-13T14:34:47Z</time>
      </trkpt>
      <trkpt lat="46.51361" lon="0.38102">
        <ele>97.4</ele>
        <time>2021-05-13T14:34:54Z</time>
      </trkpt>
      <trkpt lat="46.51373" lon="0.38105">
        <ele>97.4</ele>
        <time>2021-05-13T14:35:00Z</time>
      </trkpt>
      <trkpt lat="46.51387" lon="0.38102">
        <ele>97.6</ele>
        <time>2021-05-13T14:35:06Z</time>
      </trkpt>
      <trkpt lat="46.51404" lon="0.38098">
        <ele>98.2</ele>
        <time>2021-05-13T14:35:13Z</time>
      </trkpt>
      <trkpt lat="46.51407" lon="0.38097">
        <ele>98.4</ele>
        <time>2021-05-13T14:35:14Z</time>
      </trkpt>
      <trkpt lat="46.5142" lon="0.38097">
        <ele>98.6</ele>
        <time>2021-05-13T14:35:20Z</time>
      </trkpt>
      <trkpt lat="46.51423" lon="0.38093">
        <ele>98.8</ele>
        <time>2021-05-13T14:35:22Z</time>
      </trkpt>
      <trkpt lat="46.51424" lon="0.38087">
        <ele>99.6</ele>
        <time>2021-05-13T14:35:25Z</time>
      </trkpt>
      <trkpt lat="46.51424" lon="0.38085">
        <ele>100</ele>
        <time>2021-05-13T14:35:26Z</time>
      </trkpt>
      <trkpt lat="46.51425" lon="0.3808">
        <ele>100.8</ele>
        <time>2021-05-13T14:35:29Z</time>
      </trkpt>
      <trkpt lat="46.51424" lon="0.38078">
        <ele>101</ele>
        <time>2021-05-13T14:35:30Z</time>
      </trkpt>
      <trkpt lat="46.51422" lon="0.38076">
        <ele>101.4</ele>
        <time>2021-05-13T14:35:32Z</time>
      </trkpt>
      <trkpt lat="46.51414" lon="0.38071">
        <ele>101.8</ele>
        <time>2021-05-13T14:35:37Z</time>
      </trkpt>
      <trkpt lat="46.5141" lon="0.38071">
        <ele>102</ele>
        <time>2021-05-13T14:35:39Z</time>
      </trkpt>
      <trkpt lat="46.51405" lon="0.3807">
        <ele>103</ele>
        <time>2021-05-13T14:35:44Z</time>
      </trkpt>
      <trkpt lat="46.51403" lon="0.3807">
        <ele>104</ele>
        <time>2021-05-13T14:35:50Z</time>
      </trkpt>
      <trkpt lat="46.51403" lon="0.3807">
        <ele>104.2</ele>
        <time>2021-05-13T14:35:51Z</time>
      </trkpt>
      <trkpt lat="46.514" lon="0.38066">
        <ele>105.2</ele>
        <time>2021-05-13T14:35:58Z</time>
      </trkpt>
      <trkpt lat="46.51399" lon="0.38064">
        <ele>105.6</ele>
        <time>2021-05-13T14:36:01Z</time>
      </trkpt>
      <trkpt lat="46.51397" lon="0.38064">
        <ele>106.2</ele>
        <time>2021-05-13T14:36:07Z</time>
      </trkpt>
      <trkpt lat="46.51396" lon="0.38063">
        <ele>106.8</ele>
        <time>2021-05-13T14:36:13Z</time>
      </trkpt>
      <trkpt lat="46.51394" lon="0.38062">
        <ele>107.2</ele>
        <time>2021-05-13T14:36:17Z</time>
      </trkpt>
      <trkpt lat="46.51393" lon="0.3806">
        <ele>107.4</ele>
        <time>2021-05-13T14:36:26Z</time>
      </trkpt>
      <trkpt lat="46.51388" lon="0.38055">
        <ele>108</ele>
        <time>2021-05-13T14:36:38Z</time>
      </trkpt>
      <trkpt lat="46.5138" lon="0.38054">
        <ele>108.2</ele>
        <time>2021-05-13T14:36:46Z</time>
      </trkpt>
      <trkpt lat="46.51378" lon="0.38054">
        <ele>108.2</ele>
        <time>2021-05-13T14:36:47Z</time>
      </trkpt>
      <trkpt lat="46.51364" lon="0.38058">
        <ele>108.4</ele>
        <time>2021-05-13T14:36:56Z</time>
      </trkpt>
      <trkpt lat="46.5135" lon="0.38058">
        <ele>108.2</ele>
        <time>2021-05-13T14:37:01Z</time>
      </trkpt>
      <trkpt lat="46.51331" lon="0.38057">
        <ele>107.6</ele>
        <time>2021-05-13T14:37:07Z</time>
      </trkpt>
      <trkpt lat="46.51323" lon="0.38056">
        <ele>107.2</ele>
        <time>2021-05-13T14:37:10Z</time>
      </trkpt>
      <trkpt lat="46.51312" lon="0.38049">
        <ele>107</ele>
        <time>2021-05-13T14:37:14Z</time>
      </trkpt>
      <trkpt lat="46.51301" lon="0.38037">
        <ele>108.4</ele>
        <time>2021-05-13T14:37:19Z</time>
      </trkpt>
      <trkpt lat="46.51296" lon="0.38031">
        <ele>108.6</ele>
        <time>2021-05-13T14:37:21Z</time>
      </trkpt>
      <trkpt lat="46.51288" lon="0.38024">
        <ele>108.8</ele>
        <time>2021-05-13T14:37:25Z</time>
      </trkpt>
      <trkpt lat="46.51286" lon="0.38022">
        <ele>109</ele>
        <time>2021-05-13T14:37:26Z</time>
      </trkpt>
      <trkpt lat="46.51276" lon="0.38014">
        <ele>109.4</ele>
        <time>2021-05-13T14:37:30Z</time>
      </trkpt>
      <trkpt lat="46.51274" lon="0.38012">
        <ele>109.4</ele>
        <time>2021-05-13T14:37:31Z</time>
      </trkpt>
      <trkpt lat="46.51254" lon="0.38002">
        <ele>109.4</ele>
        <time>2021-05-13T14:37:36Z</time>
      </trkpt>
      <trkpt lat="46.51247" lon="0.37998">
        <ele>109.4</ele>
        <time>2021-05-13T14:37:38Z</time>
      </trkpt>
      <trkpt lat="46.51239" lon="0.37995">
        <ele>109</ele>
        <time>2021-05-13T14:37:41Z</time>
      </trkpt>
      <trkpt lat="46.51231" lon="0.37988">
        <ele>108.8</ele>
        <time>2021-05-13T14:37:44Z</time>
      </trkpt>
      <trkpt lat="46.51223" lon="0.37983">
        <ele>108.8</ele>
        <time>2021-05-13T14:37:47Z</time>
      </trkpt>
      <trkpt lat="46.51204" lon="0.37978">
        <ele>109.6</ele>
        <time>2021-05-13T14:37:53Z</time>
      </trkpt>
      <trkpt lat="46.512" lon="0.37976">
        <ele>109.6</ele>
        <time>2021-05-13T14:37:54Z</time>
      </trkpt>
      <trkpt lat="46.51188" lon="0.37971">
        <ele>109</ele>
        <time>2021-05-13T14:37:57Z</time>
      </trkpt>
      <trkpt lat="46.51183" lon="0.3797">
        <ele>108.8</ele>
        <time>2021-05-13T14:37:58Z</time>
      </trkpt>
      <trkpt lat="46.51166" lon="0.37969">
        <ele>108.4</ele>
        <time>2021-05-13T14:38:01Z</time>
      </trkpt>
      <trkpt lat="46.51153" lon="0.37968">
        <ele>107.8</ele>
        <time>2021-05-13T14:38:04Z</time>
      </trkpt>
      <trkpt lat="46.51135" lon="0.37961">
        <ele>107.6</ele>
        <time>2021-05-13T14:38:10Z</time>
      </trkpt>
      <trkpt lat="46.51134" lon="0.3796">
        <ele>108</ele>
        <time>2021-05-13T14:38:11Z</time>
      </trkpt>
      <trkpt lat="46.51132" lon="0.37955">
        <ele>108.4</ele>
        <time>2021-05-13T14:38:14Z</time>
      </trkpt>
      <trkpt lat="46.51132" lon="0.37953">
        <ele>108.4</ele>
        <time>2021-05-13T14:38:15Z</time>
      </trkpt>
      <trkpt lat="46.51133" lon="0.37949">
        <ele>109.4</ele>
        <time>2021-05-13T14:38:17Z</time>
      </trkpt>
      <trkpt lat="46.51132" lon="0.37944">
        <ele>110.6</ele>
        <time>2021-05-13T14:38:20Z</time>
      </trkpt>
      <trkpt lat="46.51128" lon="0.37939">
        <ele>111.4</ele>
        <time>2021-05-13T14:38:25Z</time>
      </trkpt>
      <trkpt lat="46.51128" lon="0.37937">
        <ele>111.6</ele>
        <time>2021-05-13T14:38:27Z</time>
      </trkpt>
      <trkpt lat="46.51127" lon="0.37931">
        <ele>112.8</ele>
        <time>2021-05-13T14:38:32Z</time>
      </trkpt>
      <trkpt lat="46.51127" lon="0.37927">
        <ele>113.8</ele>
        <time>2021-05-13T14:38:37Z</time>
      </trkpt>
      <trkpt lat="46.51127" lon="0.37924">
        <ele>115</ele>
        <time>2021-05-13T14:38:41Z</time>
      </trkpt>
      <trkpt lat="46.51128" lon="0.37918">
        <ele>115.6</ele>
        <time>2021-05-13T14:38:48Z</time>
      </trkpt>
      <trkpt lat="46.51128" lon="0.37915">
        <ele>116.4</ele>
        <time>2021-05-13T14:38:50Z</time>
      </trkpt>
      <trkpt lat="46.5113" lon="0.37908">
        <ele>117.6</ele>
        <time>2021-05-13T14:38:54Z</time>
      </trkpt>
      <trkpt lat="46.51132" lon="0.37902">
        <ele>118.8</ele>
        <time>2021-05-13T14:38:57Z</time>
      </trkpt>
      <trkpt lat="46.51134" lon="0.37897">
        <ele>120</ele>
        <time>2021-05-13T14:39:00Z</time>
      </trkpt>
      <trkpt lat="46.51136" lon="0.3789">
        <ele>121</ele>
        <time>2021-05-13T14:39:04Z</time>
      </trkpt>
      <trkpt lat="46.51138" lon="0.37883">
        <ele>122</ele>
        <time>2021-05-13T14:39:08Z</time>
      </trkpt>
      <trkpt lat="46.5114" lon="0.37871">
        <ele>123.2</ele>
        <time>2021-05-13T14:39:14Z</time>
      </trkpt>
      <trkpt lat="46.51143" lon="0.37862">
        <ele>124.4</ele>
        <time>2021-05-13T14:39:19Z</time>
      </trkpt>
      <trkpt lat="46.51147" lon="0.37853">
        <ele>125.4</ele>
        <time>2021-05-13T14:39:24Z</time>
      </trkpt>
      <trkpt lat="46.51148" lon="0.37851">
        <ele>125.6</ele>
        <time>2021-05-13T14:39:25Z</time>
      </trkpt>
      <trkpt lat="46.5115" lon="0.37844">
        <ele>126.4</ele>
        <time>2021-05-13T14:39:29Z</time>
      </trkpt>
      <trkpt lat="46.51151" lon="0.37839">
        <ele>126.8</ele>
        <time>2021-05-13T14:39:32Z</time>
      </trkpt>
      <trkpt lat="46.51153" lon="0.37831">
        <ele>127.6</ele>
        <time>2021-05-13T14:39:36Z</time>
      </trkpt>
      <trkpt lat="46.51155" lon="0.37825">
        <ele>128.2</ele>
        <time>2021-05-13T14:39:39Z</time>
      </trkpt>
      <trkpt lat="46.51157" lon="0.37819">
        <ele>128.8</ele>
        <time>2021-05-13T14:39:42Z</time>
      </trkpt>
      <trkpt lat="46.51159" lon="0.37815">
        <ele>129</ele>
        <time>2021-05-13T14:39:45Z</time>
      </trkpt>
      <trkpt lat="46.51164" lon="0.37799">
        <ele>129.4</ele>
        <time>2021-05-13T14:39:51Z</time>
      </trkpt>
      <trkpt lat="46.51166" lon="0.37795">
        <ele>130</ele>
        <time>2021-05-13T14:39:53Z</time>
      </trkpt>
      <trkpt lat="46.51167" lon="0.37791">
        <ele>130.2</ele>
        <time>2021-05-13T14:39:55Z</time>
      </trkpt>
      <trkpt lat="46.51167" lon="0.37788">
        <ele>130.4</ele>
        <time>2021-05-13T14:39:56Z</time>
      </trkpt>
      <trkpt lat="46.51173" lon="0.37772">
        <ele>130.8</ele>
        <time>2021-05-13T14:40:01Z</time>
      </trkpt>
      <trkpt lat="46.51173" lon="0.37768">
        <ele>130.8</ele>
        <time>2021-05-13T14:40:02Z</time>
      </trkpt>
      <trkpt lat="46.51174" lon="0.37764">
        <ele>131</ele>
        <time>2021-05-13T14:40:03Z</time>
      </trkpt>
      <trkpt lat="46.51179" lon="0.37751">
        <ele>131.4</ele>
        <time>2021-05-13T14:40:07Z</time>
      </trkpt>
      <trkpt lat="46.51185" lon="0.37741">
        <ele>131.8</ele>
        <time>2021-05-13T14:40:11Z</time>
      </trkpt>
      <trkpt lat="46.51189" lon="0.37735">
        <ele>132</ele>
        <time>2021-05-13T14:40:13Z</time>
      </trkpt>
      <trkpt lat="46.51191" lon="0.37734">
        <ele>132</ele>
        <time>2021-05-13T14:40:14Z</time>
      </trkpt>
      <trkpt lat="46.51198" lon="0.37733">
        <ele>132.2</ele>
        <time>2021-05-13T14:40:17Z</time>
      </trkpt>
      <trkpt lat="46.51215" lon="0.37738">
        <ele>132.2</ele>
        <time>2021-05-13T14:40:22Z</time>
      </trkpt>
      <trkpt lat="46.51234" lon="0.37746">
        <ele>131.8</ele>
        <time>2021-05-13T14:40:29Z</time>
      </trkpt>
      <trkpt lat="46.51247" lon="0.37751">
        <ele>131.4</ele>
        <time>2021-05-13T14:40:34Z</time>
      </trkpt>
      <trkpt lat="46.51255" lon="0.37756">
        <ele>131</ele>
        <time>2021-05-13T14:40:37Z</time>
      </trkpt>
      <trkpt lat="46.51263" lon="0.37762">
        <ele>130.6</ele>
        <time>2021-05-13T14:40:40Z</time>
      </trkpt>
      <trkpt lat="46.51281" lon="0.37773">
        <ele>130.2</ele>
        <time>2021-05-13T14:40:46Z</time>
      </trkpt>
      <trkpt lat="46.51285" lon="0.37776">
        <ele>129.8</ele>
        <time>2021-05-13T14:40:47Z</time>
      </trkpt>
      <trkpt lat="46.51296" lon="0.37783">
        <ele>129</ele>
        <time>2021-05-13T14:40:50Z</time>
      </trkpt>
      <trkpt lat="46.51299" lon="0.37785">
        <ele>128.8</ele>
        <time>2021-05-13T14:40:51Z</time>
      </trkpt>
      <trkpt lat="46.51306" lon="0.3779">
        <ele>128.6</ele>
        <time>2021-05-13T14:40:53Z</time>
      </trkpt>
      <trkpt lat="46.51324" lon="0.37801">
        <ele>128.4</ele>
        <time>2021-05-13T14:40:57Z</time>
      </trkpt>
      <trkpt lat="46.51335" lon="0.3781">
        <ele>127.2</ele>
        <time>2021-05-13T14:41:00Z</time>
      </trkpt>
      <trkpt lat="46.51349" lon="0.3782">
        <ele>126.4</ele>
        <time>2021-05-13T14:41:03Z</time>
      </trkpt>
      <trkpt lat="46.51353" lon="0.37822">
        <ele>126</ele>
        <time>2021-05-13T14:41:04Z</time>
      </trkpt>
      <trkpt lat="46.51362" lon="0.37829">
        <ele>126</ele>
        <time>2021-05-13T14:41:07Z</time>
      </trkpt>
      <trkpt lat="46.51368" lon="0.37833">
        <ele>126</ele>
        <time>2021-05-13T14:41:09Z</time>
      </trkpt>
      <trkpt lat="46.51388" lon="0.37846">
        <ele>125.4</ele>
        <time>2021-05-13T14:41:14Z</time>
      </trkpt>
      <trkpt lat="46.51392" lon="0.37851">
        <ele>125.4</ele>
        <time>2021-05-13T14:41:15Z</time>
      </trkpt>
      <trkpt lat="46.51396" lon="0.37855">
        <ele>125.2</ele>
        <time>2021-05-13T14:41:16Z</time>
      </trkpt>
      <trkpt lat="46.51411" lon="0.37862">
        <ele>125</ele>
        <time>2021-05-13T14:41:19Z</time>
      </trkpt>
      <trkpt lat="46.51417" lon="0.37865">
        <ele>125</ele>
        <time>2021-05-13T14:41:20Z</time>
      </trkpt>
      <trkpt lat="46.51431" lon="0.37874">
        <ele>123.8</ele>
        <time>2021-05-13T14:41:23Z</time>
      </trkpt>
      <trkpt lat="46.51439" lon="0.37879">
        <ele>123.2</ele>
        <time>2021-05-13T14:41:25Z</time>
      </trkpt>
      <trkpt lat="46.51443" lon="0.37881">
        <ele>122.6</ele>
        <time>2021-05-13T14:41:26Z</time>
      </trkpt>
      <trkpt lat="46.51453" lon="0.37889">
        <ele>122</ele>
        <time>2021-05-13T14:41:28Z</time>
      </trkpt>
      <trkpt lat="46.51458" lon="0.37892">
        <ele>121.8</ele>
        <time>2021-05-13T14:41:29Z</time>
      </trkpt>
      <trkpt lat="46.5147" lon="0.37899">
        <ele>121.4</ele>
        <time>2021-05-13T14:41:31Z</time>
      </trkpt>
      <trkpt lat="46.5149" lon="0.37913">
        <ele>120</ele>
        <time>2021-05-13T14:41:34Z</time>
      </trkpt>
      <trkpt lat="46.51502" lon="0.37924">
        <ele>119.6</ele>
        <time>2021-05-13T14:41:36Z</time>
      </trkpt>
      <trkpt lat="46.51512" lon="0.37938">
        <ele>119</ele>
        <time>2021-05-13T14:41:38Z</time>
      </trkpt>
      <trkpt lat="46.51518" lon="0.37942">
        <ele>118.8</ele>
        <time>2021-05-13T14:41:39Z</time>
      </trkpt>
      <trkpt lat="46.51524" lon="0.37944">
        <ele>118.6</ele>
        <time>2021-05-13T14:41:40Z</time>
      </trkpt>
      <trkpt lat="46.51531" lon="0.37946">
        <ele>118.4</ele>
        <time>2021-05-13T14:41:41Z</time>
      </trkpt>
      <trkpt lat="46.51551" lon="0.3795">
        <ele>117.8</ele>
        <time>2021-05-13T14:41:45Z</time>
      </trkpt>
      <trkpt lat="46.51557" lon="0.37952">
        <ele>117.8</ele>
        <time>2021-05-13T14:41:46Z</time>
      </trkpt>
      <trkpt lat="46.51569" lon="0.37959">
        <ele>117.6</ele>
        <time>2021-05-13T14:41:47Z</time>
      </trkpt>
      <trkpt lat="46.51579" lon="0.37969">
        <ele>117.4</ele>
        <time>2021-05-13T14:41:50Z</time>
      </trkpt>
      <trkpt lat="46.51583" lon="0.37974">
        <ele>117</ele>
        <time>2021-05-13T14:41:51Z</time>
      </trkpt>
      <trkpt lat="46.51587" lon="0.37977">
        <ele>116.8</ele>
        <time>2021-05-13T14:41:52Z</time>
      </trkpt>
      <trkpt lat="46.51591" lon="0.3798">
        <ele>116.4</ele>
        <time>2021-05-13T14:41:53Z</time>
      </trkpt>
      <trkpt lat="46.51596" lon="0.37984">
        <ele>115</ele>
        <time>2021-05-13T14:41:55Z</time>
      </trkpt>
      <trkpt lat="46.516" lon="0.37983">
        <ele>114.2</ele>
        <time>2021-05-13T14:41:57Z</time>
      </trkpt>
      <trkpt lat="46.51604" lon="0.37979">
        <ele>114</ele>
        <time>2021-05-13T14:41:59Z</time>
      </trkpt>
      <trkpt lat="46.51618" lon="0.37955">
        <ele>114.8</ele>
        <time>2021-05-13T14:42:07Z</time>
      </trkpt>
      <trkpt lat="46.51621" lon="0.37949">
        <ele>115</ele>
        <time>2021-05-13T14:42:09Z</time>
      </trkpt>
      <trkpt lat="46.51629" lon="0.37929">
        <ele>114.4</ele>
        <time>2021-05-13T14:42:14Z</time>
      </trkpt>
      <trkpt lat="46.51636" lon="0.37912">
        <ele>113.8</ele>
        <time>2021-05-13T14:42:18Z</time>
      </trkpt>
      <trkpt lat="46.51641" lon="0.37899">
        <ele>113</ele>
        <time>2021-05-13T14:42:20Z</time>
      </trkpt>
      <trkpt lat="46.51646" lon="0.3788">
        <ele>112.8</ele>
        <time>2021-05-13T14:42:23Z</time>
      </trkpt>
      <trkpt lat="46.51648" lon="0.37871">
        <ele>113.2</ele>
        <time>2021-05-13T14:42:25Z</time>
      </trkpt>
      <trkpt lat="46.51649" lon="0.37867">
        <ele>113.8</ele>
        <time>2021-05-13T14:42:26Z</time>
      </trkpt>
      <trkpt lat="46.5165" lon="0.3786">
        <ele>115</ele>
        <time>2021-05-13T14:42:28Z</time>
      </trkpt>
      <trkpt lat="46.51652" lon="0.37857">
        <ele>115.2</ele>
        <time>2021-05-13T14:42:29Z</time>
      </trkpt>
      <trkpt lat="46.51657" lon="0.3785">
        <ele>115.6</ele>
        <time>2021-05-13T14:42:31Z</time>
      </trkpt>
      <trkpt lat="46.51662" lon="0.37841">
        <ele>116.2</ele>
        <time>2021-05-13T14:42:33Z</time>
      </trkpt>
      <trkpt lat="46.51668" lon="0.37825">
        <ele>117</ele>
        <time>2021-05-13T14:42:36Z</time>
      </trkpt>
      <trkpt lat="46.51671" lon="0.37821">
        <ele>117.4</ele>
        <time>2021-05-13T14:42:37Z</time>
      </trkpt>
      <trkpt lat="46.51677" lon="0.37805">
        <ele>117.4</ele>
        <time>2021-05-13T14:42:41Z</time>
      </trkpt>
      <trkpt lat="46.51685" lon="0.37788">
        <ele>117.6</ele>
        <time>2021-05-13T14:42:44Z</time>
      </trkpt>
      <trkpt lat="46.5169" lon="0.37771">
        <ele>117.8</ele>
        <time>2021-05-13T14:42:47Z</time>
      </trkpt>
      <trkpt lat="46.51694" lon="0.37762">
        <ele>118</ele>
        <time>2021-05-13T14:42:49Z</time>
      </trkpt>
      <trkpt lat="46.51699" lon="0.37748">
        <ele>117.8</ele>
        <time>2021-05-13T14:42:52Z</time>
      </trkpt>
      <trkpt lat="46.51702" lon="0.37742">
        <ele>117.6</ele>
        <time>2021-05-13T14:42:53Z</time>
      </trkpt>
      <trkpt lat="46.51706" lon="0.37731">
        <ele>117.6</ele>
        <time>2021-05-13T14:42:55Z</time>
      </trkpt>
      <trkpt lat="46.5171" lon="0.37716">
        <ele>117.4</ele>
        <time>2021-05-13T14:42:57Z</time>
      </trkpt>
      <trkpt lat="46.51714" lon="0.37701">
        <ele>117.4</ele>
        <time>2021-05-13T14:42:59Z</time>
      </trkpt>
      <trkpt lat="46.51716" lon="0.37695">
        <ele>117.2</ele>
        <time>2021-05-13T14:43:00Z</time>
      </trkpt>
      <trkpt lat="46.5172" lon="0.37677">
        <ele>116.6</ele>
        <time>2021-05-13T14:43:03Z</time>
      </trkpt>
      <trkpt lat="46.51721" lon="0.37672">
        <ele>116.4</ele>
        <time>2021-05-13T14:43:04Z</time>
      </trkpt>
      <trkpt lat="46.51723" lon="0.37665">
        <ele>116</ele>
        <time>2021-05-13T14:43:05Z</time>
      </trkpt>
      <trkpt lat="46.51732" lon="0.37642">
        <ele>115.2</ele>
        <time>2021-05-13T14:43:08Z</time>
      </trkpt>
      <trkpt lat="46.51736" lon="0.37634">
        <ele>115</ele>
        <time>2021-05-13T14:43:09Z</time>
      </trkpt>
      <trkpt lat="46.51748" lon="0.37608">
        <ele>113.8</ele>
        <time>2021-05-13T14:43:12Z</time>
      </trkpt>
      <trkpt lat="46.51751" lon="0.376">
        <ele>113</ele>
        <time>2021-05-13T14:43:13Z</time>
      </trkpt>
      <trkpt lat="46.51754" lon="0.37592">
        <ele>112.2</ele>
        <time>2021-05-13T14:43:14Z</time>
      </trkpt>
      <trkpt lat="46.51756" lon="0.37586">
        <ele>110.6</ele>
        <time>2021-05-13T14:43:15Z</time>
      </trkpt>
      <trkpt lat="46.51758" lon="0.3758">
        <ele>109.2</ele>
        <time>2021-05-13T14:43:16Z</time>
      </trkpt>
      <trkpt lat="46.5176" lon="0.37573">
        <ele>107.8</ele>
        <time>2021-05-13T14:43:17Z</time>
      </trkpt>
      <trkpt lat="46.51762" lon="0.37561">
        <ele>106</ele>
        <time>2021-05-13T14:43:19Z</time>
      </trkpt>
      <trkpt lat="46.51763" lon="0.37556">
        <ele>104.4</ele>
        <time>2021-05-13T14:43:20Z</time>
      </trkpt>
      <trkpt lat="46.51762" lon="0.3755">
        <ele>103.2</ele>
        <time>2021-05-13T14:43:21Z</time>
      </trkpt>
      <trkpt lat="46.51759" lon="0.37539">
        <ele>101.8</ele>
        <time>2021-05-13T14:43:23Z</time>
      </trkpt>
      <trkpt lat="46.51757" lon="0.37534">
        <ele>101</ele>
        <time>2021-05-13T14:43:24Z</time>
      </trkpt>
      <trkpt lat="46.51756" lon="0.37528">
        <ele>100.2</ele>
        <time>2021-05-13T14:43:25Z</time>
      </trkpt>
      <trkpt lat="46.5175" lon="0.3752">
        <ele>98.8</ele>
        <time>2021-05-13T14:43:27Z</time>
      </trkpt>
      <trkpt lat="46.51747" lon="0.37517">
        <ele>98.4</ele>
        <time>2021-05-13T14:43:28Z</time>
      </trkpt>
      <trkpt lat="46.51736" lon="0.37506">
        <ele>97.8</ele>
        <time>2021-05-13T14:43:31Z</time>
      </trkpt>
      <trkpt lat="46.51727" lon="0.37496">
        <ele>97.2</ele>
        <time>2021-05-13T14:43:34Z</time>
      </trkpt>
      <trkpt lat="46.51709" lon="0.37476">
        <ele>97.6</ele>
        <time>2021-05-13T14:43:41Z</time>
      </trkpt>
      <trkpt lat="46.51693" lon="0.37458">
        <ele>97.8</ele>
        <time>2021-05-13T14:43:47Z</time>
      </trkpt>
      <trkpt lat="46.5168" lon="0.37448">
        <ele>98.2</ele>
        <time>2021-05-13T14:43:52Z</time>
      </trkpt>
      <trkpt lat="46.51661" lon="0.37437">
        <ele>97.4</ele>
        <time>2021-05-13T14:43:58Z</time>
      </trkpt>
      <trkpt lat="46.5164" lon="0.37417">
        <ele>97.2</ele>
        <time>2021-05-13T14:44:05Z</time>
      </trkpt>
      <trkpt lat="46.51629" lon="0.37405">
        <ele>97.2</ele>
        <time>2021-05-13T14:44:10Z</time>
      </trkpt>
      <trkpt lat="46.51616" lon="0.3739">
        <ele>96.6</ele>
        <time>2021-05-13T14:44:15Z</time>
      </trkpt>
      <trkpt lat="46.51613" lon="0.37386">
        <ele>96.6</ele>
        <time>2021-05-13T14:44:16Z</time>
      </trkpt>
      <trkpt lat="46.51596" lon="0.37363">
        <ele>96.6</ele>
        <time>2021-05-13T14:44:23Z</time>
      </trkpt>
      <trkpt lat="46.51583" lon="0.37341">
        <ele>96.8</ele>
        <time>2021-05-13T14:44:28Z</time>
      </trkpt>
      <trkpt lat="46.51578" lon="0.3733">
        <ele>96.8</ele>
        <time>2021-05-13T14:44:32Z</time>
      </trkpt>
      <trkpt lat="46.51567" lon="0.37328">
        <ele>97.8</ele>
        <time>2021-05-13T14:44:38Z</time>
      </trkpt>
      <trkpt lat="46.51566" lon="0.37328">
        <ele>98.2</ele>
        <time>2021-05-13T14:44:39Z</time>
      </trkpt>
      <trkpt lat="46.51561" lon="0.37329">
        <ele>98.8</ele>
        <time>2021-05-13T14:44:43Z</time>
      </trkpt>
      <trkpt lat="46.51558" lon="0.37329">
        <ele>100</ele>
        <time>2021-05-13T14:44:45Z</time>
      </trkpt>
      <trkpt lat="46.51556" lon="0.37329">
        <ele>101</ele>
        <time>2021-05-13T14:44:47Z</time>
      </trkpt>
      <trkpt lat="46.51551" lon="0.37329">
        <ele>102.2</ele>
        <time>2021-05-13T14:44:50Z</time>
      </trkpt>
      <trkpt lat="46.5155" lon="0.3733">
        <ele>102.6</ele>
        <time>2021-05-13T14:44:52Z</time>
      </trkpt>
      <trkpt lat="46.51549" lon="0.37331">
        <ele>103</ele>
        <time>2021-05-13T14:44:53Z</time>
      </trkpt>
      <trkpt lat="46.51547" lon="0.3733">
        <ele>103.2</ele>
        <time>2021-05-13T14:44:55Z</time>
      </trkpt>
      <trkpt lat="46.51542" lon="0.37333">
        <ele>104.2</ele>
        <time>2021-05-13T14:45:01Z</time>
      </trkpt>
      <trkpt lat="46.5154" lon="0.37334">
        <ele>104.8</ele>
        <time>2021-05-13T14:45:03Z</time>
      </trkpt>
      <trkpt lat="46.51536" lon="0.37338">
        <ele>105.4</ele>
        <time>2021-05-13T14:45:09Z</time>
      </trkpt>
      <trkpt lat="46.51535" lon="0.37339">
        <ele>105.6</ele>
        <time>2021-05-13T14:45:11Z</time>
      </trkpt>
      <trkpt lat="46.51533" lon="0.37339">
        <ele>106.2</ele>
        <time>2021-05-13T14:45:13Z</time>
      </trkpt>
      <trkpt lat="46.51533" lon="0.37339">
        <ele>106.6</ele>
        <time>2021-05-13T14:45:14Z</time>
      </trkpt>
      <trkpt lat="46.51533" lon="0.37339">
        <ele>106.8</ele>
        <time>2021-05-13T14:45:15Z</time>
      </trkpt>
      <trkpt lat="46.5153" lon="0.37339">
        <ele>107.6</ele>
        <time>2021-05-13T14:45:23Z</time>
      </trkpt>
      <trkpt lat="46.5153" lon="0.37339">
        <ele>107.8</ele>
        <time>2021-05-13T14:45:28Z</time>
      </trkpt>
      <trkpt lat="46.51525" lon="0.37343">
        <ele>108.6</ele>
        <time>2021-05-13T14:45:38Z</time>
      </trkpt>
      <trkpt lat="46.51525" lon="0.37342">
        <ele>108.6</ele>
        <time>2021-05-13T14:45:39Z</time>
      </trkpt>
      <trkpt lat="46.51522" lon="0.37341">
        <ele>109.4</ele>
        <time>2021-05-13T14:45:45Z</time>
      </trkpt>
      <trkpt lat="46.51521" lon="0.37342">
        <ele>109.8</ele>
        <time>2021-05-13T14:45:47Z</time>
      </trkpt>
      <trkpt lat="46.51516" lon="0.37343">
        <ele>111</ele>
        <time>2021-05-13T14:45:52Z</time>
      </trkpt>
      <trkpt lat="46.51516" lon="0.37344">
        <ele>111.6</ele>
        <time>2021-05-13T14:45:55Z</time>
      </trkpt>
      <trkpt lat="46.51513" lon="0.37345">
        <ele>112</ele>
        <time>2021-05-13T14:46:02Z</time>
      </trkpt>
      <trkpt lat="46.5151" lon="0.37346">
        <ele>113</ele>
        <time>2021-05-13T14:46:05Z</time>
      </trkpt>
      <trkpt lat="46.51509" lon="0.37346">
        <ele>113.4</ele>
        <time>2021-05-13T14:46:06Z</time>
      </trkpt>
      <trkpt lat="46.51505" lon="0.37346">
        <ele>114.4</ele>
        <time>2021-05-13T14:46:10Z</time>
      </trkpt>
      <trkpt lat="46.51501" lon="0.37348">
        <ele>115.4</ele>
        <time>2021-05-13T14:46:13Z</time>
      </trkpt>
      <trkpt lat="46.51498" lon="0.37349">
        <ele>116.6</ele>
        <time>2021-05-13T14:46:17Z</time>
      </trkpt>
      <trkpt lat="46.51496" lon="0.37348">
        <ele>116.8</ele>
        <time>2021-05-13T14:46:18Z</time>
      </trkpt>
      <trkpt lat="46.51495" lon="0.37348">
        <ele>117</ele>
        <time>2021-05-13T14:46:19Z</time>
      </trkpt>
      <trkpt lat="46.51491" lon="0.37346">
        <ele>118</ele>
        <time>2021-05-13T14:46:23Z</time>
      </trkpt>
      <trkpt lat="46.51486" lon="0.37343">
        <ele>118.8</ele>
        <time>2021-05-13T14:46:27Z</time>
      </trkpt>
      <trkpt lat="46.51484" lon="0.37342">
        <ele>119</ele>
        <time>2021-05-13T14:46:29Z</time>
      </trkpt>
      <trkpt lat="46.51479" lon="0.37342">
        <ele>120.4</ele>
        <time>2021-05-13T14:46:33Z</time>
      </trkpt>
      <trkpt lat="46.51475" lon="0.37342">
        <ele>121.4</ele>
        <time>2021-05-13T14:46:36Z</time>
      </trkpt>
      <trkpt lat="46.51472" lon="0.37342">
        <ele>122</ele>
        <time>2021-05-13T14:46:40Z</time>
      </trkpt>
      <trkpt lat="46.51471" lon="0.37343">
        <ele>122</ele>
        <time>2021-05-13T14:46:41Z</time>
      </trkpt>
      <trkpt lat="46.5147" lon="0.37344">
        <ele>122</ele>
        <time>2021-05-13T14:46:43Z</time>
      </trkpt>
      <trkpt lat="46.51469" lon="0.37347">
        <ele>122</ele>
        <time>2021-05-13T14:46:46Z</time>
      </trkpt>
      <trkpt lat="46.51469" lon="0.37348">
        <ele>122.2</ele>
        <time>2021-05-13T14:46:48Z</time>
      </trkpt>
      <trkpt lat="46.51467" lon="0.37352">
        <ele>122</ele>
        <time>2021-05-13T14:46:57Z</time>
      </trkpt>
      <trkpt lat="46.51467" lon="0.37355">
        <ele>121.8</ele>
        <time>2021-05-13T14:46:59Z</time>
      </trkpt>
      <trkpt lat="46.51462" lon="0.3737">
        <ele>122</ele>
        <time>2021-05-13T14:47:07Z</time>
      </trkpt>
      <trkpt lat="46.51461" lon="0.37376">
        <ele>122.4</ele>
        <time>2021-05-13T14:47:10Z</time>
      </trkpt>
      <trkpt lat="46.51458" lon="0.37381">
        <ele>122.8</ele>
        <time>2021-05-13T14:47:14Z</time>
      </trkpt>
      <trkpt lat="46.51454" lon="0.37389">
        <ele>123.2</ele>
        <time>2021-05-13T14:47:20Z</time>
      </trkpt>
      <trkpt lat="46.51453" lon="0.37392">
        <ele>123.4</ele>
        <time>2021-05-13T14:47:28Z</time>
      </trkpt>
      <trkpt lat="46.51452" lon="0.37395">
        <ele>123.4</ele>
        <time>2021-05-13T14:47:34Z</time>
      </trkpt>
      <trkpt lat="46.51447" lon="0.37407">
        <ele>124.4</ele>
        <time>2021-05-13T14:47:42Z</time>
      </trkpt>
      <trkpt lat="46.51446" lon="0.37408">
        <ele>124.4</ele>
        <time>2021-05-13T14:47:43Z</time>
      </trkpt>
      <trkpt lat="46.51444" lon="0.37418">
        <ele>125.6</ele>
        <time>2021-05-13T14:47:49Z</time>
      </trkpt>
      <trkpt lat="46.51443" lon="0.37428">
        <ele>126.4</ele>
        <time>2021-05-13T14:47:54Z</time>
      </trkpt>
      <trkpt lat="46.51441" lon="0.37434">
        <ele>126.8</ele>
        <time>2021-05-13T14:47:57Z</time>
      </trkpt>
      <trkpt lat="46.51433" lon="0.37455">
        <ele>127.2</ele>
        <time>2021-05-13T14:48:07Z</time>
      </trkpt>
      <trkpt lat="46.5143" lon="0.37465">
        <ele>127.8</ele>
        <time>2021-05-13T14:48:12Z</time>
      </trkpt>
      <trkpt lat="46.51425" lon="0.3748">
        <ele>128</ele>
        <time>2021-05-13T14:48:20Z</time>
      </trkpt>
      <trkpt lat="46.51418" lon="0.37499">
        <ele>128.8</ele>
        <time>2021-05-13T14:48:28Z</time>
      </trkpt>
      <trkpt lat="46.51417" lon="0.37506">
        <ele>128.8</ele>
        <time>2021-05-13T14:48:30Z</time>
      </trkpt>
      <trkpt lat="46.51418" lon="0.37522">
        <ele>128.6</ele>
        <time>2021-05-13T14:48:35Z</time>
      </trkpt>
      <trkpt lat="46.51424" lon="0.37542">
        <ele>128.4</ele>
        <time>2021-05-13T14:48:41Z</time>
      </trkpt>
      <trkpt lat="46.51433" lon="0.37564">
        <ele>127.6</ele>
        <time>2021-05-13T14:48:47Z</time>
      </trkpt>
      <trkpt lat="46.51442" lon="0.37584">
        <ele>127</ele>
        <time>2021-05-13T14:48:53Z</time>
      </trkpt>
      <trkpt lat="46.51455" lon="0.37613">
        <ele>126.4</ele>
        <time>2021-05-13T14:48:59Z</time>
      </trkpt>
      <trkpt lat="46.51462" lon="0.37627">
        <ele>126</ele>
        <time>2021-05-13T14:49:03Z</time>
      </trkpt>
      <trkpt lat="46.51465" lon="0.37627">
        <ele>125.8</ele>
        <time>2021-05-13T14:49:05Z</time>
      </trkpt>
      <trkpt lat="46.51469" lon="0.37627">
        <ele>125.6</ele>
        <time>2021-05-13T14:49:08Z</time>
      </trkpt>
      <trkpt lat="46.51474" lon="0.37628">
        <ele>125.4</ele>
        <time>2021-05-13T14:49:12Z</time>
      </trkpt>
      <trkpt lat="46.5148" lon="0.37626">
        <ele>125.6</ele>
        <time>2021-05-13T14:49:16Z</time>
      </trkpt>
      <trkpt lat="46.51493" lon="0.37623">
        <ele>125.4</ele>
        <time>2021-05-13T14:49:21Z</time>
      </trkpt>
      <trkpt lat="46.51503" lon="0.37623">
        <ele>125.4</ele>
        <time>2021-05-13T14:49:27Z</time>
      </trkpt>
      <trkpt lat="46.5151" lon="0.37621">
        <ele>124.8</ele>
        <time>2021-05-13T14:49:37Z</time>
      </trkpt>
      <trkpt lat="46.51512" lon="0.37619">
        <ele>124.2</ele>
        <time>2021-05-13T14:49:40Z</time>
      </trkpt>
      <trkpt lat="46.51514" lon="0.37621">
        <ele>123.8</ele>
        <time>2021-05-13T14:49:56Z</time>
      </trkpt>
      <trkpt lat="46.51515" lon="0.37617">
        <ele>124</ele>
        <time>2021-05-13T14:50:12Z</time>
      </trkpt>
      <trkpt lat="46.51515" lon="0.37616">
        <ele>124.2</ele>
        <time>2021-05-13T14:50:31Z</time>
      </trkpt>
      <trkpt lat="46.51515" lon="0.37617">
        <ele>123.8</ele>
        <time>2021-05-13T14:50:53Z</time>
      </trkpt>
      <trkpt lat="46.51515" lon="0.37617">
        <ele>123.8</ele>
        <time>2021-05-13T14:51:13Z</time>
      </trkpt>
      <trkpt lat="46.51514" lon="0.37615">
        <ele>123.8</ele>
        <time>2021-05-13T14:51:28Z</time>
      </trkpt>
      <trkpt lat="46.51515" lon="0.37617">
        <ele>124.2</ele>
        <time>2021-05-13T14:51:36Z</time>
      </trkpt>
      <trkpt lat="46.51514" lon="0.37617">
        <ele>124.2</ele>
        <time>2021-05-13T14:51:45Z</time>
      </trkpt>
      <trkpt lat="46.51517" lon="0.37616">
        <ele>124.2</ele>
        <time>2021-05-13T14:51:52Z</time>
      </trkpt>
      <trkpt lat="46.5152" lon="0.37616">
        <ele>124.2</ele>
        <time>2021-05-13T14:51:55Z</time>
      </trkpt>
      <trkpt lat="46.51521" lon="0.37616">
        <ele>124.2</ele>
        <time>2021-05-13T14:51:56Z</time>
      </trkpt>
      <trkpt lat="46.51524" lon="0.3762">
        <ele>124.2</ele>
        <time>2021-05-13T14:52:06Z</time>
      </trkpt>
      <trkpt lat="46.5153" lon="0.37618">
        <ele>124.2</ele>
        <time>2021-05-13T14:52:18Z</time>
      </trkpt>
      <trkpt lat="46.51531" lon="0.37618">
        <ele>124</ele>
        <time>2021-05-13T14:52:19Z</time>
      </trkpt>
      <trkpt lat="46.51534" lon="0.37617">
        <ele>124</ele>
        <time>2021-05-13T14:52:23Z</time>
      </trkpt>
      <trkpt lat="46.51534" lon="0.37615">
        <ele>124.2</ele>
        <time>2021-05-13T14:52:31Z</time>
      </trkpt>
      <trkpt lat="46.51537" lon="0.37606">
        <ele>124.6</ele>
        <time>2021-05-13T14:52:38Z</time>
      </trkpt>
      <trkpt lat="46.51539" lon="0.37602">
        <ele>124.4</ele>
        <time>2021-05-13T14:52:41Z</time>
      </trkpt>
      <trkpt lat="46.51539" lon="0.376">
        <ele>124.4</ele>
        <time>2021-05-13T14:52:43Z</time>
      </trkpt>
      <trkpt lat="46.51541" lon="0.37598">
        <ele>124</ele>
        <time>2021-05-13T14:52:50Z</time>
      </trkpt>
      <trkpt lat="46.51544" lon="0.37591">
        <ele>124</ele>
        <time>2021-05-13T14:52:56Z</time>
      </trkpt>
      <trkpt lat="46.51547" lon="0.37585">
        <ele>124.4</ele>
        <time>2021-05-13T14:52:59Z</time>
      </trkpt>
      <trkpt lat="46.5155" lon="0.37576">
        <ele>123.6</ele>
        <time>2021-05-13T14:53:05Z</time>
      </trkpt>
      <trkpt lat="46.51551" lon="0.37574">
        <ele>123.2</ele>
        <time>2021-05-13T14:53:08Z</time>
      </trkpt>
      <trkpt lat="46.51551" lon="0.37574">
        <ele>123.2</ele>
        <time>2021-05-13T14:53:09Z</time>
      </trkpt>
      <trkpt lat="46.51553" lon="0.37572">
        <ele>123.2</ele>
        <time>2021-05-13T14:53:23Z</time>
      </trkpt>
      <trkpt lat="46.51551" lon="0.37569">
        <ele>122.2</ele>
        <time>2021-05-13T14:53:33Z</time>
      </trkpt>
      <trkpt lat="46.51551" lon="0.37569">
        <ele>122.2</ele>
        <time>2021-05-13T14:53:42Z</time>
      </trkpt>
      <trkpt lat="46.51548" lon="0.37569">
        <ele>122.4</ele>
        <time>2021-05-13T14:53:58Z</time>
      </trkpt>
      <trkpt lat="46.51545" lon="0.37567">
        <ele>122.6</ele>
        <time>2021-05-13T14:54:17Z</time>
      </trkpt>
      <trkpt lat="46.51544" lon="0.37563">
        <ele>122.4</ele>
        <time>2021-05-13T14:54:30Z</time>
      </trkpt>
      <trkpt lat="46.51544" lon="0.37564">
        <ele>122.4</ele>
        <time>2021-05-13T14:54:44Z</time>
      </trkpt>
      <trkpt lat="46.51551" lon="0.3757">
        <ele>122.6</ele>
        <time>2021-05-13T14:55:01Z</time>
      </trkpt>
      <trkpt lat="46.51552" lon="0.3757">
        <ele>123.4</ele>
        <time>2021-05-13T14:55:04Z</time>
      </trkpt>
      <trkpt lat="46.51555" lon="0.37566">
        <ele>123.6</ele>
        <time>2021-05-13T14:55:12Z</time>
      </trkpt>
      <trkpt lat="46.51556" lon="0.37563">
        <ele>123.6</ele>
        <time>2021-05-13T14:55:14Z</time>
      </trkpt>
      <trkpt lat="46.51562" lon="0.37544">
        <ele>123.4</ele>
        <time>2021-05-13T14:55:23Z</time>
      </trkpt>
      <trkpt lat="46.51564" lon="0.37541">
        <ele>123.2</ele>
        <time>2021-05-13T14:55:25Z</time>
      </trkpt>
      <trkpt lat="46.51565" lon="0.37535">
        <ele>123</ele>
        <time>2021-05-13T14:55:28Z</time>
      </trkpt>
      <trkpt lat="46.51565" lon="0.37534">
        <ele>122.8</ele>
        <time>2021-05-13T14:55:29Z</time>
      </trkpt>
      <trkpt lat="46.51567" lon="0.37528">
        <ele>122.4</ele>
        <time>2021-05-13T14:55:34Z</time>
      </trkpt>
      <trkpt lat="46.51568" lon="0.37527">
        <ele>122.6</ele>
        <time>2021-05-13T14:55:41Z</time>
      </trkpt>
      <trkpt lat="46.51573" lon="0.37522">
        <ele>121.2</ele>
        <time>2021-05-13T14:55:54Z</time>
      </trkpt>
      <trkpt lat="46.51576" lon="0.37514">
        <ele>121.2</ele>
        <time>2021-05-13T14:56:10Z</time>
      </trkpt>
      <trkpt lat="46.51577" lon="0.37512">
        <ele>121.2</ele>
        <time>2021-05-13T14:56:24Z</time>
      </trkpt>
      <trkpt lat="46.51577" lon="0.37512">
        <ele>121.2</ele>
        <time>2021-05-13T14:56:38Z</time>
      </trkpt>
      <trkpt lat="46.51577" lon="0.37513">
        <ele>121.2</ele>
        <time>2021-05-13T14:56:55Z</time>
      </trkpt>
      <trkpt lat="46.51576" lon="0.37513">
        <ele>121.6</ele>
        <time>2021-05-13T14:57:14Z</time>
      </trkpt>
      <trkpt lat="46.51576" lon="0.37514">
        <ele>121.6</ele>
        <time>2021-05-13T14:57:34Z</time>
      </trkpt>
      <trkpt lat="46.51575" lon="0.37514">
        <ele>121.6</ele>
        <time>2021-05-13T14:57:53Z</time>
      </trkpt>
      <trkpt lat="46.51575" lon="0.37514">
        <ele>121.6</ele>
        <time>2021-05-13T14:58:11Z</time>
      </trkpt>
      <trkpt lat="46.51575" lon="0.37515">
        <ele>121.6</ele>
        <time>2021-05-13T14:58:29Z</time>
      </trkpt>
      <trkpt lat="46.51574" lon="0.37515">
        <ele>121.6</ele>
        <time>2021-05-13T14:58:49Z</time>
      </trkpt>
      <trkpt lat="46.51572" lon="0.37514">
        <ele>121.6</ele>
        <time>2021-05-13T14:59:03Z</time>
      </trkpt>
      <trkpt lat="46.51569" lon="0.37513">
        <ele>121.6</ele>
        <time>2021-05-13T14:59:18Z</time>
      </trkpt>
      <trkpt lat="46.51568" lon="0.37514">
        <ele>121.6</ele>
        <time>2021-05-13T14:59:39Z</time>
      </trkpt>
      <trkpt lat="46.51568" lon="0.37515">
        <ele>121.6</ele>
        <time>2021-05-13T14:59:57Z</time>
      </trkpt>
      <trkpt lat="46.5157" lon="0.37511">
        <ele>121.6</ele>
        <time>2021-05-13T15:00:06Z</time>
      </trkpt>
      <trkpt lat="46.51571" lon="0.37508">
        <ele>121.6</ele>
        <time>2021-05-13T15:00:08Z</time>
      </trkpt>
      <trkpt lat="46.51577" lon="0.37494">
        <ele>120.8</ele>
        <time>2021-05-13T15:00:13Z</time>
      </trkpt>
      <trkpt lat="46.5158" lon="0.37486">
        <ele>119.8</ele>
        <time>2021-05-13T15:00:16Z</time>
      </trkpt>
      <trkpt lat="46.51583" lon="0.3748">
        <ele>119.2</ele>
        <time>2021-05-13T15:00:18Z</time>
      </trkpt>
      <trkpt lat="46.51583" lon="0.37477">
        <ele>118.4</ele>
        <time>2021-05-13T15:00:19Z</time>
      </trkpt>
      <trkpt lat="46.51584" lon="0.37474">
        <ele>117</ele>
        <time>2021-05-13T15:00:21Z</time>
      </trkpt>
      <trkpt lat="46.51585" lon="0.37472">
        <ele>116.4</ele>
        <time>2021-05-13T15:00:23Z</time>
      </trkpt>
      <trkpt lat="46.51585" lon="0.37468">
        <ele>116</ele>
        <time>2021-05-13T15:00:26Z</time>
      </trkpt>
      <trkpt lat="46.51588" lon="0.37462">
        <ele>115.6</ele>
        <time>2021-05-13T15:00:30Z</time>
      </trkpt>
      <trkpt lat="46.51591" lon="0.3745">
        <ele>114.6</ele>
        <time>2021-05-13T15:00:35Z</time>
      </trkpt>
      <trkpt lat="46.51592" lon="0.37442">
        <ele>114</ele>
        <time>2021-05-13T15:00:37Z</time>
      </trkpt>
      <trkpt lat="46.51593" lon="0.37438">
        <ele>113.2</ele>
        <time>2021-05-13T15:00:38Z</time>
      </trkpt>
      <trkpt lat="46.51594" lon="0.3743">
        <ele>111.6</ele>
        <time>2021-05-13T15:00:40Z</time>
      </trkpt>
      <trkpt lat="46.51596" lon="0.37427">
        <ele>110.6</ele>
        <time>2021-05-13T15:00:41Z</time>
      </trkpt>
      <trkpt lat="46.51598" lon="0.37424">
        <ele>109.2</ele>
        <time>2021-05-13T15:00:42Z</time>
      </trkpt>
      <trkpt lat="46.516" lon="0.37418">
        <ele>107.6</ele>
        <time>2021-05-13T15:00:44Z</time>
      </trkpt>
      <trkpt lat="46.51603" lon="0.3741">
        <ele>106</ele>
        <time>2021-05-13T15:00:46Z</time>
      </trkpt>
      <trkpt lat="46.51605" lon="0.37405">
        <ele>103.6</ele>
        <time>2021-05-13T15:00:47Z</time>
      </trkpt>
      <trkpt lat="46.51606" lon="0.37401">
        <ele>101.6</ele>
        <time>2021-05-13T15:00:48Z</time>
      </trkpt>
      <trkpt lat="46.51607" lon="0.37398">
        <ele>100</ele>
        <time>2021-05-13T15:00:49Z</time>
      </trkpt>
      <trkpt lat="46.51606" lon="0.37395">
        <ele>98.8</ele>
        <time>2021-05-13T15:00:50Z</time>
      </trkpt>
      <trkpt lat="46.51604" lon="0.37393">
        <ele>98</ele>
        <time>2021-05-13T15:00:51Z</time>
      </trkpt>
      <trkpt lat="46.51603" lon="0.3739">
        <ele>97.6</ele>
        <time>2021-05-13T15:00:52Z</time>
      </trkpt>
      <trkpt lat="46.51598" lon="0.37379">
        <ele>97.2</ele>
        <time>2021-05-13T15:00:56Z</time>
      </trkpt>
      <trkpt lat="46.5159" lon="0.37364">
        <ele>97.2</ele>
        <time>2021-05-13T15:01:03Z</time>
      </trkpt>
      <trkpt lat="46.51582" lon="0.37351">
        <ele>97.4</ele>
        <time>2021-05-13T15:01:09Z</time>
      </trkpt>
      <trkpt lat="46.51573" lon="0.3733">
        <ele>97.2</ele>
        <time>2021-05-13T15:01:16Z</time>
      </trkpt>
      <trkpt lat="46.51565" lon="0.37308">
        <ele>97.2</ele>
        <time>2021-05-13T15:01:22Z</time>
      </trkpt>
      <trkpt lat="46.51559" lon="0.37288">
        <ele>97</ele>
        <time>2021-05-13T15:01:27Z</time>
      </trkpt>
      <trkpt lat="46.51553" lon="0.37265">
        <ele>97.2</ele>
        <time>2021-05-13T15:01:33Z</time>
      </trkpt>
      <trkpt lat="46.51548" lon="0.37241">
        <ele>97</ele>
        <time>2021-05-13T15:01:39Z</time>
      </trkpt>
      <trkpt lat="46.51545" lon="0.37216">
        <ele>97.4</ele>
        <time>2021-05-13T15:01:44Z</time>
      </trkpt>
      <trkpt lat="46.5154" lon="0.37185">
        <ele>98.2</ele>
        <time>2021-05-13T15:01:51Z</time>
      </trkpt>
      <trkpt lat="46.51536" lon="0.37158">
        <ele>98.6</ele>
        <time>2021-05-13T15:01:57Z</time>
      </trkpt>
      <trkpt lat="46.51536" lon="0.37155">
        <ele>98.8</ele>
        <time>2021-05-13T15:01:58Z</time>
      </trkpt>
      <trkpt lat="46.5153" lon="0.37141">
        <ele>99.6</ele>
        <time>2021-05-13T15:02:03Z</time>
      </trkpt>
      <trkpt lat="46.51529" lon="0.3714">
        <ele>100</ele>
        <time>2021-05-13T15:02:04Z</time>
      </trkpt>
      <trkpt lat="46.51526" lon="0.37132">
        <ele>100.8</ele>
        <time>2021-05-13T15:02:07Z</time>
      </trkpt>
      <trkpt lat="46.51523" lon="0.37124">
        <ele>101.4</ele>
        <time>2021-05-13T15:02:10Z</time>
      </trkpt>
      <trkpt lat="46.51521" lon="0.37115">
        <ele>102.2</ele>
        <time>2021-05-13T15:02:11Z</time>
      </trkpt>
      <trkpt lat="46.51517" lon="0.37108">
        <ele>103.2</ele>
        <time>2021-05-13T15:02:16Z</time>
      </trkpt>
      <trkpt lat="46.51515" lon="0.37103">
        <ele>103.2</ele>
        <time>2021-05-13T15:02:18Z</time>
      </trkpt>
      <trkpt lat="46.51511" lon="0.37096">
        <ele>103.2</ele>
        <time>2021-05-13T15:02:22Z</time>
      </trkpt>
      <trkpt lat="46.51511" lon="0.37095">
        <ele>103.2</ele>
        <time>2021-05-13T15:02:23Z</time>
      </trkpt>
      <trkpt lat="46.5151" lon="0.37094">
        <ele>103.2</ele>
        <time>2021-05-13T15:02:25Z</time>
      </trkpt>
      <trkpt lat="46.51505" lon="0.37088">
        <ele>103.2</ele>
        <time>2021-05-13T15:02:33Z</time>
      </trkpt>
      <trkpt lat="46.51504" lon="0.37089">
        <ele>103.4</ele>
        <time>2021-05-13T15:02:35Z</time>
      </trkpt>
      <trkpt lat="46.51503" lon="0.37092">
        <ele>104</ele>
        <time>2021-05-13T15:02:38Z</time>
      </trkpt>
      <trkpt lat="46.51499" lon="0.37092">
        <ele>104.4</ele>
        <time>2021-05-13T15:02:40Z</time>
      </trkpt>
      <trkpt lat="46.51498" lon="0.37093">
        <ele>104.8</ele>
        <time>2021-05-13T15:02:41Z</time>
      </trkpt>
      <trkpt lat="46.51496" lon="0.37093">
        <ele>105</ele>
        <time>2021-05-13T15:02:42Z</time>
      </trkpt>
      <trkpt lat="46.51492" lon="0.37093">
        <ele>105.4</ele>
        <time>2021-05-13T15:02:44Z</time>
      </trkpt>
      <trkpt lat="46.51484" lon="0.37095">
        <ele>107</ele>
        <time>2021-05-13T15:02:48Z</time>
      </trkpt>
      <trkpt lat="46.51482" lon="0.37096">
        <ele>107.4</ele>
        <time>2021-05-13T15:02:49Z</time>
      </trkpt>
      <trkpt lat="46.51474" lon="0.37098">
        <ele>108.2</ele>
        <time>2021-05-13T15:02:53Z</time>
      </trkpt>
      <trkpt lat="46.5147" lon="0.371">
        <ele>109</ele>
        <time>2021-05-13T15:02:55Z</time>
      </trkpt>
      <trkpt lat="46.51469" lon="0.37101">
        <ele>109.6</ele>
        <time>2021-05-13T15:02:56Z</time>
      </trkpt>
      <trkpt lat="46.51468" lon="0.37102">
        <ele>110</ele>
        <time>2021-05-13T15:02:57Z</time>
      </trkpt>
      <trkpt lat="46.51467" lon="0.37105">
        <ele>111</ele>
        <time>2021-05-13T15:02:59Z</time>
      </trkpt>
      <trkpt lat="46.51465" lon="0.37108">
        <ele>111.6</ele>
        <time>2021-05-13T15:03:01Z</time>
      </trkpt>
      <trkpt lat="46.51462" lon="0.37111">
        <ele>112.2</ele>
        <time>2021-05-13T15:03:04Z</time>
      </trkpt>
      <trkpt lat="46.51458" lon="0.37117">
        <ele>113.4</ele>
        <time>2021-05-13T15:03:07Z</time>
      </trkpt>
      <trkpt lat="46.51457" lon="0.37119">
        <ele>113.8</ele>
        <time>2021-05-13T15:03:08Z</time>
      </trkpt>
      <trkpt lat="46.51454" lon="0.37125">
        <ele>114.6</ele>
        <time>2021-05-13T15:03:11Z</time>
      </trkpt>
      <trkpt lat="46.51449" lon="0.3713">
        <ele>115.4</ele>
        <time>2021-05-13T15:03:14Z</time>
      </trkpt>
      <trkpt lat="46.51447" lon="0.37132">
        <ele>115.8</ele>
        <time>2021-05-13T15:03:15Z</time>
      </trkpt>
      <trkpt lat="46.51442" lon="0.3714">
        <ele>117</ele>
        <time>2021-05-13T15:03:20Z</time>
      </trkpt>
      <trkpt lat="46.51442" lon="0.37142">
        <ele>117.4</ele>
        <time>2021-05-13T15:03:21Z</time>
      </trkpt>
      <trkpt lat="46.51439" lon="0.37152">
        <ele>118.2</ele>
        <time>2021-05-13T15:03:26Z</time>
      </trkpt>
      <trkpt lat="46.51439" lon="0.37155">
        <ele>118.8</ele>
        <time>2021-05-13T15:03:28Z</time>
      </trkpt>
      <trkpt lat="46.51439" lon="0.37158">
        <ele>119.4</ele>
        <time>2021-05-13T15:03:30Z</time>
      </trkpt>
      <trkpt lat="46.51437" lon="0.37169">
        <ele>120.4</ele>
        <time>2021-05-13T15:03:35Z</time>
      </trkpt>
      <trkpt lat="46.51433" lon="0.37179">
        <ele>121.4</ele>
        <time>2021-05-13T15:03:42Z</time>
      </trkpt>
      <trkpt lat="46.5143" lon="0.37186">
        <ele>122</ele>
        <time>2021-05-13T15:03:46Z</time>
      </trkpt>
      <trkpt lat="46.51428" lon="0.37189">
        <ele>122.4</ele>
        <time>2021-05-13T15:03:48Z</time>
      </trkpt>
      <trkpt lat="46.51422" lon="0.372">
        <ele>123.6</ele>
        <time>2021-05-13T15:03:54Z</time>
      </trkpt>
      <trkpt lat="46.5142" lon="0.37204">
        <ele>124</ele>
        <time>2021-05-13T15:03:56Z</time>
      </trkpt>
      <trkpt lat="46.51418" lon="0.37213">
        <ele>124.8</ele>
        <time>2021-05-13T15:04:00Z</time>
      </trkpt>
      <trkpt lat="46.51417" lon="0.37215">
        <ele>125</ele>
        <time>2021-05-13T15:04:01Z</time>
      </trkpt>
      <trkpt lat="46.51414" lon="0.37229">
        <ele>125.8</ele>
        <time>2021-05-13T15:04:06Z</time>
      </trkpt>
      <trkpt lat="46.51413" lon="0.37235">
        <ele>126</ele>
        <time>2021-05-13T15:04:08Z</time>
      </trkpt>
      <trkpt lat="46.51412" lon="0.37248">
        <ele>126.8</ele>
        <time>2021-05-13T15:04:13Z</time>
      </trkpt>
      <trkpt lat="46.51412" lon="0.37255">
        <ele>127</ele>
        <time>2021-05-13T15:04:16Z</time>
      </trkpt>
      <trkpt lat="46.51412" lon="0.37269">
        <ele>127.2</ele>
        <time>2021-05-13T15:04:24Z</time>
      </trkpt>
      <trkpt lat="46.51419" lon="0.37271">
        <ele>127.2</ele>
        <time>2021-05-13T15:04:28Z</time>
      </trkpt>
      <trkpt lat="46.51434" lon="0.37268">
        <ele>125.6</ele>
        <time>2021-05-13T15:04:33Z</time>
      </trkpt>
      <trkpt lat="46.51442" lon="0.37267">
        <ele>124.6</ele>
        <time>2021-05-13T15:04:35Z</time>
      </trkpt>
      <trkpt lat="46.51445" lon="0.37266">
        <ele>123.6</ele>
        <time>2021-05-13T15:04:36Z</time>
      </trkpt>
      <trkpt lat="46.51447" lon="0.37264">
        <ele>123</ele>
        <time>2021-05-13T15:04:37Z</time>
      </trkpt>
      <trkpt lat="46.51449" lon="0.37262">
        <ele>122.4</ele>
        <time>2021-05-13T15:04:38Z</time>
      </trkpt>
      <trkpt lat="46.51449" lon="0.37259">
        <ele>122.2</ele>
        <time>2021-05-13T15:04:39Z</time>
      </trkpt>
      <trkpt lat="46.51452" lon="0.37255">
        <ele>121</ele>
        <time>2021-05-13T15:04:41Z</time>
      </trkpt>
      <trkpt lat="46.51457" lon="0.3725">
        <ele>120.4</ele>
        <time>2021-05-13T15:04:44Z</time>
      </trkpt>
      <trkpt lat="46.5146" lon="0.37248">
        <ele>119.8</ele>
        <time>2021-05-13T15:04:45Z</time>
      </trkpt>
      <trkpt lat="46.51466" lon="0.3724">
        <ele>118.2</ele>
        <time>2021-05-13T15:04:49Z</time>
      </trkpt>
      <trkpt lat="46.51471" lon="0.37235">
        <ele>117</ele>
        <time>2021-05-13T15:04:52Z</time>
      </trkpt>
      <trkpt lat="46.51473" lon="0.37232">
        <ele>116.6</ele>
        <time>2021-05-13T15:04:53Z</time>
      </trkpt>
      <trkpt lat="46.51475" lon="0.37229">
        <ele>115.8</ele>
        <time>2021-05-13T15:04:54Z</time>
      </trkpt>
      <trkpt lat="46.5148" lon="0.37223">
        <ele>113.8</ele>
        <time>2021-05-13T15:04:57Z</time>
      </trkpt>
      <trkpt lat="46.51483" lon="0.37217">
        <ele>112.4</ele>
        <time>2021-05-13T15:04:58Z</time>
      </trkpt>
      <trkpt lat="46.51483" lon="0.37217">
        <ele>111.4</ele>
        <time>2021-05-13T15:05:00Z</time>
      </trkpt>
      <trkpt lat="46.51486" lon="0.37214">
        <ele>109.8</ele>
        <time>2021-05-13T15:05:02Z</time>
      </trkpt>
      <trkpt lat="46.5149" lon="0.37211">
        <ele>108.6</ele>
        <time>2021-05-13T15:05:04Z</time>
      </trkpt>
      <trkpt lat="46.51497" lon="0.37206">
        <ele>106.8</ele>
        <time>2021-05-13T15:05:06Z</time>
      </trkpt>
      <trkpt lat="46.51499" lon="0.37204">
        <ele>103.8</ele>
        <time>2021-05-13T15:05:07Z</time>
      </trkpt>
      <trkpt lat="46.51502" lon="0.37202">
        <ele>102</ele>
        <time>2021-05-13T15:05:08Z</time>
      </trkpt>
      <trkpt lat="46.51505" lon="0.37202">
        <ele>100.6</ele>
        <time>2021-05-13T15:05:09Z</time>
      </trkpt>
      <trkpt lat="46.51509" lon="0.37202">
        <ele>99.8</ele>
        <time>2021-05-13T15:05:10Z</time>
      </trkpt>
      <trkpt lat="46.51513" lon="0.372">
        <ele>99.4</ele>
        <time>2021-05-13T15:05:11Z</time>
      </trkpt>
      <trkpt lat="46.51518" lon="0.37194">
        <ele>98.2</ele>
        <time>2021-05-13T15:05:14Z</time>
      </trkpt>
      <trkpt lat="46.51519" lon="0.3719">
        <ele>98</ele>
        <time>2021-05-13T15:05:16Z</time>
      </trkpt>
      <trkpt lat="46.51523" lon="0.37185">
        <ele>98.4</ele>
        <time>2021-05-13T15:05:19Z</time>
      </trkpt>
      <trkpt lat="46.51524" lon="0.37184">
        <ele>98.4</ele>
        <time>2021-05-13T15:05:20Z</time>
      </trkpt>
      <trkpt lat="46.51525" lon="0.37183">
        <ele>98.4</ele>
        <time>2021-05-13T15:05:21Z</time>
      </trkpt>
      <trkpt lat="46.51527" lon="0.37179">
        <ele>98.2</ele>
        <time>2021-05-13T15:05:23Z</time>
      </trkpt>
      <trkpt lat="46.51529" lon="0.37158">
        <ele>98.6</ele>
        <time>2021-05-13T15:05:31Z</time>
      </trkpt>
      <trkpt lat="46.51527" lon="0.37144">
        <ele>99.4</ele>
        <time>2021-05-13T15:05:38Z</time>
      </trkpt>
      <trkpt lat="46.51524" lon="0.37133">
        <ele>100.4</ele>
        <time>2021-05-13T15:05:44Z</time>
      </trkpt>
      <trkpt lat="46.51522" lon="0.37131">
        <ele>100.4</ele>
        <time>2021-05-13T15:05:45Z</time>
      </trkpt>
      <trkpt lat="46.51518" lon="0.37116">
        <ele>101.6</ele>
        <time>2021-05-13T15:05:53Z</time>
      </trkpt>
      <trkpt lat="46.51514" lon="0.37105">
        <ele>103.2</ele>
        <time>2021-05-13T15:05:58Z</time>
      </trkpt>
      <trkpt lat="46.51508" lon="0.37094">
        <ele>103.6</ele>
        <time>2021-05-13T15:06:03Z</time>
      </trkpt>
      <trkpt lat="46.51504" lon="0.37092">
        <ele>103.8</ele>
        <time>2021-05-13T15:06:07Z</time>
      </trkpt>
      <trkpt lat="46.51504" lon="0.37093">
        <ele>104.2</ele>
        <time>2021-05-13T15:06:09Z</time>
      </trkpt>
      <trkpt lat="46.51502" lon="0.37095">
        <ele>104.8</ele>
        <time>2021-05-13T15:06:12Z</time>
      </trkpt>
      <trkpt lat="46.51502" lon="0.37096">
        <ele>105.2</ele>
        <time>2021-05-13T15:06:13Z</time>
      </trkpt>
      <trkpt lat="46.51501" lon="0.37096">
        <ele>105.4</ele>
        <time>2021-05-13T15:06:14Z</time>
      </trkpt>
      <trkpt lat="46.51494" lon="0.37097">
        <ele>106.4</ele>
        <time>2021-05-13T15:06:19Z</time>
      </trkpt>
      <trkpt lat="46.51493" lon="0.37097">
        <ele>106.6</ele>
        <time>2021-05-13T15:06:20Z</time>
      </trkpt>
      <trkpt lat="46.51485" lon="0.37097">
        <ele>107.6</ele>
        <time>2021-05-13T15:06:25Z</time>
      </trkpt>
      <trkpt lat="46.5148" lon="0.37099">
        <ele>108.6</ele>
        <time>2021-05-13T15:06:28Z</time>
      </trkpt>
      <trkpt lat="46.51476" lon="0.371">
        <ele>109.4</ele>
        <time>2021-05-13T15:06:30Z</time>
      </trkpt>
      <trkpt lat="46.51473" lon="0.371">
        <ele>110</ele>
        <time>2021-05-13T15:06:32Z</time>
      </trkpt>
      <trkpt lat="46.51468" lon="0.37102">
        <ele>111.4</ele>
        <time>2021-05-13T15:06:36Z</time>
      </trkpt>
      <trkpt lat="46.51466" lon="0.37105">
        <ele>112</ele>
        <time>2021-05-13T15:06:38Z</time>
      </trkpt>
      <trkpt lat="46.51463" lon="0.37107">
        <ele>112.6</ele>
        <time>2021-05-13T15:06:40Z</time>
      </trkpt>
      <trkpt lat="46.51458" lon="0.37111">
        <ele>113.2</ele>
        <time>2021-05-13T15:06:44Z</time>
      </trkpt>
      <trkpt lat="46.51456" lon="0.37114">
        <ele>113.8</ele>
        <time>2021-05-13T15:06:46Z</time>
      </trkpt>
      <trkpt lat="46.51456" lon="0.37115">
        <ele>114</ele>
        <time>2021-05-13T15:06:47Z</time>
      </trkpt>
      <trkpt lat="46.51454" lon="0.3712">
        <ele>114.8</ele>
        <time>2021-05-13T15:06:50Z</time>
      </trkpt>
      <trkpt lat="46.51453" lon="0.37121">
        <ele>114.8</ele>
        <time>2021-05-13T15:06:51Z</time>
      </trkpt>
      <trkpt lat="46.51451" lon="0.37123">
        <ele>115.4</ele>
        <time>2021-05-13T15:06:53Z</time>
      </trkpt>
      <trkpt lat="46.51447" lon="0.37128">
        <ele>116</ele>
        <time>2021-05-13T15:06:56Z</time>
      </trkpt>
      <trkpt lat="46.51446" lon="0.3713">
        <ele>116.4</ele>
        <time>2021-05-13T15:06:57Z</time>
      </trkpt>
      <trkpt lat="46.51442" lon="0.37135">
        <ele>117</ele>
        <time>2021-05-13T15:07:00Z</time>
      </trkpt>
      <trkpt lat="46.51441" lon="0.37137">
        <ele>117.6</ele>
        <time>2021-05-13T15:07:01Z</time>
      </trkpt>
      <trkpt lat="46.51441" lon="0.37138">
        <ele>117.8</ele>
        <time>2021-05-13T15:07:02Z</time>
      </trkpt>
      <trkpt lat="46.5144" lon="0.37142">
        <ele>118.2</ele>
        <time>2021-05-13T15:07:04Z</time>
      </trkpt>
      <trkpt lat="46.51439" lon="0.37153">
        <ele>118</ele>
        <time>2021-05-13T15:07:10Z</time>
      </trkpt>
      <trkpt lat="46.51438" lon="0.37158">
        <ele>118.6</ele>
        <time>2021-05-13T15:07:14Z</time>
      </trkpt>
      <trkpt lat="46.51436" lon="0.37164">
        <ele>119</ele>
        <time>2021-05-13T15:07:17Z</time>
      </trkpt>
      <trkpt lat="46.51433" lon="0.3717">
        <ele>119.6</ele>
        <time>2021-05-13T15:07:20Z</time>
      </trkpt>
      <trkpt lat="46.51432" lon="0.37178">
        <ele>120.6</ele>
        <time>2021-05-13T15:07:24Z</time>
      </trkpt>
      <trkpt lat="46.51439" lon="0.37177">
        <ele>120.2</ele>
        <time>2021-05-13T15:07:28Z</time>
      </trkpt>
      <trkpt lat="46.51442" lon="0.37176">
        <ele>120</ele>
        <time>2021-05-13T15:07:29Z</time>
      </trkpt>
      <trkpt lat="46.51453" lon="0.37173">
        <ele>118.6</ele>
        <time>2021-05-13T15:07:32Z</time>
      </trkpt>
      <trkpt lat="46.51456" lon="0.37172">
        <ele>118.2</ele>
        <time>2021-05-13T15:07:33Z</time>
      </trkpt>
      <trkpt lat="46.51459" lon="0.37171">
        <ele>117.6</ele>
        <time>2021-05-13T15:07:34Z</time>
      </trkpt>
      <trkpt lat="46.51467" lon="0.37166">
        <ele>116.4</ele>
        <time>2021-05-13T15:07:36Z</time>
      </trkpt>
      <trkpt lat="46.51473" lon="0.37161">
        <ele>113.6</ele>
        <time>2021-05-13T15:07:38Z</time>
      </trkpt>
      <trkpt lat="46.51473" lon="0.37161">
        <ele>112.6</ele>
        <time>2021-05-13T15:07:39Z</time>
      </trkpt>
      <trkpt lat="46.51478" lon="0.37156">
        <ele>111.8</ele>
        <time>2021-05-13T15:07:40Z</time>
      </trkpt>
      <trkpt lat="46.51482" lon="0.37152">
        <ele>111</ele>
        <time>2021-05-13T15:07:41Z</time>
      </trkpt>
      <trkpt lat="46.51487" lon="0.37146">
        <ele>109</ele>
        <time>2021-05-13T15:07:43Z</time>
      </trkpt>
      <trkpt lat="46.51489" lon="0.37144">
        <ele>108.4</ele>
        <time>2021-05-13T15:07:44Z</time>
      </trkpt>
      <trkpt lat="46.51491" lon="0.37143">
        <ele>107.2</ele>
        <time>2021-05-13T15:07:45Z</time>
      </trkpt>
      <trkpt lat="46.51493" lon="0.37143">
        <ele>106.6</ele>
        <time>2021-05-13T15:07:46Z</time>
      </trkpt>
      <trkpt lat="46.51496" lon="0.37143">
        <ele>105.6</ele>
        <time>2021-05-13T15:07:47Z</time>
      </trkpt>
      <trkpt lat="46.51502" lon="0.37146">
        <ele>103.8</ele>
        <time>2021-05-13T15:07:49Z</time>
      </trkpt>
      <trkpt lat="46.51508" lon="0.37149">
        <ele>102.4</ele>
        <time>2021-05-13T15:07:50Z</time>
      </trkpt>
      <trkpt lat="46.51514" lon="0.37151">
        <ele>100.8</ele>
        <time>2021-05-13T15:07:51Z</time>
      </trkpt>
      <trkpt lat="46.51521" lon="0.37152">
        <ele>99.2</ele>
        <time>2021-05-13T15:07:53Z</time>
      </trkpt>
      <trkpt lat="46.51524" lon="0.37151">
        <ele>98.8</ele>
        <time>2021-05-13T15:07:54Z</time>
      </trkpt>
      <trkpt lat="46.51525" lon="0.37147">
        <ele>98</ele>
        <time>2021-05-13T15:07:56Z</time>
      </trkpt>
      <trkpt lat="46.51525" lon="0.37147">
        <ele>98</ele>
        <time>2021-05-13T15:07:57Z</time>
      </trkpt>
      <trkpt lat="46.51524" lon="0.37145">
        <ele>97.8</ele>
        <time>2021-05-13T15:07:59Z</time>
      </trkpt>
      <trkpt lat="46.51522" lon="0.37139">
        <ele>99</ele>
        <time>2021-05-13T15:08:04Z</time>
      </trkpt>
      <trkpt lat="46.51521" lon="0.37138">
        <ele>99.4</ele>
        <time>2021-05-13T15:08:05Z</time>
      </trkpt>
      <trkpt lat="46.51518" lon="0.37126">
        <ele>100.2</ele>
        <time>2021-05-13T15:08:12Z</time>
      </trkpt>
      <trkpt lat="46.51518" lon="0.37125">
        <ele>100.4</ele>
        <time>2021-05-13T15:08:13Z</time>
      </trkpt>
      <trkpt lat="46.51516" lon="0.37115">
        <ele>101.2</ele>
        <time>2021-05-13T15:08:19Z</time>
      </trkpt>
      <trkpt lat="46.51516" lon="0.37114">
        <ele>101.6</ele>
        <time>2021-05-13T15:08:20Z</time>
      </trkpt>
      <trkpt lat="46.5151" lon="0.37096">
        <ele>102.4</ele>
        <time>2021-05-13T15:08:29Z</time>
      </trkpt>
      <trkpt lat="46.51508" lon="0.37091">
        <ele>102.4</ele>
        <time>2021-05-13T15:08:35Z</time>
      </trkpt>
      <trkpt lat="46.51507" lon="0.37089">
        <ele>102.6</ele>
        <time>2021-05-13T15:08:37Z</time>
      </trkpt>
      <trkpt lat="46.51507" lon="0.37087">
        <ele>102.6</ele>
        <time>2021-05-13T15:08:48Z</time>
      </trkpt>
      <trkpt lat="46.51506" lon="0.37085">
        <ele>102.6</ele>
        <time>2021-05-13T15:08:59Z</time>
      </trkpt>
      <trkpt lat="46.51506" lon="0.37085">
        <ele>102.6</ele>
        <time>2021-05-13T15:09:00Z</time>
      </trkpt>
      <trkpt lat="46.51506" lon="0.37085">
        <ele>102.6</ele>
        <time>2021-05-13T15:09:01Z</time>
      </trkpt>
      <trkpt lat="46.51505" lon="0.3709">
        <ele>103</ele>
        <time>2021-05-13T15:09:06Z</time>
      </trkpt>
      <trkpt lat="46.51504" lon="0.37091">
        <ele>103.4</ele>
        <time>2021-05-13T15:09:07Z</time>
      </trkpt>
      <trkpt lat="46.51503" lon="0.37092">
        <ele>103.8</ele>
        <time>2021-05-13T15:09:08Z</time>
      </trkpt>
      <trkpt lat="46.51502" lon="0.37093">
        <ele>104.2</ele>
        <time>2021-05-13T15:09:09Z</time>
      </trkpt>
      <trkpt lat="46.51497" lon="0.37095">
        <ele>105.2</ele>
        <time>2021-05-13T15:09:12Z</time>
      </trkpt>
      <trkpt lat="46.51488" lon="0.37097">
        <ele>106.6</ele>
        <time>2021-05-13T15:09:15Z</time>
      </trkpt>
      <trkpt lat="46.51483" lon="0.37098">
        <ele>108</ele>
        <time>2021-05-13T15:09:17Z</time>
      </trkpt>
      <trkpt lat="46.51475" lon="0.371">
        <ele>109.2</ele>
        <time>2021-05-13T15:09:21Z</time>
      </trkpt>
      <trkpt lat="46.51471" lon="0.37104">
        <ele>110.4</ele>
        <time>2021-05-13T15:09:24Z</time>
      </trkpt>
      <trkpt lat="46.51467" lon="0.37108">
        <ele>111</ele>
        <time>2021-05-13T15:09:27Z</time>
      </trkpt>
      <trkpt lat="46.51466" lon="0.37108">
        <ele>111.8</ele>
        <time>2021-05-13T15:09:28Z</time>
      </trkpt>
      <trkpt lat="46.51462" lon="0.37114">
        <ele>113.2</ele>
        <time>2021-05-13T15:09:31Z</time>
      </trkpt>
      <trkpt lat="46.51458" lon="0.3712">
        <ele>114</ele>
        <time>2021-05-13T15:09:34Z</time>
      </trkpt>
      <trkpt lat="46.51457" lon="0.37121">
        <ele>114.2</ele>
        <time>2021-05-13T15:09:35Z</time>
      </trkpt>
      <trkpt lat="46.51452" lon="0.37128">
        <ele>115.2</ele>
        <time>2021-05-13T15:09:38Z</time>
      </trkpt>
      <trkpt lat="46.51449" lon="0.37132">
        <ele>115.6</ele>
        <time>2021-05-13T15:09:40Z</time>
      </trkpt>
      <trkpt lat="46.51447" lon="0.37135">
        <ele>116.4</ele>
        <time>2021-05-13T15:09:42Z</time>
      </trkpt>
      <trkpt lat="46.51444" lon="0.37144">
        <ele>117.6</ele>
        <time>2021-05-13T15:09:47Z</time>
      </trkpt>
      <trkpt lat="46.51443" lon="0.37148">
        <ele>118</ele>
        <time>2021-05-13T15:09:49Z</time>
      </trkpt>
      <trkpt lat="46.51441" lon="0.37155">
        <ele>118.6</ele>
        <time>2021-05-13T15:09:52Z</time>
      </trkpt>
      <trkpt lat="46.51439" lon="0.37162">
        <ele>119.4</ele>
        <time>2021-05-13T15:09:56Z</time>
      </trkpt>
      <trkpt lat="46.51437" lon="0.37168">
        <ele>119.8</ele>
        <time>2021-05-13T15:09:58Z</time>
      </trkpt>
      <trkpt lat="46.51434" lon="0.37178">
        <ele>120.8</ele>
        <time>2021-05-13T15:10:03Z</time>
      </trkpt>
      <trkpt lat="46.51433" lon="0.37179">
        <ele>121</ele>
        <time>2021-05-13T15:10:04Z</time>
      </trkpt>
      <trkpt lat="46.51434" lon="0.37184">
        <ele>121.2</ele>
        <time>2021-05-13T15:10:09Z</time>
      </trkpt>
      <trkpt lat="46.51435" lon="0.37185">
        <ele>121.2</ele>
        <time>2021-05-13T15:10:10Z</time>
      </trkpt>
      <trkpt lat="46.51444" lon="0.37184">
        <ele>119.6</ele>
        <time>2021-05-13T15:10:17Z</time>
      </trkpt>
      <trkpt lat="46.51447" lon="0.37184">
        <ele>119.2</ele>
        <time>2021-05-13T15:10:18Z</time>
      </trkpt>
      <trkpt lat="46.5145" lon="0.37183">
        <ele>118.6</ele>
        <time>2021-05-13T15:10:19Z</time>
      </trkpt>
      <trkpt lat="46.51454" lon="0.37181">
        <ele>118.2</ele>
        <time>2021-05-13T15:10:20Z</time>
      </trkpt>
      <trkpt lat="46.51457" lon="0.3718">
        <ele>117.4</ele>
        <time>2021-05-13T15:10:21Z</time>
      </trkpt>
      <trkpt lat="46.51464" lon="0.37176">
        <ele>116.4</ele>
        <time>2021-05-13T15:10:22Z</time>
      </trkpt>
      <trkpt lat="46.51471" lon="0.37171">
        <ele>115.2</ele>
        <time>2021-05-13T15:10:25Z</time>
      </trkpt>
      <trkpt lat="46.51474" lon="0.37168">
        <ele>113.8</ele>
        <time>2021-05-13T15:10:26Z</time>
      </trkpt>
      <trkpt lat="46.51478" lon="0.37165">
        <ele>113</ele>
        <time>2021-05-13T15:10:27Z</time>
      </trkpt>
      <trkpt lat="46.51482" lon="0.37161">
        <ele>112</ele>
        <time>2021-05-13T15:10:28Z</time>
      </trkpt>
      <trkpt lat="46.51489" lon="0.37154">
        <ele>110.4</ele>
        <time>2021-05-13T15:10:30Z</time>
      </trkpt>
      <trkpt lat="46.51491" lon="0.3715">
        <ele>109.8</ele>
        <time>2021-05-13T15:10:31Z</time>
      </trkpt>
      <trkpt lat="46.51492" lon="0.37147">
        <ele>108.8</ele>
        <time>2021-05-13T15:10:32Z</time>
      </trkpt>
      <trkpt lat="46.51495" lon="0.37144">
        <ele>107.2</ele>
        <time>2021-05-13T15:10:34Z</time>
      </trkpt>
      <trkpt lat="46.51497" lon="0.37144">
        <ele>106</ele>
        <time>2021-05-13T15:10:36Z</time>
      </trkpt>
      <trkpt lat="46.51504" lon="0.37144">
        <ele>104.6</ele>
        <time>2021-05-13T15:10:39Z</time>
      </trkpt>
      <trkpt lat="46.51505" lon="0.37143">
        <ele>103.2</ele>
        <time>2021-05-13T15:10:40Z</time>
      </trkpt>
      <trkpt lat="46.51507" lon="0.37142">
        <ele>102.2</ele>
        <time>2021-05-13T15:10:41Z</time>
      </trkpt>
      <trkpt lat="46.5151" lon="0.37142">
        <ele>101.4</ele>
        <time>2021-05-13T15:10:42Z</time>
      </trkpt>
      <trkpt lat="46.51513" lon="0.37148">
        <ele>100</ele>
        <time>2021-05-13T15:10:43Z</time>
      </trkpt>
      <trkpt lat="46.51519" lon="0.37155">
        <ele>98.8</ele>
        <time>2021-05-13T15:10:46Z</time>
      </trkpt>
      <trkpt lat="46.51523" lon="0.37159">
        <ele>98</ele>
        <time>2021-05-13T15:10:49Z</time>
      </trkpt>
      <trkpt lat="46.51524" lon="0.3716">
        <ele>98</ele>
        <time>2021-05-13T15:10:50Z</time>
      </trkpt>
      <trkpt lat="46.51526" lon="0.3716">
        <ele>98</ele>
        <time>2021-05-13T15:10:51Z</time>
      </trkpt>
      <trkpt lat="46.51526" lon="0.37158">
        <ele>98</ele>
        <time>2021-05-13T15:10:54Z</time>
      </trkpt>
      <trkpt lat="46.51527" lon="0.37157">
        <ele>97.8</ele>
        <time>2021-05-13T15:10:56Z</time>
      </trkpt>
      <trkpt lat="46.51527" lon="0.37154">
        <ele>97.6</ele>
        <time>2021-05-13T15:11:02Z</time>
      </trkpt>
      <trkpt lat="46.51527" lon="0.37154">
        <ele>97.6</ele>
        <time>2021-05-13T15:11:03Z</time>
      </trkpt>
      <trkpt lat="46.51527" lon="0.37154">
        <ele>97.6</ele>
        <time>2021-05-13T15:11:20Z</time>
      </trkpt>
      <trkpt lat="46.51527" lon="0.37148">
        <ele>97.8</ele>
        <time>2021-05-13T15:11:33Z</time>
      </trkpt>
      <trkpt lat="46.51527" lon="0.37145">
        <ele>98</ele>
        <time>2021-05-13T15:11:35Z</time>
      </trkpt>
      <trkpt lat="46.51523" lon="0.37134">
        <ele>98.8</ele>
        <time>2021-05-13T15:11:42Z</time>
      </trkpt>
      <trkpt lat="46.51523" lon="0.37133">
        <ele>99.2</ele>
        <time>2021-05-13T15:11:43Z</time>
      </trkpt>
      <trkpt lat="46.5152" lon="0.37125">
        <ele>100</ele>
        <time>2021-05-13T15:11:49Z</time>
      </trkpt>
      <trkpt lat="46.51516" lon="0.37113">
        <ele>101</ele>
        <time>2021-05-13T15:11:56Z</time>
      </trkpt>
      <trkpt lat="46.51514" lon="0.37104">
        <ele>103.2</ele>
        <time>2021-05-13T15:12:02Z</time>
      </trkpt>
      <trkpt lat="46.51509" lon="0.37091">
        <ele>103.4</ele>
        <time>2021-05-13T15:12:10Z</time>
      </trkpt>
      <trkpt lat="46.51503" lon="0.37088">
        <ele>102.8</ele>
        <time>2021-05-13T15:12:17Z</time>
      </trkpt>
      <trkpt lat="46.51502" lon="0.3709">
        <ele>103.4</ele>
        <time>2021-05-13T15:12:19Z</time>
      </trkpt>
      <trkpt lat="46.515" lon="0.37091">
        <ele>103.8</ele>
        <time>2021-05-13T15:12:21Z</time>
      </trkpt>
      <trkpt lat="46.51498" lon="0.37092">
        <ele>104.4</ele>
        <time>2021-05-13T15:12:23Z</time>
      </trkpt>
      <trkpt lat="46.51495" lon="0.37093">
        <ele>104.8</ele>
        <time>2021-05-13T15:12:25Z</time>
      </trkpt>
      <trkpt lat="46.51492" lon="0.37093">
        <ele>105.4</ele>
        <time>2021-05-13T15:12:28Z</time>
      </trkpt>
      <trkpt lat="46.51485" lon="0.37094">
        <ele>106.4</ele>
        <time>2021-05-13T15:12:32Z</time>
      </trkpt>
      <trkpt lat="46.51481" lon="0.37096">
        <ele>107.4</ele>
        <time>2021-05-13T15:12:35Z</time>
      </trkpt>
      <trkpt lat="46.51475" lon="0.37097">
        <ele>108.6</ele>
        <time>2021-05-13T15:12:39Z</time>
      </trkpt>
      <trkpt lat="46.51469" lon="0.37101">
        <ele>109.8</ele>
        <time>2021-05-13T15:12:44Z</time>
      </trkpt>
      <trkpt lat="46.51468" lon="0.37102">
        <ele>111.4</ele>
        <time>2021-05-13T15:12:45Z</time>
      </trkpt>
      <trkpt lat="46.51464" lon="0.37107">
        <ele>111.4</ele>
        <time>2021-05-13T15:12:49Z</time>
      </trkpt>
      <trkpt lat="46.51458" lon="0.37113">
        <ele>112.6</ele>
        <time>2021-05-13T15:12:55Z</time>
      </trkpt>
      <trkpt lat="46.51453" lon="0.37118">
        <ele>113.2</ele>
        <time>2021-05-13T15:13:00Z</time>
      </trkpt>
      <trkpt lat="46.51451" lon="0.37118">
        <ele>114</ele>
        <time>2021-05-13T15:13:02Z</time>
      </trkpt>
      <trkpt lat="46.51445" lon="0.37119">
        <ele>115</ele>
        <time>2021-05-13T15:13:07Z</time>
      </trkpt>
      <trkpt lat="46.51443" lon="0.37119">
        <ele>115</ele>
        <time>2021-05-13T15:13:08Z</time>
      </trkpt>
      <trkpt lat="46.5144" lon="0.37119">
        <ele>115.6</ele>
        <time>2021-05-13T15:13:10Z</time>
      </trkpt>
      <trkpt lat="46.51436" lon="0.37119">
        <ele>116</ele>
        <time>2021-05-13T15:13:13Z</time>
      </trkpt>
      <trkpt lat="46.51425" lon="0.37116">
        <ele>116</ele>
        <time>2021-05-13T15:13:22Z</time>
      </trkpt>
      <trkpt lat="46.51423" lon="0.37113">
        <ele>115.8</ele>
        <time>2021-05-13T15:13:24Z</time>
      </trkpt>
      <trkpt lat="46.51415" lon="0.37105">
        <ele>115</ele>
        <time>2021-05-13T15:13:29Z</time>
      </trkpt>
      <trkpt lat="46.51413" lon="0.37103">
        <ele>114.8</ele>
        <time>2021-05-13T15:13:30Z</time>
      </trkpt>
      <trkpt lat="46.51408" lon="0.37093">
        <ele>114</ele>
        <time>2021-05-13T15:13:34Z</time>
      </trkpt>
      <trkpt lat="46.51408" lon="0.3709">
        <ele>113.4</ele>
        <time>2021-05-13T15:13:35Z</time>
      </trkpt>
      <trkpt lat="46.5141" lon="0.37083">
        <ele>112.8</ele>
        <time>2021-05-13T15:13:37Z</time>
      </trkpt>
      <trkpt lat="46.51413" lon="0.37075">
        <ele>112.2</ele>
        <time>2021-05-13T15:13:40Z</time>
      </trkpt>
      <trkpt lat="46.51417" lon="0.37069">
        <ele>111.6</ele>
        <time>2021-05-13T15:13:43Z</time>
      </trkpt>
      <trkpt lat="46.51419" lon="0.37062">
        <ele>111.2</ele>
        <time>2021-05-13T15:13:47Z</time>
      </trkpt>
      <trkpt lat="46.51419" lon="0.37058">
        <ele>111</ele>
        <time>2021-05-13T15:13:49Z</time>
      </trkpt>
      <trkpt lat="46.51416" lon="0.37052">
        <ele>111.2</ele>
        <time>2021-05-13T15:13:52Z</time>
      </trkpt>
      <trkpt lat="46.51411" lon="0.37044">
        <ele>113</ele>
        <time>2021-05-13T15:13:58Z</time>
      </trkpt>
      <trkpt lat="46.5141" lon="0.37042">
        <ele>113.6</ele>
        <time>2021-05-13T15:13:59Z</time>
      </trkpt>
      <trkpt lat="46.51409" lon="0.37041">
        <ele>113.8</ele>
        <time>2021-05-13T15:14:00Z</time>
      </trkpt>
      <trkpt lat="46.51408" lon="0.3704">
        <ele>114</ele>
        <time>2021-05-13T15:14:01Z</time>
      </trkpt>
      <trkpt lat="46.51404" lon="0.37039">
        <ele>115.2</ele>
        <time>2021-05-13T15:14:04Z</time>
      </trkpt>
      <trkpt lat="46.51399" lon="0.37035">
        <ele>116.2</ele>
        <time>2021-05-13T15:14:08Z</time>
      </trkpt>
      <trkpt lat="46.51398" lon="0.37033">
        <ele>117.2</ele>
        <time>2021-05-13T15:14:10Z</time>
      </trkpt>
      <trkpt lat="46.51395" lon="0.37027">
        <ele>118.4</ele>
        <time>2021-05-13T15:14:15Z</time>
      </trkpt>
      <trkpt lat="46.5139" lon="0.37024">
        <ele>119.4</ele>
        <time>2021-05-13T15:14:19Z</time>
      </trkpt>
      <trkpt lat="46.51383" lon="0.3702">
        <ele>120.4</ele>
        <time>2021-05-13T15:14:24Z</time>
      </trkpt>
      <trkpt lat="46.51374" lon="0.37017">
        <ele>121.4</ele>
        <time>2021-05-13T15:14:31Z</time>
      </trkpt>
      <trkpt lat="46.51372" lon="0.37017">
        <ele>121.6</ele>
        <time>2021-05-13T15:14:32Z</time>
      </trkpt>
      <trkpt lat="46.51363" lon="0.3701">
        <ele>123</ele>
        <time>2021-05-13T15:14:40Z</time>
      </trkpt>
      <trkpt lat="46.5136" lon="0.37007">
        <ele>123.2</ele>
        <time>2021-05-13T15:14:42Z</time>
      </trkpt>
      <trkpt lat="46.5136" lon="0.37006">
        <ele>123.6</ele>
        <time>2021-05-13T15:14:43Z</time>
      </trkpt>
      <trkpt lat="46.51357" lon="0.37003">
        <ele>124</ele>
        <time>2021-05-13T15:14:46Z</time>
      </trkpt>
      <trkpt lat="46.51352" lon="0.36997">
        <ele>125</ele>
        <time>2021-05-13T15:14:51Z</time>
      </trkpt>
      <trkpt lat="46.51351" lon="0.36996">
        <ele>125.2</ele>
        <time>2021-05-13T15:14:52Z</time>
      </trkpt>
      <trkpt lat="46.51342" lon="0.36989">
        <ele>126.4</ele>
        <time>2021-05-13T15:14:59Z</time>
      </trkpt>
      <trkpt lat="46.51339" lon="0.36988">
        <ele>126.8</ele>
        <time>2021-05-13T15:15:01Z</time>
      </trkpt>
      <trkpt lat="46.51333" lon="0.36987">
        <ele>127.6</ele>
        <time>2021-05-13T15:15:04Z</time>
      </trkpt>
      <trkpt lat="46.51325" lon="0.36981">
        <ele>128.4</ele>
        <time>2021-05-13T15:15:09Z</time>
      </trkpt>
      <trkpt lat="46.51323" lon="0.3698">
        <ele>128.6</ele>
        <time>2021-05-13T15:15:10Z</time>
      </trkpt>
      <trkpt lat="46.51321" lon="0.36978">
        <ele>128.8</ele>
        <time>2021-05-13T15:15:11Z</time>
      </trkpt>
      <trkpt lat="46.51315" lon="0.36971">
        <ele>129.4</ele>
        <time>2021-05-13T15:15:15Z</time>
      </trkpt>
      <trkpt lat="46.51309" lon="0.36966">
        <ele>129.8</ele>
        <time>2021-05-13T15:15:18Z</time>
      </trkpt>
      <trkpt lat="46.51306" lon="0.36966">
        <ele>130</ele>
        <time>2021-05-13T15:15:19Z</time>
      </trkpt>
      <trkpt lat="46.51304" lon="0.36967">
        <ele>130.2</ele>
        <time>2021-05-13T15:15:20Z</time>
      </trkpt>
      <trkpt lat="46.51302" lon="0.36968">
        <ele>130.4</ele>
        <time>2021-05-13T15:15:21Z</time>
      </trkpt>
      <trkpt lat="46.51294" lon="0.36969">
        <ele>130.8</ele>
        <time>2021-05-13T15:15:25Z</time>
      </trkpt>
      <trkpt lat="46.5129" lon="0.36968">
        <ele>131.2</ele>
        <time>2021-05-13T15:15:27Z</time>
      </trkpt>
      <trkpt lat="46.51277" lon="0.36968">
        <ele>131.6</ele>
        <time>2021-05-13T15:15:33Z</time>
      </trkpt>
      <trkpt lat="46.51266" lon="0.36975">
        <ele>131.6</ele>
        <time>2021-05-13T15:15:39Z</time>
      </trkpt>
      <trkpt lat="46.51258" lon="0.3698">
        <ele>132</ele>
        <time>2021-05-13T15:15:43Z</time>
      </trkpt>
      <trkpt lat="46.51256" lon="0.36982">
        <ele>132</ele>
        <time>2021-05-13T15:15:44Z</time>
      </trkpt>
      <trkpt lat="46.51241" lon="0.36986">
        <ele>132.2</ele>
        <time>2021-05-13T15:15:49Z</time>
      </trkpt>
      <trkpt lat="46.51221" lon="0.36994">
        <ele>133</ele>
        <time>2021-05-13T15:15:55Z</time>
      </trkpt>
      <trkpt lat="46.51216" lon="0.36997">
        <ele>133.2</ele>
        <time>2021-05-13T15:15:57Z</time>
      </trkpt>
      <trkpt lat="46.51213" lon="0.37003">
        <ele>133.2</ele>
        <time>2021-05-13T15:15:59Z</time>
      </trkpt>
      <trkpt lat="46.51202" lon="0.37013">
        <ele>133</ele>
        <time>2021-05-13T15:16:04Z</time>
      </trkpt>
      <trkpt lat="46.51187" lon="0.37018">
        <ele>134.4</ele>
        <time>2021-05-13T15:16:09Z</time>
      </trkpt>
      <trkpt lat="46.51184" lon="0.37018">
        <ele>134.6</ele>
        <time>2021-05-13T15:16:10Z</time>
      </trkpt>
      <trkpt lat="46.51167" lon="0.3702">
        <ele>135.4</ele>
        <time>2021-05-13T15:16:15Z</time>
      </trkpt>
      <trkpt lat="46.51148" lon="0.37021">
        <ele>135.8</ele>
        <time>2021-05-13T15:16:21Z</time>
      </trkpt>
      <trkpt lat="46.51145" lon="0.37019">
        <ele>136</ele>
        <time>2021-05-13T15:16:23Z</time>
      </trkpt>
      <trkpt lat="46.51143" lon="0.37017">
        <ele>136</ele>
        <time>2021-05-13T15:16:25Z</time>
      </trkpt>
      <trkpt lat="46.51138" lon="0.37002">
        <ele>136.4</ele>
        <time>2021-05-13T15:16:31Z</time>
      </trkpt>
      <trkpt lat="46.51136" lon="0.36991">
        <ele>136.4</ele>
        <time>2021-05-13T15:16:34Z</time>
      </trkpt>
      <trkpt lat="46.51138" lon="0.36978">
        <ele>136.6</ele>
        <time>2021-05-13T15:16:37Z</time>
      </trkpt>
      <trkpt lat="46.51138" lon="0.36958">
        <ele>136.2</ele>
        <time>2021-05-13T15:16:42Z</time>
      </trkpt>
      <trkpt lat="46.51135" lon="0.36938">
        <ele>136.6</ele>
        <time>2021-05-13T15:16:46Z</time>
      </trkpt>
      <trkpt lat="46.51133" lon="0.36927">
        <ele>136.6</ele>
        <time>2021-05-13T15:16:48Z</time>
      </trkpt>
      <trkpt lat="46.51131" lon="0.36904">
        <ele>136.6</ele>
        <time>2021-05-13T15:16:53Z</time>
      </trkpt>
      <trkpt lat="46.5113" lon="0.36899">
        <ele>136.6</ele>
        <time>2021-05-13T15:16:54Z</time>
      </trkpt>
      <trkpt lat="46.51131" lon="0.36874">
        <ele>136.2</ele>
        <time>2021-05-13T15:16:58Z</time>
      </trkpt>
      <trkpt lat="46.51132" lon="0.36859">
        <ele>136</ele>
        <time>2021-05-13T15:17:00Z</time>
      </trkpt>
      <trkpt lat="46.51135" lon="0.36848">
        <ele>135.4</ele>
        <time>2021-05-13T15:17:02Z</time>
      </trkpt>
      <trkpt lat="46.51137" lon="0.36844">
        <ele>135</ele>
        <time>2021-05-13T15:17:03Z</time>
      </trkpt>
      <trkpt lat="46.51139" lon="0.36842">
        <ele>134.8</ele>
        <time>2021-05-13T15:17:04Z</time>
      </trkpt>
      <trkpt lat="46.51143" lon="0.36838">
        <ele>134.4</ele>
        <time>2021-05-13T15:17:06Z</time>
      </trkpt>
      <trkpt lat="46.51147" lon="0.36833">
        <ele>134.2</ele>
        <time>2021-05-13T15:17:08Z</time>
      </trkpt>
      <trkpt lat="46.51148" lon="0.36827">
        <ele>134.2</ele>
        <time>2021-05-13T15:17:10Z</time>
      </trkpt>
      <trkpt lat="46.51149" lon="0.36825">
        <ele>134.2</ele>
        <time>2021-05-13T15:17:11Z</time>
      </trkpt>
      <trkpt lat="46.51153" lon="0.36821">
        <ele>133.8</ele>
        <time>2021-05-13T15:17:13Z</time>
      </trkpt>
      <trkpt lat="46.51155" lon="0.3682">
        <ele>133.4</ele>
        <time>2021-05-13T15:17:14Z</time>
      </trkpt>
      <trkpt lat="46.51158" lon="0.36819">
        <ele>133.4</ele>
        <time>2021-05-13T15:17:15Z</time>
      </trkpt>
      <trkpt lat="46.51168" lon="0.36815">
        <ele>133.4</ele>
        <time>2021-05-13T15:17:19Z</time>
      </trkpt>
      <trkpt lat="46.51175" lon="0.36814">
        <ele>133.4</ele>
        <time>2021-05-13T15:17:22Z</time>
      </trkpt>
      <trkpt lat="46.5118" lon="0.36811">
        <ele>133.2</ele>
        <time>2021-05-13T15:17:24Z</time>
      </trkpt>
      <trkpt lat="46.51192" lon="0.36809">
        <ele>132.8</ele>
        <time>2021-05-13T15:17:30Z</time>
      </trkpt>
      <trkpt lat="46.51195" lon="0.3681">
        <ele>132.6</ele>
        <time>2021-05-13T15:17:31Z</time>
      </trkpt>
      <trkpt lat="46.51202" lon="0.36811">
        <ele>132.8</ele>
        <time>2021-05-13T15:17:34Z</time>
      </trkpt>
      <trkpt lat="46.51205" lon="0.3681">
        <ele>132.8</ele>
        <time>2021-05-13T15:17:35Z</time>
      </trkpt>
      <trkpt lat="46.51211" lon="0.36809">
        <ele>132.6</ele>
        <time>2021-05-13T15:17:37Z</time>
      </trkpt>
      <trkpt lat="46.5122" lon="0.36809">
        <ele>132.2</ele>
        <time>2021-05-13T15:17:40Z</time>
      </trkpt>
      <trkpt lat="46.51223" lon="0.36807">
        <ele>132</ele>
        <time>2021-05-13T15:17:41Z</time>
      </trkpt>
      <trkpt lat="46.51225" lon="0.36806">
        <ele>131.8</ele>
        <time>2021-05-13T15:17:42Z</time>
      </trkpt>
      <trkpt lat="46.51233" lon="0.36808">
        <ele>131.8</ele>
        <time>2021-05-13T15:17:45Z</time>
      </trkpt>
      <trkpt lat="46.51243" lon="0.36809">
        <ele>131.6</ele>
        <time>2021-05-13T15:17:49Z</time>
      </trkpt>
      <trkpt lat="46.51249" lon="0.36809">
        <ele>131.2</ele>
        <time>2021-05-13T15:17:51Z</time>
      </trkpt>
      <trkpt lat="46.51257" lon="0.36808">
        <ele>130.2</ele>
        <time>2021-05-13T15:17:54Z</time>
      </trkpt>
      <trkpt lat="46.5126" lon="0.36808">
        <ele>130</ele>
        <time>2021-05-13T15:17:55Z</time>
      </trkpt>
      <trkpt lat="46.51268" lon="0.36808">
        <ele>129.6</ele>
        <time>2021-05-13T15:17:57Z</time>
      </trkpt>
      <trkpt lat="46.51275" lon="0.36811">
        <ele>129.4</ele>
        <time>2021-05-13T15:17:59Z</time>
      </trkpt>
      <trkpt lat="46.51279" lon="0.36812">
        <ele>129</ele>
        <time>2021-05-13T15:18:00Z</time>
      </trkpt>
      <trkpt lat="46.51283" lon="0.36813">
        <ele>128.6</ele>
        <time>2021-05-13T15:18:01Z</time>
      </trkpt>
      <trkpt lat="46.51288" lon="0.36816">
        <ele>128.2</ele>
        <time>2021-05-13T15:18:03Z</time>
      </trkpt>
      <trkpt lat="46.51295" lon="0.36819">
        <ele>127.8</ele>
        <time>2021-05-13T15:18:05Z</time>
      </trkpt>
      <trkpt lat="46.513" lon="0.3682">
        <ele>127.2</ele>
        <time>2021-05-13T15:18:06Z</time>
      </trkpt>
      <trkpt lat="46.51308" lon="0.36822">
        <ele>126.8</ele>
        <time>2021-05-13T15:18:08Z</time>
      </trkpt>
      <trkpt lat="46.51315" lon="0.36823">
        <ele>125.8</ele>
        <time>2021-05-13T15:18:10Z</time>
      </trkpt>
      <trkpt lat="46.51319" lon="0.36825">
        <ele>125.4</ele>
        <time>2021-05-13T15:18:11Z</time>
      </trkpt>
      <trkpt lat="46.51323" lon="0.36826">
        <ele>124.6</ele>
        <time>2021-05-13T15:18:12Z</time>
      </trkpt>
      <trkpt lat="46.51327" lon="0.36829">
        <ele>124.2</ele>
        <time>2021-05-13T15:18:13Z</time>
      </trkpt>
      <trkpt lat="46.5133" lon="0.3683">
        <ele>123.8</ele>
        <time>2021-05-13T15:18:14Z</time>
      </trkpt>
      <trkpt lat="46.51334" lon="0.36832">
        <ele>123.8</ele>
        <time>2021-05-13T15:18:15Z</time>
      </trkpt>
      <trkpt lat="46.51344" lon="0.36833">
        <ele>123</ele>
        <time>2021-05-13T15:18:18Z</time>
      </trkpt>
      <trkpt lat="46.51349" lon="0.36835">
        <ele>122.4</ele>
        <time>2021-05-13T15:18:20Z</time>
      </trkpt>
      <trkpt lat="46.51356" lon="0.36837">
        <ele>122</ele>
        <time>2021-05-13T15:18:22Z</time>
      </trkpt>
      <trkpt lat="46.51364" lon="0.3684">
        <ele>120.8</ele>
        <time>2021-05-13T15:18:25Z</time>
      </trkpt>
      <trkpt lat="46.51367" lon="0.36841">
        <ele>120.2</ele>
        <time>2021-05-13T15:18:26Z</time>
      </trkpt>
      <trkpt lat="46.5137" lon="0.36843">
        <ele>119.8</ele>
        <time>2021-05-13T15:18:27Z</time>
      </trkpt>
      <trkpt lat="46.51373" lon="0.36844">
        <ele>119.4</ele>
        <time>2021-05-13T15:18:28Z</time>
      </trkpt>
      <trkpt lat="46.51379" lon="0.36845">
        <ele>118.4</ele>
        <time>2021-05-13T15:18:30Z</time>
      </trkpt>
      <trkpt lat="46.51385" lon="0.36846">
        <ele>117.2</ele>
        <time>2021-05-13T15:18:32Z</time>
      </trkpt>
      <trkpt lat="46.5139" lon="0.36848">
        <ele>116.2</ele>
        <time>2021-05-13T15:18:33Z</time>
      </trkpt>
      <trkpt lat="46.51394" lon="0.3685">
        <ele>115.6</ele>
        <time>2021-05-13T15:18:34Z</time>
      </trkpt>
      <trkpt lat="46.51398" lon="0.36852">
        <ele>115</ele>
        <time>2021-05-13T15:18:35Z</time>
      </trkpt>
      <trkpt lat="46.514" lon="0.36854">
        <ele>114</ele>
        <time>2021-05-13T15:18:36Z</time>
      </trkpt>
      <trkpt lat="46.51404" lon="0.36859">
        <ele>113</ele>
        <time>2021-05-13T15:18:38Z</time>
      </trkpt>
      <trkpt lat="46.51406" lon="0.36862">
        <ele>112.6</ele>
        <time>2021-05-13T15:18:39Z</time>
      </trkpt>
      <trkpt lat="46.51415" lon="0.36872">
        <ele>111.2</ele>
        <time>2021-05-13T15:18:42Z</time>
      </trkpt>
      <trkpt lat="46.51422" lon="0.36877">
        <ele>109.8</ele>
        <time>2021-05-13T15:18:44Z</time>
      </trkpt>
      <trkpt lat="46.51425" lon="0.36878">
        <ele>109.2</ele>
        <time>2021-05-13T15:18:45Z</time>
      </trkpt>
      <trkpt lat="46.51429" lon="0.36882">
        <ele>108.4</ele>
        <time>2021-05-13T15:18:47Z</time>
      </trkpt>
      <trkpt lat="46.51434" lon="0.36888">
        <ele>107.6</ele>
        <time>2021-05-13T15:18:49Z</time>
      </trkpt>
      <trkpt lat="46.51436" lon="0.36892">
        <ele>106.6</ele>
        <time>2021-05-13T15:18:50Z</time>
      </trkpt>
      <trkpt lat="46.51442" lon="0.369">
        <ele>105.2</ele>
        <time>2021-05-13T15:18:52Z</time>
      </trkpt>
      <trkpt lat="46.51448" lon="0.36903">
        <ele>104.2</ele>
        <time>2021-05-13T15:18:54Z</time>
      </trkpt>
      <trkpt lat="46.5145" lon="0.36904">
        <ele>103.6</ele>
        <time>2021-05-13T15:18:55Z</time>
      </trkpt>
      <trkpt lat="46.51454" lon="0.36902">
        <ele>102.8</ele>
        <time>2021-05-13T15:18:58Z</time>
      </trkpt>
      <trkpt lat="46.51461" lon="0.36909">
        <ele>103.4</ele>
        <time>2021-05-13T15:19:04Z</time>
      </trkpt>
      <trkpt lat="46.51459" lon="0.36914">
        <ele>104.6</ele>
        <time>2021-05-13T15:19:09Z</time>
      </trkpt>
      <trkpt lat="46.51459" lon="0.36916">
        <ele>104.8</ele>
        <time>2021-05-13T15:19:10Z</time>
      </trkpt>
      <trkpt lat="46.51458" lon="0.36931">
        <ele>105.4</ele>
        <time>2021-05-13T15:19:18Z</time>
      </trkpt>
      <trkpt lat="46.51457" lon="0.36939">
        <ele>106</ele>
        <time>2021-05-13T15:19:22Z</time>
      </trkpt>
      <trkpt lat="46.51457" lon="0.36944">
        <ele>106.2</ele>
        <time>2021-05-13T15:19:24Z</time>
      </trkpt>
      <trkpt lat="46.51456" lon="0.36953">
        <ele>106.6</ele>
        <time>2021-05-13T15:19:29Z</time>
      </trkpt>
      <trkpt lat="46.51455" lon="0.36958">
        <ele>107</ele>
        <time>2021-05-13T15:19:31Z</time>
      </trkpt>
      <trkpt lat="46.51454" lon="0.3697">
        <ele>107.8</ele>
        <time>2021-05-13T15:19:36Z</time>
      </trkpt>
      <trkpt lat="46.51454" lon="0.36974">
        <ele>108.2</ele>
        <time>2021-05-13T15:19:38Z</time>
      </trkpt>
      <trkpt lat="46.51453" lon="0.36988">
        <ele>109</ele>
        <time>2021-05-13T15:19:44Z</time>
      </trkpt>
      <trkpt lat="46.51447" lon="0.37002">
        <ele>109.4</ele>
        <time>2021-05-13T15:19:49Z</time>
      </trkpt>
      <trkpt lat="46.51446" lon="0.37005">
        <ele>109.6</ele>
        <time>2021-05-13T15:19:50Z</time>
      </trkpt>
      <trkpt lat="46.51442" lon="0.37018">
        <ele>109.8</ele>
        <time>2021-05-13T15:19:57Z</time>
      </trkpt>
      <trkpt lat="46.51436" lon="0.37028">
        <ele>110.4</ele>
        <time>2021-05-13T15:20:01Z</time>
      </trkpt>
      <trkpt lat="46.51433" lon="0.37032">
        <ele>110.4</ele>
        <time>2021-05-13T15:20:02Z</time>
      </trkpt>
      <trkpt lat="46.51428" lon="0.37036">
        <ele>110.8</ele>
        <time>2021-05-13T15:20:06Z</time>
      </trkpt>
      <trkpt lat="46.51424" lon="0.37034">
        <ele>111.2</ele>
        <time>2021-05-13T15:20:09Z</time>
      </trkpt>
      <trkpt lat="46.5142" lon="0.37032">
        <ele>111.6</ele>
        <time>2021-05-13T15:20:12Z</time>
      </trkpt>
      <trkpt lat="46.51416" lon="0.3703">
        <ele>113</ele>
        <time>2021-05-13T15:20:15Z</time>
      </trkpt>
      <trkpt lat="46.51414" lon="0.37028">
        <ele>113.4</ele>
        <time>2021-05-13T15:20:16Z</time>
      </trkpt>
      <trkpt lat="46.51412" lon="0.37028">
        <ele>114.4</ele>
        <time>2021-05-13T15:20:18Z</time>
      </trkpt>
      <trkpt lat="46.51406" lon="0.37026">
        <ele>115.6</ele>
        <time>2021-05-13T15:20:22Z</time>
      </trkpt>
      <trkpt lat="46.51402" lon="0.37025">
        <ele>116.8</ele>
        <time>2021-05-13T15:20:26Z</time>
      </trkpt>
      <trkpt lat="46.51399" lon="0.37022">
        <ele>117.8</ele>
        <time>2021-05-13T15:20:29Z</time>
      </trkpt>
      <trkpt lat="46.51398" lon="0.37021">
        <ele>118.4</ele>
        <time>2021-05-13T15:20:30Z</time>
      </trkpt>
      <trkpt lat="46.51396" lon="0.37017">
        <ele>119.4</ele>
        <time>2021-05-13T15:20:33Z</time>
      </trkpt>
      <trkpt lat="46.51395" lon="0.37016">
        <ele>119.6</ele>
        <time>2021-05-13T15:20:34Z</time>
      </trkpt>
      <trkpt lat="46.51393" lon="0.37016">
        <ele>120.2</ele>
        <time>2021-05-13T15:20:36Z</time>
      </trkpt>
      <trkpt lat="46.51391" lon="0.37016">
        <ele>120.4</ele>
        <time>2021-05-13T15:20:37Z</time>
      </trkpt>
      <trkpt lat="46.5139" lon="0.37016">
        <ele>120.6</ele>
        <time>2021-05-13T15:20:38Z</time>
      </trkpt>
      <trkpt lat="46.5138" lon="0.37015">
        <ele>121</ele>
        <time>2021-05-13T15:20:45Z</time>
      </trkpt>
      <trkpt lat="46.51377" lon="0.37015">
        <ele>121.6</ele>
        <time>2021-05-13T15:20:47Z</time>
      </trkpt>
      <trkpt lat="46.51371" lon="0.37013">
        <ele>122.2</ele>
        <time>2021-05-13T15:20:50Z</time>
      </trkpt>
      <trkpt lat="46.51368" lon="0.37009">
        <ele>122.6</ele>
        <time>2021-05-13T15:20:53Z</time>
      </trkpt>
      <trkpt lat="46.51365" lon="0.37006">
        <ele>123</ele>
        <time>2021-05-13T15:20:56Z</time>
      </trkpt>
      <trkpt lat="46.51363" lon="0.37006">
        <ele>123.2</ele>
        <time>2021-05-13T15:20:57Z</time>
      </trkpt>
      <trkpt lat="46.51359" lon="0.37005">
        <ele>123.8</ele>
        <time>2021-05-13T15:20:59Z</time>
      </trkpt>
      <trkpt lat="46.51356" lon="0.37003">
        <ele>124</ele>
        <time>2021-05-13T15:21:01Z</time>
      </trkpt>
      <trkpt lat="46.51355" lon="0.36999">
        <ele>124.8</ele>
        <time>2021-05-13T15:21:04Z</time>
      </trkpt>
      <trkpt lat="46.51352" lon="0.36995">
        <ele>125.2</ele>
        <time>2021-05-13T15:21:07Z</time>
      </trkpt>
      <trkpt lat="46.51349" lon="0.36993">
        <ele>125.8</ele>
        <time>2021-05-13T15:21:09Z</time>
      </trkpt>
      <trkpt lat="46.51339" lon="0.36987">
        <ele>126.8</ele>
        <time>2021-05-13T15:21:16Z</time>
      </trkpt>
      <trkpt lat="46.51337" lon="0.36987">
        <ele>127</ele>
        <time>2021-05-13T15:21:17Z</time>
      </trkpt>
      <trkpt lat="46.51329" lon="0.36984">
        <ele>127.6</ele>
        <time>2021-05-13T15:21:22Z</time>
      </trkpt>
      <trkpt lat="46.51328" lon="0.36982">
        <ele>128</ele>
        <time>2021-05-13T15:21:23Z</time>
      </trkpt>
      <trkpt lat="46.51325" lon="0.3698">
        <ele>128.4</ele>
        <time>2021-05-13T15:21:25Z</time>
      </trkpt>
      <trkpt lat="46.51319" lon="0.36976">
        <ele>129</ele>
        <time>2021-05-13T15:21:29Z</time>
      </trkpt>
      <trkpt lat="46.51318" lon="0.36974">
        <ele>129.2</ele>
        <time>2021-05-13T15:21:30Z</time>
      </trkpt>
      <trkpt lat="46.51312" lon="0.36967">
        <ele>129.8</ele>
        <time>2021-05-13T15:21:35Z</time>
      </trkpt>
      <trkpt lat="46.5131" lon="0.36966">
        <ele>129.8</ele>
        <time>2021-05-13T15:21:36Z</time>
      </trkpt>
      <trkpt lat="46.51306" lon="0.36967">
        <ele>130</ele>
        <time>2021-05-13T15:21:38Z</time>
      </trkpt>
      <trkpt lat="46.51301" lon="0.36968">
        <ele>130</ele>
        <time>2021-05-13T15:21:40Z</time>
      </trkpt>
      <trkpt lat="46.51298" lon="0.36968">
        <ele>130.4</ele>
        <time>2021-05-13T15:21:41Z</time>
      </trkpt>
      <trkpt lat="46.51288" lon="0.36972">
        <ele>131</ele>
        <time>2021-05-13T15:21:46Z</time>
      </trkpt>
      <trkpt lat="46.51287" lon="0.36971">
        <ele>131.2</ele>
        <time>2021-05-13T15:21:47Z</time>
      </trkpt>
      <trkpt lat="46.51284" lon="0.36971">
        <ele>131.4</ele>
        <time>2021-05-13T15:21:48Z</time>
      </trkpt>
      <trkpt lat="46.51275" lon="0.36973">
        <ele>131.6</ele>
        <time>2021-05-13T15:21:51Z</time>
      </trkpt>
      <trkpt lat="46.51259" lon="0.36985">
        <ele>132.2</ele>
        <time>2021-05-13T15:21:58Z</time>
      </trkpt>
      <trkpt lat="46.51247" lon="0.36989">
        <ele>132.4</ele>
        <time>2021-05-13T15:22:02Z</time>
      </trkpt>
      <trkpt lat="46.51244" lon="0.36988">
        <ele>132.6</ele>
        <time>2021-05-13T15:22:03Z</time>
      </trkpt>
      <trkpt lat="46.51225" lon="0.36993">
        <ele>133</ele>
        <time>2021-05-13T15:22:09Z</time>
      </trkpt>
      <trkpt lat="46.51216" lon="0.37003">
        <ele>133.2</ele>
        <time>2021-05-13T15:22:14Z</time>
      </trkpt>
      <trkpt lat="46.51214" lon="0.37005">
        <ele>133.2</ele>
        <time>2021-05-13T15:22:15Z</time>
      </trkpt>
      <trkpt lat="46.51209" lon="0.37008">
        <ele>133</ele>
        <time>2021-05-13T15:22:17Z</time>
      </trkpt>
      <trkpt lat="46.51204" lon="0.3701">
        <ele>133.2</ele>
        <time>2021-05-13T15:22:19Z</time>
      </trkpt>
      <trkpt lat="46.51199" lon="0.37013">
        <ele>133.4</ele>
        <time>2021-05-13T15:22:21Z</time>
      </trkpt>
      <trkpt lat="46.51189" lon="0.37016">
        <ele>134</ele>
        <time>2021-05-13T15:22:24Z</time>
      </trkpt>
      <trkpt lat="46.51179" lon="0.37018">
        <ele>134.6</ele>
        <time>2021-05-13T15:22:27Z</time>
      </trkpt>
      <trkpt lat="46.51174" lon="0.37019">
        <ele>134.8</ele>
        <time>2021-05-13T15:22:29Z</time>
      </trkpt>
      <trkpt lat="46.51152" lon="0.37022">
        <ele>135.6</ele>
        <time>2021-05-13T15:22:36Z</time>
      </trkpt>
      <trkpt lat="46.51149" lon="0.37023">
        <ele>135.6</ele>
        <time>2021-05-13T15:22:37Z</time>
      </trkpt>
      <trkpt lat="46.51142" lon="0.37022">
        <ele>136</ele>
        <time>2021-05-13T15:22:41Z</time>
      </trkpt>
      <trkpt lat="46.51138" lon="0.37019">
        <ele>136</ele>
        <time>2021-05-13T15:22:44Z</time>
      </trkpt>
      <trkpt lat="46.51132" lon="0.37018">
        <ele>136.2</ele>
        <time>2021-05-13T15:22:48Z</time>
      </trkpt>
      <trkpt lat="46.51129" lon="0.37016">
        <ele>136.4</ele>
        <time>2021-05-13T15:22:51Z</time>
      </trkpt>
      <trkpt lat="46.51122" lon="0.37016">
        <ele>136.2</ele>
        <time>2021-05-13T15:22:55Z</time>
      </trkpt>
      <trkpt lat="46.51115" lon="0.37016">
        <ele>136.4</ele>
        <time>2021-05-13T15:23:00Z</time>
      </trkpt>
      <trkpt lat="46.51109" lon="0.37014">
        <ele>136.8</ele>
        <time>2021-05-13T15:23:04Z</time>
      </trkpt>
      <trkpt lat="46.51102" lon="0.37007">
        <ele>137</ele>
        <time>2021-05-13T15:23:09Z</time>
      </trkpt>
      <trkpt lat="46.51098" lon="0.36991">
        <ele>136.8</ele>
        <time>2021-05-13T15:23:15Z</time>
      </trkpt>
      <trkpt lat="46.5109" lon="0.36978">
        <ele>136.8</ele>
        <time>2021-05-13T15:23:21Z</time>
      </trkpt>
      <trkpt lat="46.51089" lon="0.36976">
        <ele>136.8</ele>
        <time>2021-05-13T15:23:22Z</time>
      </trkpt>
      <trkpt lat="46.51087" lon="0.36971">
        <ele>136.8</ele>
        <time>2021-05-13T15:23:24Z</time>
      </trkpt>
      <trkpt lat="46.51087" lon="0.36963">
        <ele>136.6</ele>
        <time>2021-05-13T15:23:26Z</time>
      </trkpt>
      <trkpt lat="46.51087" lon="0.36942">
        <ele>136.8</ele>
        <time>2021-05-13T15:23:32Z</time>
      </trkpt>
      <trkpt lat="46.5109" lon="0.36922">
        <ele>136.6</ele>
        <time>2021-05-13T15:23:38Z</time>
      </trkpt>
      <trkpt lat="46.51092" lon="0.36917">
        <ele>136.4</ele>
        <time>2021-05-13T15:23:40Z</time>
      </trkpt>
      <trkpt lat="46.51093" lon="0.36917">
        <ele>136.2</ele>
        <time>2021-05-13T15:23:42Z</time>
      </trkpt>
      <trkpt lat="46.51093" lon="0.36917">
        <ele>136.2</ele>
        <time>2021-05-13T15:23:43Z</time>
      </trkpt>
      <trkpt lat="46.51099" lon="0.36919">
        <ele>136.2</ele>
        <time>2021-05-13T15:23:47Z</time>
      </trkpt>
      <trkpt lat="46.511" lon="0.36919">
        <ele>136.2</ele>
        <time>2021-05-13T15:23:48Z</time>
      </trkpt>
      <trkpt lat="46.51104" lon="0.36917">
        <ele>136.4</ele>
        <time>2021-05-13T15:23:50Z</time>
      </trkpt>
      <trkpt lat="46.51106" lon="0.36915">
        <ele>136.4</ele>
        <time>2021-05-13T15:23:51Z</time>
      </trkpt>
      <trkpt lat="46.51111" lon="0.36894">
        <ele>136.2</ele>
        <time>2021-05-13T15:23:57Z</time>
      </trkpt>
      <trkpt lat="46.51116" lon="0.36867">
        <ele>135.6</ele>
        <time>2021-05-13T15:24:02Z</time>
      </trkpt>
      <trkpt lat="46.51118" lon="0.36855">
        <ele>135.6</ele>
        <time>2021-05-13T15:24:04Z</time>
      </trkpt>
      <trkpt lat="46.51115" lon="0.36846">
        <ele>135.2</ele>
        <time>2021-05-13T15:24:07Z</time>
      </trkpt>
      <trkpt lat="46.51101" lon="0.36841">
        <ele>134.6</ele>
        <time>2021-05-13T15:24:12Z</time>
      </trkpt>
      <trkpt lat="46.51096" lon="0.36841">
        <ele>134.6</ele>
        <time>2021-05-13T15:24:14Z</time>
      </trkpt>
      <trkpt lat="46.51084" lon="0.36844">
        <ele>134.6</ele>
        <time>2021-05-13T15:24:18Z</time>
      </trkpt>
      <trkpt lat="46.51065" lon="0.36844">
        <ele>135</ele>
        <time>2021-05-13T15:24:25Z</time>
      </trkpt>
      <trkpt lat="46.51048" lon="0.36841">
        <ele>135</ele>
        <time>2021-05-13T15:24:31Z</time>
      </trkpt>
      <trkpt lat="46.51028" lon="0.36833">
        <ele>135.6</ele>
        <time>2021-05-13T15:24:37Z</time>
      </trkpt>
      <trkpt lat="46.51025" lon="0.36832">
        <ele>135.8</ele>
        <time>2021-05-13T15:24:38Z</time>
      </trkpt>
      <trkpt lat="46.51007" lon="0.3683">
        <ele>135.8</ele>
        <time>2021-05-13T15:24:43Z</time>
      </trkpt>
      <trkpt lat="46.50982" lon="0.36826">
        <ele>135.8</ele>
        <time>2021-05-13T15:24:50Z</time>
      </trkpt>
      <trkpt lat="46.50976" lon="0.36824">
        <ele>136</ele>
        <time>2021-05-13T15:24:52Z</time>
      </trkpt>
      <trkpt lat="46.50965" lon="0.36822">
        <ele>135.8</ele>
        <time>2021-05-13T15:24:55Z</time>
      </trkpt>
      <trkpt lat="46.50961" lon="0.36821">
        <ele>135.8</ele>
        <time>2021-05-13T15:24:56Z</time>
      </trkpt>
      <trkpt lat="46.50931" lon="0.36812">
        <ele>135.8</ele>
        <time>2021-05-13T15:25:03Z</time>
      </trkpt>
      <trkpt lat="46.50919" lon="0.36801">
        <ele>136</ele>
        <time>2021-05-13T15:25:07Z</time>
      </trkpt>
      <trkpt lat="46.50912" lon="0.36796">
        <ele>136</ele>
        <time>2021-05-13T15:25:09Z</time>
      </trkpt>
      <trkpt lat="46.50904" lon="0.36793">
        <ele>135.8</ele>
        <time>2021-05-13T15:25:11Z</time>
      </trkpt>
      <trkpt lat="46.509" lon="0.36793">
        <ele>135.8</ele>
        <time>2021-05-13T15:25:12Z</time>
      </trkpt>
      <trkpt lat="46.50883" lon="0.36787">
        <ele>135.6</ele>
        <time>2021-05-13T15:25:17Z</time>
      </trkpt>
      <trkpt lat="46.50858" lon="0.3678">
        <ele>135.6</ele>
        <time>2021-05-13T15:25:24Z</time>
      </trkpt>
      <trkpt lat="46.50839" lon="0.36776">
        <ele>135.6</ele>
        <time>2021-05-13T15:25:29Z</time>
      </trkpt>
      <trkpt lat="46.50814" lon="0.36777">
        <ele>135.8</ele>
        <time>2021-05-13T15:25:36Z</time>
      </trkpt>
      <trkpt lat="46.50798" lon="0.36775">
        <ele>136</ele>
        <time>2021-05-13T15:25:40Z</time>
      </trkpt>
      <trkpt lat="46.50783" lon="0.36776">
        <ele>136.2</ele>
        <time>2021-05-13T15:25:44Z</time>
      </trkpt>
      <trkpt lat="46.50767" lon="0.36777">
        <ele>136.2</ele>
        <time>2021-05-13T15:25:49Z</time>
      </trkpt>
      <trkpt lat="46.50736" lon="0.36772">
        <ele>136.6</ele>
        <time>2021-05-13T15:25:57Z</time>
      </trkpt>
      <trkpt lat="46.50714" lon="0.36759">
        <ele>136.4</ele>
        <time>2021-05-13T15:26:03Z</time>
      </trkpt>
      <trkpt lat="46.5071" lon="0.36758">
        <ele>136.4</ele>
        <time>2021-05-13T15:26:04Z</time>
      </trkpt>
      <trkpt lat="46.50699" lon="0.36753">
        <ele>136</ele>
        <time>2021-05-13T15:26:07Z</time>
      </trkpt>
      <trkpt lat="46.5069" lon="0.36751">
        <ele>135.6</ele>
        <time>2021-05-13T15:26:09Z</time>
      </trkpt>
      <trkpt lat="46.50665" lon="0.36747">
        <ele>135.6</ele>
        <time>2021-05-13T15:26:16Z</time>
      </trkpt>
      <trkpt lat="46.50651" lon="0.36736">
        <ele>135</ele>
        <time>2021-05-13T15:26:20Z</time>
      </trkpt>
      <trkpt lat="46.50651" lon="0.36722">
        <ele>134.6</ele>
        <time>2021-05-13T15:26:23Z</time>
      </trkpt>
      <trkpt lat="46.50651" lon="0.36717">
        <ele>134.6</ele>
        <time>2021-05-13T15:26:24Z</time>
      </trkpt>
      <trkpt lat="46.50654" lon="0.36685">
        <ele>133.4</ele>
        <time>2021-05-13T15:26:29Z</time>
      </trkpt>
      <trkpt lat="46.50654" lon="0.36664">
        <ele>132.4</ele>
        <time>2021-05-13T15:26:32Z</time>
      </trkpt>
      <trkpt lat="46.50655" lon="0.36656">
        <ele>132.2</ele>
        <time>2021-05-13T15:26:33Z</time>
      </trkpt>
      <trkpt lat="46.50656" lon="0.36642">
        <ele>131.6</ele>
        <time>2021-05-13T15:26:35Z</time>
      </trkpt>
      <trkpt lat="46.50658" lon="0.36634">
        <ele>131.2</ele>
        <time>2021-05-13T15:26:36Z</time>
      </trkpt>
      <trkpt lat="46.50661" lon="0.36627">
        <ele>131</ele>
        <time>2021-05-13T15:26:37Z</time>
      </trkpt>
      <trkpt lat="46.50669" lon="0.36616">
        <ele>130.2</ele>
        <time>2021-05-13T15:26:39Z</time>
      </trkpt>
      <trkpt lat="46.50679" lon="0.36606">
        <ele>128.6</ele>
        <time>2021-05-13T15:26:41Z</time>
      </trkpt>
      <trkpt lat="46.50684" lon="0.366">
        <ele>128.2</ele>
        <time>2021-05-13T15:26:42Z</time>
      </trkpt>
      <trkpt lat="46.50689" lon="0.36595">
        <ele>127.8</ele>
        <time>2021-05-13T15:26:43Z</time>
      </trkpt>
      <trkpt lat="46.50692" lon="0.36587">
        <ele>127.4</ele>
        <time>2021-05-13T15:26:44Z</time>
      </trkpt>
      <trkpt lat="46.50695" lon="0.36579">
        <ele>127.2</ele>
        <time>2021-05-13T15:26:45Z</time>
      </trkpt>
      <trkpt lat="46.50697" lon="0.3657">
        <ele>127</ele>
        <time>2021-05-13T15:26:46Z</time>
      </trkpt>
      <trkpt lat="46.507" lon="0.36553">
        <ele>126.8</ele>
        <time>2021-05-13T15:26:48Z</time>
      </trkpt>
      <trkpt lat="46.507" lon="0.36545">
        <ele>126.6</ele>
        <time>2021-05-13T15:26:49Z</time>
      </trkpt>
      <trkpt lat="46.50706" lon="0.36494">
        <ele>127.2</ele>
        <time>2021-05-13T15:26:56Z</time>
      </trkpt>
      <trkpt lat="46.50711" lon="0.36453">
        <ele>128</ele>
        <time>2021-05-13T15:27:03Z</time>
      </trkpt>
      <trkpt lat="46.50713" lon="0.36448">
        <ele>128.2</ele>
        <time>2021-05-13T15:27:04Z</time>
      </trkpt>
      <trkpt lat="46.50716" lon="0.36437">
        <ele>128.6</ele>
        <time>2021-05-13T15:27:06Z</time>
      </trkpt>
      <trkpt lat="46.50718" lon="0.36426">
        <ele>128.8</ele>
        <time>2021-05-13T15:27:08Z</time>
      </trkpt>
      <trkpt lat="46.50723" lon="0.36402">
        <ele>129.2</ele>
        <time>2021-05-13T15:27:12Z</time>
      </trkpt>
      <trkpt lat="46.50724" lon="0.3639">
        <ele>129.6</ele>
        <time>2021-05-13T15:27:14Z</time>
      </trkpt>
      <trkpt lat="46.50725" lon="0.36385">
        <ele>130</ele>
        <time>2021-05-13T15:27:15Z</time>
      </trkpt>
      <trkpt lat="46.50726" lon="0.36357">
        <ele>130.6</ele>
        <time>2021-05-13T15:27:20Z</time>
      </trkpt>
      <trkpt lat="46.50728" lon="0.36346">
        <ele>131.2</ele>
        <time>2021-05-13T15:27:22Z</time>
      </trkpt>
      <trkpt lat="46.50731" lon="0.36324">
        <ele>131.8</ele>
        <time>2021-05-13T15:27:26Z</time>
      </trkpt>
      <trkpt lat="46.50734" lon="0.36302">
        <ele>132.4</ele>
        <time>2021-05-13T15:27:30Z</time>
      </trkpt>
      <trkpt lat="46.50736" lon="0.36286">
        <ele>132.8</ele>
        <time>2021-05-13T15:27:33Z</time>
      </trkpt>
      <trkpt lat="46.5074" lon="0.36253">
        <ele>133.4</ele>
        <time>2021-05-13T15:27:39Z</time>
      </trkpt>
      <trkpt lat="46.50743" lon="0.36228">
        <ele>133.8</ele>
        <time>2021-05-13T15:27:44Z</time>
      </trkpt>
      <trkpt lat="46.50745" lon="0.36212">
        <ele>134</ele>
        <time>2021-05-13T15:27:47Z</time>
      </trkpt>
      <trkpt lat="46.50752" lon="0.36171">
        <ele>134.4</ele>
        <time>2021-05-13T15:27:55Z</time>
      </trkpt>
      <trkpt lat="46.50756" lon="0.36151">
        <ele>134.8</ele>
        <time>2021-05-13T15:27:59Z</time>
      </trkpt>
      <trkpt lat="46.50761" lon="0.36132">
        <ele>135.2</ele>
        <time>2021-05-13T15:28:03Z</time>
      </trkpt>
      <trkpt lat="46.50774" lon="0.36113">
        <ele>135.2</ele>
        <time>2021-05-13T15:28:08Z</time>
      </trkpt>
      <trkpt lat="46.50776" lon="0.36109">
        <ele>135</ele>
        <time>2021-05-13T15:28:09Z</time>
      </trkpt>
      <trkpt lat="46.50781" lon="0.36097">
        <ele>134.6</ele>
        <time>2021-05-13T15:28:11Z</time>
      </trkpt>
      <trkpt lat="46.50782" lon="0.36091">
        <ele>134.4</ele>
        <time>2021-05-13T15:28:12Z</time>
      </trkpt>
      <trkpt lat="46.50784" lon="0.36079">
        <ele>133.6</ele>
        <time>2021-05-13T15:28:14Z</time>
      </trkpt>
      <trkpt lat="46.50782" lon="0.3606">
        <ele>133.2</ele>
        <time>2021-05-13T15:28:18Z</time>
      </trkpt>
      <trkpt lat="46.50779" lon="0.36032">
        <ele>134.6</ele>
        <time>2021-05-13T15:28:24Z</time>
      </trkpt>
      <trkpt lat="46.50779" lon="0.36027">
        <ele>134.8</ele>
        <time>2021-05-13T15:28:25Z</time>
      </trkpt>
      <trkpt lat="46.50777" lon="0.36007">
        <ele>135.8</ele>
        <time>2021-05-13T15:28:29Z</time>
      </trkpt>
      <trkpt lat="46.50777" lon="0.36002">
        <ele>136.4</ele>
        <time>2021-05-13T15:28:30Z</time>
      </trkpt>
      <trkpt lat="46.50776" lon="0.35992">
        <ele>137</ele>
        <time>2021-05-13T15:28:32Z</time>
      </trkpt>
      <trkpt lat="46.50775" lon="0.35979">
        <ele>138</ele>
        <time>2021-05-13T15:28:35Z</time>
      </trkpt>
      <trkpt lat="46.50774" lon="0.35964">
        <ele>138.6</ele>
        <time>2021-05-13T15:28:38Z</time>
      </trkpt>
      <trkpt lat="46.50767" lon="0.35917">
        <ele>139</ele>
        <time>2021-05-13T15:28:47Z</time>
      </trkpt>
      <trkpt lat="46.50766" lon="0.35912">
        <ele>139.2</ele>
        <time>2021-05-13T15:28:48Z</time>
      </trkpt>
      <trkpt lat="46.50757" lon="0.35873">
        <ele>140.2</ele>
        <time>2021-05-13T15:28:56Z</time>
      </trkpt>
      <trkpt lat="46.50757" lon="0.35846">
        <ele>141</ele>
        <time>2021-05-13T15:29:01Z</time>
      </trkpt>
      <trkpt lat="46.50762" lon="0.35832">
        <ele>141.2</ele>
        <time>2021-05-13T15:29:04Z</time>
      </trkpt>
      <trkpt lat="46.5077" lon="0.35808">
        <ele>141.8</ele>
        <time>2021-05-13T15:29:09Z</time>
      </trkpt>
      <trkpt lat="46.50787" lon="0.35775">
        <ele>141.8</ele>
        <time>2021-05-13T15:29:16Z</time>
      </trkpt>
      <trkpt lat="46.508" lon="0.35758">
        <ele>141.6</ele>
        <time>2021-05-13T15:29:20Z</time>
      </trkpt>
      <trkpt lat="46.50806" lon="0.35752">
        <ele>141.4</ele>
        <time>2021-05-13T15:29:22Z</time>
      </trkpt>
      <trkpt lat="46.50809" lon="0.35749">
        <ele>141.4</ele>
        <time>2021-05-13T15:29:23Z</time>
      </trkpt>
      <trkpt lat="46.50821" lon="0.35734">
        <ele>141</ele>
        <time>2021-05-13T15:29:28Z</time>
      </trkpt>
      <trkpt lat="46.50833" lon="0.35711">
        <ele>141.2</ele>
        <time>2021-05-13T15:29:34Z</time>
      </trkpt>
      <trkpt lat="46.50846" lon="0.35686">
        <ele>140.6</ele>
        <time>2021-05-13T15:29:40Z</time>
      </trkpt>
      <trkpt lat="46.50861" lon="0.3567">
        <ele>140.8</ele>
        <time>2021-05-13T15:29:45Z</time>
      </trkpt>
      <trkpt lat="46.50882" lon="0.3564">
        <ele>140.4</ele>
        <time>2021-05-13T15:29:53Z</time>
      </trkpt>
      <trkpt lat="46.50884" lon="0.35635">
        <ele>140.4</ele>
        <time>2021-05-13T15:29:54Z</time>
      </trkpt>
      <trkpt lat="46.50886" lon="0.35631">
        <ele>140.2</ele>
        <time>2021-05-13T15:29:55Z</time>
      </trkpt>
      <trkpt lat="46.50893" lon="0.35615">
        <ele>139.8</ele>
        <time>2021-05-13T15:29:58Z</time>
      </trkpt>
      <trkpt lat="46.50896" lon="0.35611">
        <ele>139.4</ele>
        <time>2021-05-13T15:29:59Z</time>
      </trkpt>
      <trkpt lat="46.50901" lon="0.35601">
        <ele>139.2</ele>
        <time>2021-05-13T15:30:01Z</time>
      </trkpt>
      <trkpt lat="46.50916" lon="0.35576">
        <ele>138.6</ele>
        <time>2021-05-13T15:30:06Z</time>
      </trkpt>
      <trkpt lat="46.50932" lon="0.35546">
        <ele>138</ele>
        <time>2021-05-13T15:30:12Z</time>
      </trkpt>
      <trkpt lat="46.50936" lon="0.35541">
        <ele>138</ele>
        <time>2021-05-13T15:30:13Z</time>
      </trkpt>
      <trkpt lat="46.50953" lon="0.35509">
        <ele>137.2</ele>
        <time>2021-05-13T15:30:18Z</time>
      </trkpt>
      <trkpt lat="46.50957" lon="0.35503">
        <ele>137.2</ele>
        <time>2021-05-13T15:30:19Z</time>
      </trkpt>
      <trkpt lat="46.50968" lon="0.35487">
        <ele>137</ele>
        <time>2021-05-13T15:30:22Z</time>
      </trkpt>
      <trkpt lat="46.50985" lon="0.35465">
        <ele>136.8</ele>
        <time>2021-05-13T15:30:27Z</time>
      </trkpt>
      <trkpt lat="46.50999" lon="0.35448">
        <ele>135.8</ele>
        <time>2021-05-13T15:30:31Z</time>
      </trkpt>
      <trkpt lat="46.51013" lon="0.35429">
        <ele>135.4</ele>
        <time>2021-05-13T15:30:35Z</time>
      </trkpt>
      <trkpt lat="46.51017" lon="0.35425">
        <ele>135.4</ele>
        <time>2021-05-13T15:30:36Z</time>
      </trkpt>
      <trkpt lat="46.51027" lon="0.35422">
        <ele>135.4</ele>
        <time>2021-05-13T15:30:38Z</time>
      </trkpt>
      <trkpt lat="46.51036" lon="0.35418">
        <ele>135.6</ele>
        <time>2021-05-13T15:30:40Z</time>
      </trkpt>
      <trkpt lat="46.5104" lon="0.35414">
        <ele>135.6</ele>
        <time>2021-05-13T15:30:41Z</time>
      </trkpt>
      <trkpt lat="46.51043" lon="0.35409">
        <ele>135.8</ele>
        <time>2021-05-13T15:30:42Z</time>
      </trkpt>
      <trkpt lat="46.51047" lon="0.35396">
        <ele>136</ele>
        <time>2021-05-13T15:30:44Z</time>
      </trkpt>
      <trkpt lat="46.51045" lon="0.35384">
        <ele>136.2</ele>
        <time>2021-05-13T15:30:46Z</time>
      </trkpt>
      <trkpt lat="46.51043" lon="0.35379">
        <ele>136.2</ele>
        <time>2021-05-13T15:30:47Z</time>
      </trkpt>
      <trkpt lat="46.51041" lon="0.35374">
        <ele>136</ele>
        <time>2021-05-13T15:30:48Z</time>
      </trkpt>
      <trkpt lat="46.5104" lon="0.35363">
        <ele>136</ele>
        <time>2021-05-13T15:30:50Z</time>
      </trkpt>
      <trkpt lat="46.5104" lon="0.35357">
        <ele>135.8</ele>
        <time>2021-05-13T15:30:51Z</time>
      </trkpt>
      <trkpt lat="46.5104" lon="0.35352">
        <ele>135.8</ele>
        <time>2021-05-13T15:30:52Z</time>
      </trkpt>
      <trkpt lat="46.51045" lon="0.35331">
        <ele>135.6</ele>
        <time>2021-05-13T15:30:57Z</time>
      </trkpt>
      <trkpt lat="46.51045" lon="0.35329">
        <ele>135.4</ele>
        <time>2021-05-13T15:30:59Z</time>
      </trkpt>
      <trkpt lat="46.51046" lon="0.35329">
        <ele>135</ele>
        <time>2021-05-13T15:31:02Z</time>
      </trkpt>
      <trkpt lat="46.51048" lon="0.35323">
        <ele>135</ele>
        <time>2021-05-13T15:31:14Z</time>
      </trkpt>
      <trkpt lat="46.51048" lon="0.35322">
        <ele>135</ele>
        <time>2021-05-13T15:31:21Z</time>
      </trkpt>
      <trkpt lat="46.51047" lon="0.35322">
        <ele>134.8</ele>
        <time>2021-05-13T15:31:29Z</time>
      </trkpt>
      <trkpt lat="46.51047" lon="0.35322">
        <ele>134.8</ele>
        <time>2021-05-13T15:31:31Z</time>
      </trkpt>
      <trkpt lat="46.51047" lon="0.35322">
        <ele>134.8</ele>
        <time>2021-05-13T15:31:33Z</time>
      </trkpt>
      <trkpt lat="46.51048" lon="0.35321">
        <ele>135</ele>
        <time>2021-05-13T15:31:49Z</time>
      </trkpt>
      <trkpt lat="46.5105" lon="0.35314">
        <ele>134.6</ele>
        <time>2021-05-13T15:31:56Z</time>
      </trkpt>
      <trkpt lat="46.51053" lon="0.35293">
        <ele>134.4</ele>
        <time>2021-05-13T15:32:01Z</time>
      </trkpt>
      <trkpt lat="46.51056" lon="0.35264">
        <ele>134.2</ele>
        <time>2021-05-13T15:32:06Z</time>
      </trkpt>
      <trkpt lat="46.51056" lon="0.35257">
        <ele>134</ele>
        <time>2021-05-13T15:32:07Z</time>
      </trkpt>
      <trkpt lat="46.51058" lon="0.35235">
        <ele>133.8</ele>
        <time>2021-05-13T15:32:10Z</time>
      </trkpt>
      <trkpt lat="46.51062" lon="0.35202">
        <ele>133.4</ele>
        <time>2021-05-13T15:32:14Z</time>
      </trkpt>
      <trkpt lat="46.51067" lon="0.35153">
        <ele>132.2</ele>
        <time>2021-05-13T15:32:20Z</time>
      </trkpt>
      <trkpt lat="46.51068" lon="0.35136">
        <ele>131.8</ele>
        <time>2021-05-13T15:32:22Z</time>
      </trkpt>
      <trkpt lat="46.51071" lon="0.35112">
        <ele>131.2</ele>
        <time>2021-05-13T15:32:25Z</time>
      </trkpt>
      <trkpt lat="46.51076" lon="0.35087">
        <ele>129.6</ele>
        <time>2021-05-13T15:32:28Z</time>
      </trkpt>
      <trkpt lat="46.51078" lon="0.35078">
        <ele>129.2</ele>
        <time>2021-05-13T15:32:29Z</time>
      </trkpt>
      <trkpt lat="46.51082" lon="0.35061">
        <ele>128.6</ele>
        <time>2021-05-13T15:32:31Z</time>
      </trkpt>
      <trkpt lat="46.51085" lon="0.35047">
        <ele>127</ele>
        <time>2021-05-13T15:32:33Z</time>
      </trkpt>
      <trkpt lat="46.51087" lon="0.35042">
        <ele>126.4</ele>
        <time>2021-05-13T15:32:34Z</time>
      </trkpt>
      <trkpt lat="46.51089" lon="0.35038">
        <ele>126</ele>
        <time>2021-05-13T15:32:35Z</time>
      </trkpt>
      <trkpt lat="46.51096" lon="0.35032">
        <ele>124.8</ele>
        <time>2021-05-13T15:32:38Z</time>
      </trkpt>
      <trkpt lat="46.51105" lon="0.35022">
        <ele>123.6</ele>
        <time>2021-05-13T15:32:41Z</time>
      </trkpt>
      <trkpt lat="46.51107" lon="0.35018">
        <ele>123.2</ele>
        <time>2021-05-13T15:32:42Z</time>
      </trkpt>
      <trkpt lat="46.51109" lon="0.35013">
        <ele>123</ele>
        <time>2021-05-13T15:32:43Z</time>
      </trkpt>
      <trkpt lat="46.51124" lon="0.35001">
        <ele>122.8</ele>
        <time>2021-05-13T15:32:48Z</time>
      </trkpt>
      <trkpt lat="46.51135" lon="0.34987">
        <ele>122.6</ele>
        <time>2021-05-13T15:32:52Z</time>
      </trkpt>
      <trkpt lat="46.51145" lon="0.3497">
        <ele>123</ele>
        <time>2021-05-13T15:32:57Z</time>
      </trkpt>
      <trkpt lat="46.51157" lon="0.34956">
        <ele>124.4</ele>
        <time>2021-05-13T15:33:02Z</time>
      </trkpt>
      <trkpt lat="46.51158" lon="0.34955">
        <ele>124.8</ele>
        <time>2021-05-13T15:33:03Z</time>
      </trkpt>
      <trkpt lat="46.51161" lon="0.34954">
        <ele>125</ele>
        <time>2021-05-13T15:33:05Z</time>
      </trkpt>
      <trkpt lat="46.51161" lon="0.34953">
        <ele>125</ele>
        <time>2021-05-13T15:33:06Z</time>
      </trkpt>
      <trkpt lat="46.5116" lon="0.34952">
        <ele>125</ele>
        <time>2021-05-13T15:33:08Z</time>
      </trkpt>
      <trkpt lat="46.51157" lon="0.34948">
        <ele>125.2</ele>
        <time>2021-05-13T15:33:12Z</time>
      </trkpt>
      <trkpt lat="46.51157" lon="0.34945">
        <ele>125.4</ele>
        <time>2021-05-13T15:33:13Z</time>
      </trkpt>
      <trkpt lat="46.51157" lon="0.34934">
        <ele>125.8</ele>
        <time>2021-05-13T15:33:16Z</time>
      </trkpt>
      <trkpt lat="46.51157" lon="0.34926">
        <ele>126.2</ele>
        <time>2021-05-13T15:33:18Z</time>
      </trkpt>
      <trkpt lat="46.51156" lon="0.34917">
        <ele>127</ele>
        <time>2021-05-13T15:33:20Z</time>
      </trkpt>
      <trkpt lat="46.51154" lon="0.34908">
        <ele>127.4</ele>
        <time>2021-05-13T15:33:22Z</time>
      </trkpt>
      <trkpt lat="46.51151" lon="0.34896">
        <ele>128.2</ele>
        <time>2021-05-13T15:33:25Z</time>
      </trkpt>
      <trkpt lat="46.51152" lon="0.34884">
        <ele>128.6</ele>
        <time>2021-05-13T15:33:28Z</time>
      </trkpt>
      <trkpt lat="46.51162" lon="0.34879">
        <ele>129</ele>
        <time>2021-05-13T15:33:32Z</time>
      </trkpt>
      <trkpt lat="46.51167" lon="0.34877">
        <ele>129.2</ele>
        <time>2021-05-13T15:33:34Z</time>
      </trkpt>
      <trkpt lat="46.51176" lon="0.3487">
        <ele>129.4</ele>
        <time>2021-05-13T15:33:38Z</time>
      </trkpt>
      <trkpt lat="46.51198" lon="0.34855">
        <ele>129.6</ele>
        <time>2021-05-13T15:33:47Z</time>
      </trkpt>
      <trkpt lat="46.51219" lon="0.34846">
        <ele>129.2</ele>
        <time>2021-05-13T15:33:54Z</time>
      </trkpt>
      <trkpt lat="46.51234" lon="0.34849">
        <ele>128.6</ele>
        <time>2021-05-13T15:33:58Z</time>
      </trkpt>
      <trkpt lat="46.51244" lon="0.34854">
        <ele>128.2</ele>
        <time>2021-05-13T15:34:01Z</time>
      </trkpt>
      <trkpt lat="46.51249" lon="0.34857">
        <ele>127.8</ele>
        <time>2021-05-13T15:34:03Z</time>
      </trkpt>
      <trkpt lat="46.51258" lon="0.34869">
        <ele>127.8</ele>
        <time>2021-05-13T15:34:07Z</time>
      </trkpt>
      <trkpt lat="46.5126" lon="0.34872">
        <ele>127.8</ele>
        <time>2021-05-13T15:34:08Z</time>
      </trkpt>
      <trkpt lat="46.51271" lon="0.34892">
        <ele>126.8</ele>
        <time>2021-05-13T15:34:12Z</time>
      </trkpt>
      <trkpt lat="46.51275" lon="0.34898">
        <ele>126.4</ele>
        <time>2021-05-13T15:34:13Z</time>
      </trkpt>
      <trkpt lat="46.51283" lon="0.34909">
        <ele>125.4</ele>
        <time>2021-05-13T15:34:15Z</time>
      </trkpt>
      <trkpt lat="46.51286" lon="0.34914">
        <ele>125</ele>
        <time>2021-05-13T15:34:16Z</time>
      </trkpt>
      <trkpt lat="46.51287" lon="0.34918">
        <ele>124.4</ele>
        <time>2021-05-13T15:34:17Z</time>
      </trkpt>
      <trkpt lat="46.51288" lon="0.34922">
        <ele>123</ele>
        <time>2021-05-13T15:34:18Z</time>
      </trkpt>
      <trkpt lat="46.51287" lon="0.34925">
        <ele>122</ele>
        <time>2021-05-13T15:34:19Z</time>
      </trkpt>
      <trkpt lat="46.51286" lon="0.34927">
        <ele>121.4</ele>
        <time>2021-05-13T15:34:20Z</time>
      </trkpt>
      <trkpt lat="46.51282" lon="0.34926">
        <ele>120.8</ele>
        <time>2021-05-13T15:34:22Z</time>
      </trkpt>
      <trkpt lat="46.51281" lon="0.34923">
        <ele>120.6</ele>
        <time>2021-05-13T15:34:23Z</time>
      </trkpt>
      <trkpt lat="46.51285" lon="0.34919">
        <ele>120.6</ele>
        <time>2021-05-13T15:34:26Z</time>
      </trkpt>
      <trkpt lat="46.51292" lon="0.34912">
        <ele>121.2</ele>
        <time>2021-05-13T15:34:31Z</time>
      </trkpt>
      <trkpt lat="46.51293" lon="0.34908">
        <ele>121.8</ele>
        <time>2021-05-13T15:34:33Z</time>
      </trkpt>
      <trkpt lat="46.51293" lon="0.34907">
        <ele>122.4</ele>
        <time>2021-05-13T15:34:34Z</time>
      </trkpt>
      <trkpt lat="46.51292" lon="0.34902">
        <ele>123</ele>
        <time>2021-05-13T15:34:36Z</time>
      </trkpt>
      <trkpt lat="46.51291" lon="0.349">
        <ele>123.4</ele>
        <time>2021-05-13T15:34:37Z</time>
      </trkpt>
      <trkpt lat="46.51291" lon="0.34898">
        <ele>123.6</ele>
        <time>2021-05-13T15:34:38Z</time>
      </trkpt>
      <trkpt lat="46.51291" lon="0.34893">
        <ele>123.8</ele>
        <time>2021-05-13T15:34:40Z</time>
      </trkpt>
      <trkpt lat="46.51293" lon="0.34891">
        <ele>124.2</ele>
        <time>2021-05-13T15:34:41Z</time>
      </trkpt>
      <trkpt lat="46.51294" lon="0.3489">
        <ele>124.4</ele>
        <time>2021-05-13T15:34:42Z</time>
      </trkpt>
      <trkpt lat="46.51295" lon="0.34885">
        <ele>124.6</ele>
        <time>2021-05-13T15:34:44Z</time>
      </trkpt>
      <trkpt lat="46.51295" lon="0.34879">
        <ele>125.2</ele>
        <time>2021-05-13T15:34:47Z</time>
      </trkpt>
      <trkpt lat="46.51296" lon="0.34877">
        <ele>125.4</ele>
        <time>2021-05-13T15:34:48Z</time>
      </trkpt>
      <trkpt lat="46.51295" lon="0.34867">
        <ele>126.2</ele>
        <time>2021-05-13T15:34:52Z</time>
      </trkpt>
      <trkpt lat="46.51295" lon="0.34864">
        <ele>126.4</ele>
        <time>2021-05-13T15:34:53Z</time>
      </trkpt>
      <trkpt lat="46.51296" lon="0.34861">
        <ele>126.4</ele>
        <time>2021-05-13T15:34:54Z</time>
      </trkpt>
      <trkpt lat="46.51297" lon="0.34856">
        <ele>126.8</ele>
        <time>2021-05-13T15:34:56Z</time>
      </trkpt>
      <trkpt lat="46.51297" lon="0.34852">
        <ele>127</ele>
        <time>2021-05-13T15:34:58Z</time>
      </trkpt>
      <trkpt lat="46.51297" lon="0.34835">
        <ele>127.4</ele>
        <time>2021-05-13T15:35:03Z</time>
      </trkpt>
      <trkpt lat="46.51297" lon="0.34832">
        <ele>127.6</ele>
        <time>2021-05-13T15:35:04Z</time>
      </trkpt>
      <trkpt lat="46.51298" lon="0.34829">
        <ele>127.8</ele>
        <time>2021-05-13T15:35:05Z</time>
      </trkpt>
      <trkpt lat="46.51301" lon="0.34824">
        <ele>128</ele>
        <time>2021-05-13T15:35:08Z</time>
      </trkpt>
      <trkpt lat="46.51304" lon="0.34821">
        <ele>127.8</ele>
        <time>2021-05-13T15:35:10Z</time>
      </trkpt>
      <trkpt lat="46.51307" lon="0.34821">
        <ele>127.8</ele>
        <time>2021-05-13T15:35:13Z</time>
      </trkpt>
      <trkpt lat="46.51307" lon="0.34823">
        <ele>127.6</ele>
        <time>2021-05-13T15:35:14Z</time>
      </trkpt>
      <trkpt lat="46.51308" lon="0.34828">
        <ele>127.2</ele>
        <time>2021-05-13T15:35:18Z</time>
      </trkpt>
      <trkpt lat="46.51308" lon="0.34829">
        <ele>127</ele>
        <time>2021-05-13T15:35:19Z</time>
      </trkpt>
      <trkpt lat="46.51312" lon="0.3483">
        <ele>126.8</ele>
        <time>2021-05-13T15:35:22Z</time>
      </trkpt>
      <trkpt lat="46.51316" lon="0.3483">
        <ele>126.8</ele>
        <time>2021-05-13T15:35:24Z</time>
      </trkpt>
      <trkpt lat="46.51326" lon="0.34825">
        <ele>126.4</ele>
        <time>2021-05-13T15:35:28Z</time>
      </trkpt>
      <trkpt lat="46.5133" lon="0.34825">
        <ele>126.4</ele>
        <time>2021-05-13T15:35:30Z</time>
      </trkpt>
      <trkpt lat="46.51339" lon="0.34832">
        <ele>125.6</ele>
        <time>2021-05-13T15:35:34Z</time>
      </trkpt>
      <trkpt lat="46.51342" lon="0.34833">
        <ele>125.4</ele>
        <time>2021-05-13T15:35:35Z</time>
      </trkpt>
      <trkpt lat="46.51344" lon="0.34835">
        <ele>125.2</ele>
        <time>2021-05-13T15:35:36Z</time>
      </trkpt>
      <trkpt lat="46.51349" lon="0.34838">
        <ele>124</ele>
        <time>2021-05-13T15:35:38Z</time>
      </trkpt>
      <trkpt lat="46.51353" lon="0.34842">
        <ele>123</ele>
        <time>2021-05-13T15:35:40Z</time>
      </trkpt>
      <trkpt lat="46.51355" lon="0.34843">
        <ele>122.6</ele>
        <time>2021-05-13T15:35:41Z</time>
      </trkpt>
      <trkpt lat="46.51358" lon="0.34843">
        <ele>121.4</ele>
        <time>2021-05-13T15:35:43Z</time>
      </trkpt>
    </trkseg>
  </trk>
</gpx>